PWSweather.com
Personal Weather Stations
Station Observations
31648434
Zona Oeste (cazadores De Tormentas), San Fernando Del Valle De CatamarcaAR 4700

Zona Oeste (cazadores De Tormentas)San Fernando Del Valle De CatamarcaAR 4700

Lat: -28.467778, Lon: -65.795278

Elevation: 1896.33

Station Type: Fine Offset WH1081

http://www.cazatormentasdecatamarca.com/2011/10/datos-del-tiempo-actuales.html

Latest ConditionsUpdated 9:15:28 PM GMT-03:57 Friday, May 24, 2019
Currently Today's Max Today's Min Today's Average
Temperature 54.9°F12.7°C 66.7°F19.3°C 41.4°F5.2°C 53.0°F11.7°C
Dew Point 46.4°F8.0°C 48.4°F9.1°C 36.1°F2.3°C 42.1°F5.6°C
Winds 0.7 mph SW1.1 kmh SW 6.9 mph -11.1 kmh - - 1.3 mph 2.1 kmh
Wind Gusts 2.2 mph3.5 kmh 10.7 mph17.2 kmh - -
Humidity 73% 87% 45% 69%
Pressure 29.84 in1010.5 mb 30.03 in1016.9 mb 29.82 in1009.8 mb -
Hour Temp Dew Point Humidity Winds Wind Gusts Pressure Precip Precip Rate Daily Precip Total
09:15 PM 54.9°F12.7°C 46.4°F8.0°C 73% 0.7 mph SW1.1 kmh SW 2.2 mph3.5 kmh 29.84 in1010.5 mb 0.00 in0.0 mm 0.00 in0.0 mm 0.00 in0.0 mm
09:14 PM 54.9°F12.7°C 46.4°F8.0°C 73% 0.7 mph SW1.1 kmh SW 2.2 mph3.5 kmh 29.84 in1010.5 mb 0.00 in0.0 mm 0.00 in0.0 mm 0.00 in0.0 mm
09:13 PM 54.9°F12.7°C 46.4°F8.0°C 73% 1.6 mph W2.6 kmh W 2.2 mph3.5 kmh 29.84 in1010.5 mb 0.00 in0.0 mm 0.00 in0.0 mm 0.00 in0.0 mm
09:11 PM 54.9°F12.7°C 46.4°F8.0°C 73% 0.7 mph W1.1 kmh W 2.2 mph3.5 kmh 29.84 in1010.5 mb 0.00 in0.0 mm 0.00 in0.0 mm 0.00 in0.0 mm
09:10 PM 54.9°F12.7°C 46.4°F8.0°C 73% 1.6 mph SW2.6 kmh SW 2.2 mph3.5 kmh 29.84 in1010.5 mb 0.00 in0.0 mm 0.00 in0.0 mm 0.00 in0.0 mm
09:09 PM 54.9°F12.7°C 46.4°F8.0°C 73% 0.7 mph W1.1 kmh W 2.2 mph3.5 kmh 29.84 in1010.5 mb 0.00 in0.0 mm 0.00 in0.0 mm 0.00 in0.0 mm
09:08 PM 54.9°F12.7°C 46.4°F8.0°C 73% 0.7 mph NW1.1 kmh NW 2.2 mph3.5 kmh 29.84 in1010.5 mb 0.00 in0.0 mm 0.00 in0.0 mm 0.00 in0.0 mm
09:07 PM 54.9°F12.7°C 46.4°F8.0°C 73% 0.7 mph NW1.1 kmh NW 2.2 mph3.5 kmh 29.84 in1010.5 mb 0.00 in0.0 mm 0.00 in0.0 mm 0.00 in0.0 mm
09:06 PM 55.0°F12.8°C 46.6°F8.1°C 73% 0.7 mph SW1.1 kmh SW 2.2 mph3.5 kmh 29.84 in1010.5 mb 0.00 in0.0 mm 0.00 in0.0 mm 0.00 in0.0 mm
09:04 PM 55.0°F12.8°C 46.2°F7.9°C 72% 0.7 mph SW1.1 kmh SW 2.2 mph3.5 kmh 29.84 in1010.5 mb 0.00 in0.0 mm 0.00 in0.0 mm 0.00 in0.0 mm
09:03 PM 55.0°F12.8°C 46.2°F7.9°C 72% 0.7 mph W1.1 kmh W 3.1 mph5.0 kmh 29.83 in1010.2 mb 0.00 in0.0 mm 0.00 in0.0 mm 0.00 in0.0 mm
09:02 PM 55.0°F12.8°C 46.2°F7.9°C 72% 1.6 mph NW2.6 kmh NW 3.1 mph5.0 kmh 29.84 in1010.5 mb 0.00 in0.0 mm 0.00 in0.0 mm 0.00 in0.0 mm
09:01 PM 55.0°F12.8°C 46.2°F7.9°C 72% 1.6 mph WNW2.6 kmh WNW 3.1 mph5.0 kmh 29.84 in1010.5 mb 0.00 in0.0 mm 0.00 in0.0 mm 0.00 in0.0 mm
09:00 PM 55.0°F12.8°C 46.2°F7.9°C 72% 1.6 mph WNW2.6 kmh WNW 3.1 mph5.0 kmh 29.83 in1010.2 mb 0.00 in0.0 mm 0.00 in0.0 mm 0.00 in0.0 mm
08:59 PM 55.2°F12.9°C 46.4°F8.0°C 72% 1.6 mph NW2.6 kmh NW 3.1 mph5.0 kmh 29.84 in1010.5 mb 0.00 in0.0 mm 0.00 in0.0 mm 0.00 in0.0 mm
08:57 PM 55.2°F12.9°C 46.4°F8.0°C 72% 1.6 mph W2.6 kmh W 3.1 mph5.0 kmh 29.83 in1010.2 mb 0.00 in0.0 mm 0.00 in0.0 mm 0.00 in0.0 mm
08:56 PM 55.2°F12.9°C 46.4°F8.0°C 72% 1.6 mph W2.6 kmh W 3.1 mph5.0 kmh 29.83 in1010.2 mb 0.00 in0.0 mm 0.00 in0.0 mm 0.00 in0.0 mm
08:55 PM 55.2°F12.9°C 46.4°F8.0°C 72% 0.7 mph W1.1 kmh W 2.2 mph3.5 kmh 29.83 in1010.2 mb 0.00 in0.0 mm 0.00 in0.0 mm 0.00 in0.0 mm
08:54 PM 55.2°F12.9°C 46.4°F8.0°C 72% 0.7 mph W1.1 kmh W 2.2 mph3.5 kmh 29.83 in1010.2 mb 0.00 in0.0 mm 0.00 in0.0 mm 0.00 in0.0 mm
08:53 PM 55.2°F12.9°C 46.4°F8.0°C 72% 1.6 mph W2.6 kmh W 3.1 mph5.0 kmh 29.84 in1010.5 mb 0.00 in0.0 mm 0.00 in0.0 mm 0.00 in0.0 mm
08:51 PM 55.2°F12.9°C 46.4°F8.0°C 72% 0.7 mph NW1.1 kmh NW 3.1 mph5.0 kmh 29.83 in1010.2 mb 0.00 in0.0 mm 0.00 in0.0 mm 0.00 in0.0 mm
08:50 PM 55.4°F13.0°C 46.6°F8.1°C 72% 1.6 mph W2.6 kmh W 3.1 mph5.0 kmh 29.83 in1010.2 mb 0.00 in0.0 mm 0.00 in0.0 mm 0.00 in0.0 mm
08:49 PM 55.4°F13.0°C 46.6°F8.1°C 72% 2.2 mph W3.5 kmh W 3.1 mph5.0 kmh 29.83 in1010.2 mb 0.00 in0.0 mm 0.00 in0.0 mm 0.00 in0.0 mm
08:48 PM 55.4°F13.0°C 46.6°F8.1°C 72% 0.7 mph W1.1 kmh W 1.6 mph2.6 kmh 29.83 in1010.2 mb 0.00 in0.0 mm 0.00 in0.0 mm 0.00 in0.0 mm
08:47 PM 55.4°F13.0°C 46.6°F8.1°C 72% 0.7 mph W1.1 kmh W 2.2 mph3.5 kmh 29.83 in1010.2 mb 0.00 in0.0 mm 0.00 in0.0 mm 0.00 in0.0 mm
08:46 PM 55.4°F13.0°C 46.6°F8.1°C 72% 0.7 mph W1.1 kmh W 2.2 mph3.5 kmh 29.83 in1010.2 mb 0.00 in0.0 mm 0.00 in0.0 mm 0.00 in0.0 mm
08:44 PM 55.4°F13.0°C 46.6°F8.1°C 72% 0.7 mph W1.1 kmh W 1.6 mph2.6 kmh 29.83 in1010.2 mb 0.00 in0.0 mm 0.00 in0.0 mm 0.00 in0.0 mm
08:43 PM 55.6°F13.1°C 46.8°F8.2°C 72% 0.7 mph NW1.1 kmh NW 2.2 mph3.5 kmh 29.83 in1010.2 mb 0.00 in0.0 mm 0.00 in0.0 mm 0.00 in0.0 mm
08:42 PM 55.6°F13.1°C 46.8°F8.2°C 72% 0.7 mph W1.1 kmh W 2.2 mph3.5 kmh 29.83 in1010.2 mb 0.00 in0.0 mm 0.00 in0.0 mm 0.00 in0.0 mm
08:41 PM 55.6°F13.1°C 46.8°F8.2°C 72% 0.7 mph W1.1 kmh W 2.2 mph3.5 kmh 29.83 in1010.2 mb 0.00 in0.0 mm 0.00 in0.0 mm 0.00 in0.0 mm
08:40 PM 55.6°F13.1°C 46.8°F8.2°C 72% 0.7 mph W1.1 kmh W 2.2 mph3.5 kmh 29.83 in1010.2 mb 0.00 in0.0 mm 0.00 in0.0 mm 0.00 in0.0 mm
08:39 PM 55.6°F13.1°C 46.8°F8.2°C 72% 0.7 mph W1.1 kmh W 3.1 mph5.0 kmh 29.83 in1010.2 mb 0.00 in0.0 mm 0.00 in0.0 mm 0.00 in0.0 mm
08:37 PM 55.6°F13.1°C 46.8°F8.2°C 72% 0.7 mph W1.1 kmh W 3.1 mph5.0 kmh 29.83 in1010.2 mb 0.00 in0.0 mm 0.00 in0.0 mm 0.00 in0.0 mm
08:36 PM 55.8°F13.2°C 46.6°F8.1°C 71% 1.6 mph W2.6 kmh W 3.1 mph5.0 kmh 29.83 in1010.2 mb 0.00 in0.0 mm 0.00 in0.0 mm 0.00 in0.0 mm
08:35 PM 55.8°F13.2°C 46.6°F8.1°C 71% 1.6 mph W2.6 kmh W 3.8 mph6.1 kmh 29.83 in1010.2 mb 0.00 in0.0 mm 0.00 in0.0 mm 0.00 in0.0 mm
08:34 PM 55.8°F13.2°C 46.6°F8.1°C 71% 1.6 mph W2.6 kmh W 2.2 mph3.5 kmh 29.83 in1010.2 mb 0.00 in0.0 mm 0.00 in0.0 mm 0.00 in0.0 mm
08:33 PM 55.8°F13.2°C 46.6°F8.1°C 71% 1.6 mph W2.6 kmh W 2.2 mph3.5 kmh 29.83 in1010.2 mb 0.00 in0.0 mm 0.00 in0.0 mm 0.00 in0.0 mm
08:32 PM 55.8°F13.2°C 46.6°F8.1°C 71% 0.7 mph W1.1 kmh W 2.2 mph3.5 kmh 29.84 in1010.5 mb 0.00 in0.0 mm 0.00 in0.0 mm 0.00 in0.0 mm
08:30 PM 55.9°F13.3°C 46.8°F8.2°C 71% Calm Calm 1.6 mph2.6 kmh 29.84 in1010.5 mb 0.00 in0.0 mm 0.00 in0.0 mm 0.00 in0.0 mm
08:29 PM 55.9°F13.3°C 46.8°F8.2°C 71% 0.7 mph W1.1 kmh W 1.6 mph2.6 kmh 29.84 in1010.5 mb 0.00 in0.0 mm 0.00 in0.0 mm 0.00 in0.0 mm
08:28 PM 55.9°F13.3°C 46.8°F8.2°C 71% 0.7 mph W1.1 kmh W 2.2 mph3.5 kmh 29.84 in1010.5 mb 0.00 in0.0 mm 0.00 in0.0 mm 0.00 in0.0 mm
08:27 PM 55.9°F13.3°C 46.8°F8.2°C 71% 1.6 mph NW2.6 kmh NW 2.2 mph3.5 kmh 29.83 in1010.2 mb 0.00 in0.0 mm 0.00 in0.0 mm 0.00 in0.0 mm
08:26 PM 55.9°F13.3°C 46.8°F8.2°C 71% 1.6 mph W2.6 kmh W 2.2 mph3.5 kmh 29.84 in1010.5 mb 0.00 in0.0 mm 0.00 in0.0 mm 0.00 in0.0 mm
08:24 PM 56.1°F13.4°C 46.8°F8.2°C 71% 0.7 mph W1.1 kmh W 2.2 mph3.5 kmh 29.83 in1010.2 mb 0.00 in0.0 mm 0.00 in0.0 mm 0.00 in0.0 mm
08:23 PM 55.9°F13.3°C 46.8°F8.2°C 71% 0.7 mph W1.1 kmh W 2.2 mph3.5 kmh 29.83 in1010.2 mb 0.00 in0.0 mm 0.00 in0.0 mm 0.00 in0.0 mm
08:22 PM 56.1°F13.4°C 46.8°F8.2°C 71% 0.7 mph W1.1 kmh W 1.6 mph2.6 kmh 29.83 in1010.2 mb 0.00 in0.0 mm 0.00 in0.0 mm 0.00 in0.0 mm
08:21 PM 56.1°F13.4°C 46.8°F8.2°C 71% 0.7 mph W1.1 kmh W 1.6 mph2.6 kmh 29.83 in1010.2 mb 0.00 in0.0 mm 0.00 in0.0 mm 0.00 in0.0 mm
08:20 PM 56.1°F13.4°C 46.8°F8.2°C 71% 0.7 mph NW1.1 kmh NW 2.2 mph3.5 kmh 29.83 in1010.2 mb 0.00 in0.0 mm 0.00 in0.0 mm 0.00 in0.0 mm
08:19 PM 56.3°F13.5°C 46.9°F8.3°C 71% 0.7 mph NW1.1 kmh NW 1.6 mph2.6 kmh 29.83 in1010.2 mb 0.00 in0.0 mm 0.00 in0.0 mm 0.00 in0.0 mm
08:17 PM 56.3°F13.5°C 46.6°F8.1°C 70% 0.7 mph W1.1 kmh W 3.1 mph5.0 kmh 29.83 in1010.2 mb 0.00 in0.0 mm 0.00 in0.0 mm 0.00 in0.0 mm
08:16 PM 56.3°F13.5°C 46.6°F8.1°C 70% 0.7 mph W1.1 kmh W 3.1 mph5.0 kmh 29.83 in1010.2 mb 0.00 in0.0 mm 0.00 in0.0 mm 0.00 in0.0 mm
08:15 PM 56.5°F13.6°C 46.8°F8.2°C 70% 0.7 mph W1.1 kmh W 3.1 mph5.0 kmh 29.84 in1010.5 mb 0.00 in0.0 mm 0.00 in0.0 mm 0.00 in0.0 mm
08:14 PM 56.5°F13.6°C 46.8°F8.2°C 70% 0.7 mph W1.1 kmh W 3.1 mph5.0 kmh 29.84 in1010.5 mb 0.00 in0.0 mm 0.00 in0.0 mm 0.00 in0.0 mm
08:13 PM 56.5°F13.6°C 46.8°F8.2°C 70% 0.7 mph SW1.1 kmh SW 2.2 mph3.5 kmh 29.84 in1010.5 mb 0.00 in0.0 mm 0.00 in0.0 mm 0.00 in0.0 mm
08:12 PM 56.5°F13.6°C 46.8°F8.2°C 70% 0.7 mph W1.1 kmh W 2.2 mph3.5 kmh 29.84 in1010.5 mb 0.00 in0.0 mm 0.00 in0.0 mm 0.00 in0.0 mm
08:10 PM 56.5°F13.6°C 46.8°F8.2°C 70% 1.6 mph W2.6 kmh W 2.2 mph3.5 kmh 29.84 in1010.5 mb 0.00 in0.0 mm 0.00 in0.0 mm 0.00 in0.0 mm
08:09 PM 56.7°F13.7°C 46.9°F8.3°C 70% 0.7 mph W1.1 kmh W 3.1 mph5.0 kmh 29.84 in1010.5 mb 0.00 in0.0 mm 0.00 in0.0 mm 0.00 in0.0 mm
08:08 PM 56.7°F13.7°C 46.9°F8.3°C 70% 1.6 mph W2.6 kmh W 3.1 mph5.0 kmh 29.84 in1010.5 mb 0.00 in0.0 mm 0.00 in0.0 mm 0.00 in0.0 mm
08:07 PM 56.7°F13.7°C 46.9°F8.3°C 70% 1.6 mph SW2.6 kmh SW 3.1 mph5.0 kmh 29.84 in1010.5 mb 0.00 in0.0 mm 0.00 in0.0 mm 0.00 in0.0 mm
08:06 PM 56.8°F13.8°C 47.1°F8.4°C 70% 1.6 mph W2.6 kmh W 3.1 mph5.0 kmh 29.84 in1010.5 mb 0.00 in0.0 mm 0.00 in0.0 mm 0.00 in0.0 mm
08:04 PM 56.8°F13.8°C 47.1°F8.4°C 70% 1.6 mph NW2.6 kmh NW 2.2 mph3.5 kmh 29.84 in1010.5 mb 0.00 in0.0 mm 0.00 in0.0 mm 0.00 in0.0 mm
08:03 PM 56.8°F13.8°C 47.1°F8.4°C 70% 0.7 mph W1.1 kmh W 2.2 mph3.5 kmh 29.84 in1010.5 mb 0.00 in0.0 mm 0.00 in0.0 mm 0.00 in0.0 mm
08:02 PM 57.0°F13.9°C 47.3°F8.5°C 70% 1.6 mph W2.6 kmh W 2.2 mph3.5 kmh 29.84 in1010.5 mb 0.00 in0.0 mm 0.00 in0.0 mm 0.00 in0.0 mm
08:01 PM 57.0°F13.9°C 47.3°F8.5°C 70% 1.6 mph W2.6 kmh W 2.2 mph3.5 kmh 29.84 in1010.5 mb 0.00 in0.0 mm 0.00 in0.0 mm 0.00 in0.0 mm
08:00 PM 57.0°F13.9°C 47.3°F8.5°C 70% 1.6 mph W2.6 kmh W 3.1 mph5.0 kmh 29.83 in1010.2 mb 0.00 in0.0 mm 0.00 in0.0 mm 0.00 in0.0 mm
07:59 PM 57.2°F14.0°C 47.5°F8.6°C 70% 0.7 mph W1.1 kmh W 3.1 mph5.0 kmh 29.84 in1010.5 mb 0.00 in0.0 mm 0.00 in0.0 mm 0.00 in0.0 mm
07:57 PM 57.2°F14.0°C 47.5°F8.6°C 70% 0.7 mph W1.1 kmh W 1.6 mph2.6 kmh 29.83 in1010.2 mb 0.00 in0.0 mm 0.00 in0.0 mm 0.00 in0.0 mm
07:56 PM 57.2°F14.0°C 47.1°F8.4°C 69% Calm Calm 1.6 mph2.6 kmh 29.83 in1010.2 mb 0.00 in0.0 mm 0.00 in0.0 mm 0.00 in0.0 mm
07:55 PM 57.2°F14.0°C 47.1°F8.4°C 69% Calm Calm 0.7 mph1.1 kmh 29.83 in1010.2 mb 0.00 in0.0 mm 0.00 in0.0 mm 0.00 in0.0 mm
07:54 PM 57.4°F14.1°C 47.3°F8.5°C 69% Calm Calm 0.7 mph1.1 kmh 29.83 in1010.2 mb 0.00 in0.0 mm 0.00 in0.0 mm 0.00 in0.0 mm
07:53 PM 57.4°F14.1°C 47.3°F8.5°C 69% Calm Calm 1.6 mph2.6 kmh 29.83 in1010.2 mb 0.00 in0.0 mm 0.00 in0.0 mm 0.00 in0.0 mm
07:52 PM 57.4°F14.1°C 47.3°F8.5°C 69% 0.7 mph NW1.1 kmh NW 1.6 mph2.6 kmh 29.83 in1010.2 mb 0.00 in0.0 mm 0.00 in0.0 mm 0.00 in0.0 mm
07:50 PM 57.4°F14.1°C 47.3°F8.5°C 69% 0.7 mph W1.1 kmh W 1.6 mph2.6 kmh 29.83 in1010.2 mb 0.00 in0.0 mm 0.00 in0.0 mm 0.00 in0.0 mm
07:49 PM 57.6°F14.2°C 47.5°F8.6°C 69% Calm Calm 1.6 mph2.6 kmh 29.84 in1010.5 mb 0.00 in0.0 mm 0.00 in0.0 mm 0.00 in0.0 mm
07:48 PM 57.6°F14.2°C 47.5°F8.6°C 69% Calm Calm 1.6 mph2.6 kmh 29.83 in1010.2 mb 0.00 in0.0 mm 0.00 in0.0 mm 0.00 in0.0 mm
07:47 PM 57.7°F14.3°C 47.3°F8.5°C 68% Calm Calm 0.7 mph1.1 kmh 29.84 in1010.5 mb 0.00 in0.0 mm 0.00 in0.0 mm 0.00 in0.0 mm
07:46 PM 57.7°F14.3°C 47.3°F8.5°C 68% Calm Calm 1.6 mph2.6 kmh 29.83 in1010.2 mb 0.00 in0.0 mm 0.00 in0.0 mm 0.00 in0.0 mm
07:45 PM 57.7°F14.3°C 47.3°F8.5°C 68% 0.7 mph W1.1 kmh W 1.6 mph2.6 kmh 29.84 in1010.5 mb 0.00 in0.0 mm 0.00 in0.0 mm 0.00 in0.0 mm
07:43 PM 57.9°F14.4°C 47.5°F8.6°C 68% Calm Calm 0.7 mph1.1 kmh 29.84 in1010.5 mb 0.00 in0.0 mm 0.00 in0.0 mm 0.00 in0.0 mm
07:42 PM 57.9°F14.4°C 47.5°F8.6°C 68% Calm Calm 1.6 mph2.6 kmh 29.83 in1010.2 mb 0.00 in0.0 mm 0.00 in0.0 mm 0.00 in0.0 mm
07:41 PM 57.9°F14.4°C 46.9°F8.3°C 67% 0.7 mph NW1.1 kmh NW 1.6 mph2.6 kmh 29.83 in1010.2 mb 0.00 in0.0 mm 0.00 in0.0 mm 0.00 in0.0 mm
07:40 PM 58.1°F14.5°C 47.1°F8.4°C 67% 0.7 mph W1.1 kmh W 1.6 mph2.6 kmh 29.83 in1010.2 mb 0.00 in0.0 mm 0.00 in0.0 mm 0.00 in0.0 mm
07:39 PM 58.1°F14.5°C 47.1°F8.4°C 67% Calm Calm 1.6 mph2.6 kmh 29.84 in1010.5 mb 0.00 in0.0 mm 0.00 in0.0 mm 0.00 in0.0 mm
07:37 PM 58.1°F14.5°C 47.1°F8.4°C 67% 0.7 mph W1.1 kmh W 2.2 mph3.5 kmh 29.84 in1010.5 mb 0.00 in0.0 mm 0.00 in0.0 mm 0.00 in0.0 mm
07:36 PM 58.3°F14.6°C 47.3°F8.5°C 67% 0.7 mph NW1.1 kmh NW 1.6 mph2.6 kmh 29.84 in1010.5 mb 0.00 in0.0 mm 0.00 in0.0 mm 0.00 in0.0 mm
07:35 PM 58.3°F14.6°C 47.3°F8.5°C 67% 0.7 mph NW1.1 kmh NW 1.6 mph2.6 kmh 29.84 in1010.5 mb 0.00 in0.0 mm 0.00 in0.0 mm 0.00 in0.0 mm
07:34 PM 58.3°F14.6°C 47.3°F8.5°C 67% 0.7 mph NW1.1 kmh NW 1.6 mph2.6 kmh 29.84 in1010.5 mb 0.00 in0.0 mm 0.00 in0.0 mm 0.00 in0.0 mm
07:33 PM 58.5°F14.7°C 47.5°F8.6°C 67% 0.7 mph NW1.1 kmh NW 2.2 mph3.5 kmh 29.84 in1010.5 mb 0.00 in0.0 mm 0.00 in0.0 mm 0.00 in0.0 mm
07:32 PM 58.5°F14.7°C 47.1°F8.4°C 66% 0.7 mph W1.1 kmh W 2.2 mph3.5 kmh 29.84 in1010.5 mb 0.00 in0.0 mm 0.00 in0.0 mm 0.00 in0.0 mm
07:30 PM 58.6°F14.8°C 47.3°F8.5°C 66% 0.7 mph NW1.1 kmh NW 1.6 mph2.6 kmh 29.84 in1010.5 mb 0.00 in0.0 mm 0.00 in0.0 mm 0.00 in0.0 mm
07:29 PM 58.6°F14.8°C 47.3°F8.5°C 66% 0.7 mph NW1.1 kmh NW 1.6 mph2.6 kmh 29.84 in1010.5 mb 0.00 in0.0 mm 0.00 in0.0 mm 0.00 in0.0 mm
07:28 PM 58.6°F14.8°C 47.3°F8.5°C 66% 0.7 mph NW1.1 kmh NW 2.2 mph3.5 kmh 29.84 in1010.5 mb 0.00 in0.0 mm 0.00 in0.0 mm 0.00 in0.0 mm
07:27 PM 58.6°F14.8°C 47.3°F8.5°C 66% 0.7 mph W1.1 kmh W 2.2 mph3.5 kmh 29.83 in1010.2 mb 0.00 in0.0 mm 0.00 in0.0 mm 0.00 in0.0 mm
07:26 PM 58.8°F14.9°C 47.5°F8.6°C 66% 0.7 mph NW1.1 kmh NW 2.2 mph3.5 kmh 29.83 in1010.2 mb 0.00 in0.0 mm 0.00 in0.0 mm 0.00 in0.0 mm
07:25 PM 58.8°F14.9°C 47.5°F8.6°C 66% 0.7 mph NW1.1 kmh NW 3.1 mph5.0 kmh 29.83 in1010.2 mb 0.00 in0.0 mm 0.00 in0.0 mm 0.00 in0.0 mm
07:23 PM 59.0°F15.0°C 47.3°F8.5°C 65% 1.6 mph W2.6 kmh W 3.1 mph5.0 kmh 29.83 in1010.2 mb 0.00 in0.0 mm 0.00 in0.0 mm 0.00 in0.0 mm
07:22 PM 59.0°F15.0°C 47.3°F8.5°C 65% 0.7 mph NW1.1 kmh NW 2.2 mph3.5 kmh 29.84 in1010.5 mb 0.00 in0.0 mm 0.00 in0.0 mm 0.00 in0.0 mm
07:21 PM 59.2°F15.1°C 47.5°F8.6°C 65% 0.7 mph NW1.1 kmh NW 2.2 mph3.5 kmh 29.84 in1010.5 mb 0.00 in0.0 mm 0.00 in0.0 mm 0.00 in0.0 mm
07:20 PM 59.2°F15.1°C 47.5°F8.6°C 65% 0.7 mph NW1.1 kmh NW 1.6 mph2.6 kmh 29.84 in1010.5 mb 0.00 in0.0 mm 0.00 in0.0 mm 0.00 in0.0 mm
07:19 PM 59.2°F15.1°C 47.5°F8.6°C 65% 0.7 mph W1.1 kmh W 1.6 mph2.6 kmh 29.83 in1010.2 mb 0.00 in0.0 mm 0.00 in0.0 mm 0.00 in0.0 mm
07:17 PM 59.2°F15.1°C 47.5°F8.6°C 65% 0.7 mph W1.1 kmh W 2.2 mph3.5 kmh 29.83 in1010.2 mb 0.00 in0.0 mm 0.00 in0.0 mm 0.00 in0.0 mm
07:16 PM 59.4°F15.2°C 47.7°F8.7°C 65% 0.7 mph NW1.1 kmh NW 3.1 mph5.0 kmh 29.83 in1010.2 mb 0.00 in0.0 mm 0.00 in0.0 mm 0.00 in0.0 mm
07:15 PM 59.4°F15.2°C 47.7°F8.7°C 65% 0.7 mph NW1.1 kmh NW 2.2 mph3.5 kmh 29.83 in1010.2 mb 0.00 in0.0 mm 0.00 in0.0 mm 0.00 in0.0 mm
07:14 PM 59.4°F15.2°C 47.7°F8.7°C 65% 0.7 mph NW1.1 kmh NW 2.2 mph3.5 kmh 29.83 in1010.2 mb 0.00 in0.0 mm 0.00 in0.0 mm 0.00 in0.0 mm
07:13 PM 59.5°F15.3°C 47.8°F8.8°C 65% 0.7 mph WNW1.1 kmh WNW 2.2 mph3.5 kmh 29.83 in1010.2 mb 0.00 in0.0 mm 0.00 in0.0 mm 0.00 in0.0 mm
07:12 PM 59.5°F15.3°C 47.3°F8.5°C 64% 0.7 mph NW1.1 kmh NW 1.6 mph2.6 kmh 29.83 in1010.2 mb 0.00 in0.0 mm 0.00 in0.0 mm 0.00 in0.0 mm
07:10 PM 59.7°F15.4°C 47.5°F8.6°C 64% 0.7 mph W1.1 kmh W 2.2 mph3.5 kmh 29.83 in1010.2 mb 0.00 in0.0 mm 0.00 in0.0 mm 0.00 in0.0 mm
07:09 PM 59.7°F15.4°C 47.5°F8.6°C 64% 0.7 mph W1.1 kmh W 2.2 mph3.5 kmh 29.83 in1010.2 mb 0.00 in0.0 mm 0.00 in0.0 mm 0.00 in0.0 mm
07:08 PM 59.7°F15.4°C 47.5°F8.6°C 64% 0.7 mph W1.1 kmh W 2.2 mph3.5 kmh 29.83 in1010.2 mb 0.00 in0.0 mm 0.00 in0.0 mm 0.00 in0.0 mm
07:07 PM 59.9°F15.5°C 47.7°F8.7°C 64% 0.7 mph NW1.1 kmh NW 2.2 mph3.5 kmh 29.83 in1010.2 mb 0.00 in0.0 mm 0.00 in0.0 mm 0.00 in0.0 mm
07:06 PM 59.9°F15.5°C 47.7°F8.7°C 64% 0.7 mph NW1.1 kmh NW 2.2 mph3.5 kmh 29.83 in1010.2 mb 0.00 in0.0 mm 0.00 in0.0 mm 0.00 in0.0 mm
07:05 PM 59.9°F15.5°C 47.7°F8.7°C 64% 0.7 mph W1.1 kmh W 2.2 mph3.5 kmh 29.84 in1010.5 mb 0.00 in0.0 mm 0.00 in0.0 mm 0.00 in0.0 mm
07:03 PM 60.1°F15.6°C 47.8°F8.8°C 64% 0.7 mph W1.1 kmh W 2.2 mph3.5 kmh 29.83 in1010.2 mb 0.00 in0.0 mm 0.00 in0.0 mm 0.00 in0.0 mm
07:02 PM 60.1°F15.6°C 47.5°F8.6°C 63% 0.7 mph W1.1 kmh W 1.6 mph2.6 kmh 29.83 in1010.2 mb 0.00 in0.0 mm 0.00 in0.0 mm 0.00 in0.0 mm
07:01 PM 60.1°F15.6°C 47.5°F8.6°C 63% 0.7 mph W1.1 kmh W 1.6 mph2.6 kmh 29.83 in1010.2 mb 0.00 in0.0 mm 0.00 in0.0 mm 0.00 in0.0 mm
07:00 PM 60.3°F15.7°C 47.7°F8.7°C 63% 0.7 mph W1.1 kmh W 1.6 mph2.6 kmh 29.83 in1010.2 mb 0.00 in0.0 mm 0.00 in0.0 mm 0.00 in0.0 mm
06:59 PM 60.3°F15.7°C 47.7°F8.7°C 63% 0.7 mph W1.1 kmh W 1.6 mph2.6 kmh 29.83 in1010.2 mb 0.00 in0.0 mm 0.00 in0.0 mm 0.00 in0.0 mm
06:58 PM 60.4°F15.8°C 47.8°F8.8°C 63% 0.7 mph W1.1 kmh W 3.1 mph5.0 kmh 29.83 in1010.2 mb 0.00 in0.0 mm 0.00 in0.0 mm 0.00 in0.0 mm
06:56 PM 60.4°F15.8°C 47.8°F8.8°C 63% 1.6 mph SW2.6 kmh SW 3.1 mph5.0 kmh 29.83 in1010.2 mb 0.00 in0.0 mm 0.00 in0.0 mm 0.00 in0.0 mm
06:55 PM 60.3°F15.7°C 47.1°F8.4°C 62% 1.6 mph W2.6 kmh W 3.1 mph5.0 kmh 29.83 in1010.2 mb 0.00 in0.0 mm 0.00 in0.0 mm 0.00 in0.0 mm
06:54 PM 60.6°F15.9°C 47.5°F8.6°C 62% 0.7 mph W1.1 kmh W 2.2 mph3.5 kmh 29.83 in1010.2 mb 0.00 in0.0 mm 0.00 in0.0 mm 0.00 in0.0 mm
06:53 PM 60.6°F15.9°C 47.5°F8.6°C 62% 0.7 mph SW1.1 kmh SW 2.2 mph3.5 kmh 29.83 in1010.2 mb 0.00 in0.0 mm 0.00 in0.0 mm 0.00 in0.0 mm
06:52 PM 60.8°F16.0°C 47.7°F8.7°C 62% 0.7 mph W1.1 kmh W 1.6 mph2.6 kmh 29.83 in1010.2 mb 0.00 in0.0 mm 0.00 in0.0 mm 0.00 in0.0 mm
06:50 PM 60.8°F16.0°C 47.7°F8.7°C 62% 0.7 mph NW1.1 kmh NW 1.6 mph2.6 kmh 29.83 in1010.2 mb 0.00 in0.0 mm 0.00 in0.0 mm 0.00 in0.0 mm
06:49 PM 61.0°F16.1°C 47.8°F8.8°C 62% Calm Calm 1.6 mph2.6 kmh 29.83 in1010.2 mb 0.00 in0.0 mm 0.00 in0.0 mm 0.00 in0.0 mm
06:48 PM 61.2°F16.2°C 48.0°F8.9°C 62% 0.7 mph NW1.1 kmh NW 1.6 mph2.6 kmh 29.83 in1010.2 mb 0.00 in0.0 mm 0.00 in0.0 mm 0.00 in0.0 mm
06:47 PM 61.0°F16.1°C 47.8°F8.8°C 62% Calm Calm 1.6 mph2.6 kmh 29.83 in1010.2 mb 0.00 in0.0 mm 0.00 in0.0 mm 0.00 in0.0 mm
06:46 PM 61.3°F16.3°C 47.8°F8.8°C 61% 0.7 mph NW1.1 kmh NW 1.6 mph2.6 kmh 29.83 in1010.2 mb 0.00 in0.0 mm 0.00 in0.0 mm 0.00 in0.0 mm
06:45 PM 61.3°F16.3°C 47.8°F8.8°C 61% Calm Calm 1.6 mph2.6 kmh 29.83 in1010.2 mb 0.00 in0.0 mm 0.00 in0.0 mm 0.00 in0.0 mm
06:43 PM 61.5°F16.4°C 47.5°F8.6°C 60% Calm Calm 1.6 mph2.6 kmh 29.83 in1010.2 mb 0.00 in0.0 mm 0.00 in0.0 mm 0.00 in0.0 mm
06:42 PM 61.3°F16.3°C 47.3°F8.5°C 60% 0.7 mph W1.1 kmh W 2.2 mph3.5 kmh 29.83 in1010.2 mb 0.00 in0.0 mm 0.00 in0.0 mm 0.00 in0.0 mm
06:41 PM 61.7°F16.5°C 47.7°F8.7°C 60% 0.7 mph W1.1 kmh W 2.2 mph3.5 kmh 29.83 in1010.2 mb 0.00 in0.0 mm 0.00 in0.0 mm 0.00 in0.0 mm
06:40 PM 61.7°F16.5°C 47.3°F8.5°C 59% Calm Calm 1.6 mph2.6 kmh 29.83 in1010.2 mb 0.00 in0.0 mm 0.00 in0.0 mm 0.00 in0.0 mm
06:39 PM 61.7°F16.5°C 47.3°F8.5°C 59% Calm Calm 1.6 mph2.6 kmh 29.83 in1010.2 mb 0.00 in0.0 mm 0.00 in0.0 mm 0.00 in0.0 mm
06:38 PM 61.9°F16.6°C 47.5°F8.6°C 59% Calm Calm 2.2 mph3.5 kmh 29.83 in1010.2 mb 0.00 in0.0 mm 0.00 in0.0 mm 0.00 in0.0 mm
06:36 PM 62.1°F16.7°C 47.5°F8.6°C 59% 0.7 mph W1.1 kmh W 2.2 mph3.5 kmh 29.83 in1010.2 mb 0.00 in0.0 mm 0.00 in0.0 mm 0.00 in0.0 mm
06:35 PM 62.1°F16.7°C 47.1°F8.4°C 58% 0.7 mph NW1.1 kmh NW 2.2 mph3.5 kmh 29.83 in1010.2 mb 0.00 in0.0 mm 0.00 in0.0 mm 0.00 in0.0 mm
06:34 PM 61.0°F16.1°C 46.0°F7.8°C 58% 0.7 mph W1.1 kmh W 2.2 mph3.5 kmh 29.83 in1010.2 mb 0.00 in0.0 mm 0.00 in0.0 mm 0.00 in0.0 mm
06:33 PM 62.1°F16.7°C 47.1°F8.4°C 58% 0.7 mph SW1.1 kmh SW 2.2 mph3.5 kmh 29.83 in1010.2 mb 0.00 in0.0 mm 0.00 in0.0 mm 0.00 in0.0 mm
06:32 PM 62.4°F16.9°C 46.9°F8.3°C 57% 1.6 mph W2.6 kmh W 3.1 mph5.0 kmh 29.83 in1010.2 mb 0.00 in0.0 mm 0.00 in0.0 mm 0.00 in0.0 mm
06:31 PM 62.4°F16.9°C 46.9°F8.3°C 57% 1.6 mph NW2.6 kmh NW 3.1 mph5.0 kmh 29.83 in1010.2 mb 0.00 in0.0 mm 0.00 in0.0 mm 0.00 in0.0 mm
06:29 PM 62.4°F16.9°C 46.9°F8.3°C 57% 1.6 mph W2.6 kmh W 3.1 mph5.0 kmh 29.83 in1010.2 mb 0.00 in0.0 mm 0.00 in0.0 mm 0.00 in0.0 mm
06:28 PM 62.6°F17.0°C 47.1°F8.4°C 57% 1.6 mph W2.6 kmh W 3.1 mph5.0 kmh 29.83 in1010.2 mb 0.00 in0.0 mm 0.00 in0.0 mm 0.00 in0.0 mm
06:27 PM 62.6°F17.0°C 47.1°F8.4°C 57% 0.7 mph SW1.1 kmh SW 3.1 mph5.0 kmh 29.83 in1010.2 mb 0.00 in0.0 mm 0.00 in0.0 mm 0.00 in0.0 mm
06:26 PM 62.8°F17.1°C 47.3°F8.5°C 57% 0.7 mph W1.1 kmh W 3.1 mph5.0 kmh 29.83 in1010.2 mb 0.00 in0.0 mm 0.00 in0.0 mm 0.00 in0.0 mm
06:25 PM 62.8°F17.1°C 46.9°F8.3°C 56% 0.7 mph W1.1 kmh W 3.1 mph5.0 kmh 29.83 in1010.2 mb 0.00 in0.0 mm 0.00 in0.0 mm 0.00 in0.0 mm
06:23 PM 63.0°F17.2°C 46.9°F8.3°C 56% 1.6 mph W2.6 kmh W 3.1 mph5.0 kmh 29.83 in1010.2 mb 0.00 in0.0 mm 0.00 in0.0 mm 0.00 in0.0 mm
06:22 PM 63.0°F17.2°C 46.9°F8.3°C 56% 1.6 mph NW2.6 kmh NW 5.4 mph8.7 kmh 29.83 in1010.2 mb 0.00 in0.0 mm 0.00 in0.0 mm 0.00 in0.0 mm
06:21 PM 63.0°F17.2°C 46.9°F8.3°C 56% 2.2 mph W3.5 kmh W 5.4 mph8.7 kmh 29.83 in1010.2 mb 0.00 in0.0 mm 0.00 in0.0 mm 0.00 in0.0 mm
06:20 PM 63.1°F17.3°C 46.8°F8.2°C 55% 2.2 mph W3.5 kmh W 4.5 mph7.2 kmh 29.83 in1010.2 mb 0.00 in0.0 mm 0.00 in0.0 mm 0.00 in0.0 mm
06:19 PM 63.3°F17.4°C 46.9°F8.3°C 55% 1.6 mph W2.6 kmh W 3.8 mph6.1 kmh 29.83 in1010.2 mb 0.00 in0.0 mm 0.00 in0.0 mm 0.00 in0.0 mm
06:18 PM 63.3°F17.4°C 46.9°F8.3°C 55% 0.7 mph NW1.1 kmh NW 3.1 mph5.0 kmh 29.83 in1010.2 mb 0.00 in0.0 mm 0.00 in0.0 mm 0.00 in0.0 mm
06:16 PM 63.3°F17.4°C 46.9°F8.3°C 55% 0.7 mph W1.1 kmh W 3.1 mph5.0 kmh 29.83 in1010.2 mb 0.00 in0.0 mm 0.00 in0.0 mm 0.00 in0.0 mm
06:15 PM 63.5°F17.5°C 47.1°F8.4°C 55% 1.6 mph W2.6 kmh W 3.1 mph5.0 kmh 29.83 in1010.2 mb 0.00 in0.0 mm 0.00 in0.0 mm 0.00 in0.0 mm
06:14 PM 63.5°F17.5°C 47.1°F8.4°C 55% 0.7 mph SW1.1 kmh SW 2.2 mph3.5 kmh 29.83 in1010.2 mb 0.00 in0.0 mm 0.00 in0.0 mm 0.00 in0.0 mm
06:13 PM 63.5°F17.5°C 47.1°F8.4°C 55% Calm Calm 2.2 mph3.5 kmh 29.83 in1010.2 mb 0.00 in0.0 mm 0.00 in0.0 mm 0.00 in0.0 mm
06:12 PM 63.7°F17.6°C 46.8°F8.2°C 54% 0.7 mph SW1.1 kmh SW 2.2 mph3.5 kmh 29.83 in1010.2 mb 0.00 in0.0 mm 0.00 in0.0 mm 0.00 in0.0 mm
06:11 PM 63.7°F17.6°C 46.8°F8.2°C 54% Calm Calm 2.2 mph3.5 kmh 29.83 in1010.2 mb 0.00 in0.0 mm 0.00 in0.0 mm 0.00 in0.0 mm
06:09 PM 63.9°F17.7°C 46.4°F8.0°C 53% 2.2 mph SW3.5 kmh SW 3.8 mph6.1 kmh 29.83 in1010.2 mb 0.00 in0.0 mm 0.00 in0.0 mm 0.00 in0.0 mm
06:08 PM 63.9°F17.7°C 46.9°F8.3°C 54% 1.6 mph SW2.6 kmh SW 3.1 mph5.0 kmh 29.83 in1010.2 mb 0.00 in0.0 mm 0.00 in0.0 mm 0.00 in0.0 mm
06:07 PM 63.9°F17.7°C 46.4°F8.0°C 53% 3.1 mph SW5.0 kmh SW 4.5 mph7.2 kmh 29.82 in1009.8 mb 0.00 in0.0 mm 0.00 in0.0 mm 0.00 in0.0 mm
06:06 PM 64.0°F17.8°C 46.6°F8.1°C 53% 2.2 mph SW3.5 kmh SW 3.8 mph6.1 kmh 29.83 in1010.2 mb 0.00 in0.0 mm 0.00 in0.0 mm 0.00 in0.0 mm
06:05 PM 63.7°F17.6°C 46.2°F7.9°C 53% 0.7 mph SE1.1 kmh SE 4.5 mph7.2 kmh 29.83 in1010.2 mb 0.00 in0.0 mm 0.00 in0.0 mm 0.00 in0.0 mm
06:03 PM 64.0°F17.8°C 46.6°F8.1°C 53% 2.2 mph SW3.5 kmh SW 6.9 mph11.1 kmh 29.83 in1010.2 mb 0.00 in0.0 mm 0.00 in0.0 mm 0.00 in0.0 mm
06:02 PM 64.0°F17.8°C 46.6°F8.1°C 53% 3.1 mph SW5.0 kmh SW 5.4 mph8.7 kmh 29.83 in1010.2 mb 0.00 in0.0 mm 0.00 in0.0 mm 0.00 in0.0 mm
06:01 PM 64.0°F17.8°C 46.0°F7.8°C 52% 2.2 mph SW3.5 kmh SW 4.5 mph7.2 kmh 29.83 in1010.2 mb 0.00 in0.0 mm 0.00 in0.0 mm 0.00 in0.0 mm
06:00 PM 64.2°F17.9°C 46.2°F7.9°C 52% 1.6 mph S2.6 kmh S 4.5 mph7.2 kmh 29.83 in1010.2 mb 0.00 in0.0 mm 0.00 in0.0 mm 0.00 in0.0 mm
05:59 PM 63.9°F17.7°C 46.4°F8.0°C 53% 3.1 mph SW5.0 kmh SW 4.5 mph7.2 kmh 29.83 in1010.2 mb 0.00 in0.0 mm 0.00 in0.0 mm 0.00 in0.0 mm
05:58 PM 64.2°F17.9°C 46.8°F8.2°C 53% 2.2 mph SW3.5 kmh SW 4.5 mph7.2 kmh 29.83 in1010.2 mb 0.00 in0.0 mm 0.00 in0.0 mm 0.00 in0.0 mm
05:56 PM 64.2°F17.9°C 46.8°F8.2°C 53% 1.6 mph S2.6 kmh S 3.1 mph5.0 kmh 29.83 in1010.2 mb 0.00 in0.0 mm 0.00 in0.0 mm 0.00 in0.0 mm
05:55 PM 64.4°F18.0°C 46.9°F8.3°C 53% 0.7 mph SW1.1 kmh SW 3.1 mph5.0 kmh 29.83 in1010.2 mb 0.00 in0.0 mm 0.00 in0.0 mm 0.00 in0.0 mm
05:54 PM 64.4°F18.0°C 46.4°F8.0°C 52% 0.7 mph SW1.1 kmh SW 3.8 mph6.1 kmh 29.83 in1010.2 mb 0.00 in0.0 mm 0.00 in0.0 mm 0.00 in0.0 mm
05:53 PM 64.4°F18.0°C 46.4°F8.0°C 52% 2.2 mph SW3.5 kmh SW 4.5 mph7.2 kmh 29.83 in1010.2 mb 0.00 in0.0 mm 0.00 in0.0 mm 0.00 in0.0 mm
05:52 PM 64.2°F17.9°C 46.2°F7.9°C 52% 2.2 mph S3.5 kmh S 5.4 mph8.7 kmh 29.83 in1010.2 mb 0.00 in0.0 mm 0.00 in0.0 mm 0.00 in0.0 mm
05:51 PM 64.4°F18.0°C 46.4°F8.0°C 52% 3.1 mph S5.0 kmh S 6.0 mph9.7 kmh 29.83 in1010.2 mb 0.00 in0.0 mm 0.00 in0.0 mm 0.00 in0.0 mm
05:49 PM 64.4°F18.0°C 46.4°F8.0°C 52% 1.6 mph S2.6 kmh S 3.8 mph6.1 kmh 29.83 in1010.2 mb 0.00 in0.0 mm 0.00 in0.0 mm 0.00 in0.0 mm
05:48 PM 64.6°F18.1°C 46.6°F8.1°C 52% 2.2 mph SE3.5 kmh SE 5.4 mph8.7 kmh 29.83 in1010.2 mb 0.00 in0.0 mm 0.00 in0.0 mm 0.00 in0.0 mm
05:47 PM 64.6°F18.1°C 46.6°F8.1°C 52% 1.6 mph SW2.6 kmh SW 4.5 mph7.2 kmh 29.83 in1010.2 mb 0.00 in0.0 mm 0.00 in0.0 mm 0.00 in0.0 mm
05:46 PM 64.6°F18.1°C 46.6°F8.1°C 52% 3.1 mph S5.0 kmh S 5.4 mph8.7 kmh 29.83 in1010.2 mb 0.00 in0.0 mm 0.00 in0.0 mm 0.00 in0.0 mm
05:45 PM 64.6°F18.1°C 46.6°F8.1°C 52% 2.2 mph SW3.5 kmh SW 4.5 mph7.2 kmh 29.83 in1010.2 mb 0.00 in0.0 mm 0.00 in0.0 mm 0.00 in0.0 mm
05:44 PM 64.8°F18.2°C 46.8°F8.2°C 52% 2.2 mph S3.5 kmh S 4.5 mph7.2 kmh 29.83 in1010.2 mb 0.00 in0.0 mm 0.00 in0.0 mm 0.00 in0.0 mm
05:42 PM 64.8°F18.2°C 46.8°F8.2°C 52% 3.1 mph S5.0 kmh S 5.4 mph8.7 kmh 29.83 in1010.2 mb 0.00 in0.0 mm 0.00 in0.0 mm 0.00 in0.0 mm
05:41 PM 64.8°F18.2°C 46.8°F8.2°C 52% 2.2 mph S3.5 kmh S 6.0 mph9.7 kmh 29.83 in1010.2 mb 0.00 in0.0 mm 0.00 in0.0 mm 0.00 in0.0 mm
05:40 PM 64.8°F18.2°C 46.8°F8.2°C 52% 3.8 mph SW6.1 kmh SW 6.0 mph9.7 kmh 29.83 in1010.2 mb 0.00 in0.0 mm 0.00 in0.0 mm 0.00 in0.0 mm
05:39 PM 64.8°F18.2°C 46.8°F8.2°C 52% 3.1 mph S5.0 kmh S 4.5 mph7.2 kmh 29.83 in1010.2 mb 0.00 in0.0 mm 0.00 in0.0 mm 0.00 in0.0 mm
05:38 PM 64.8°F18.2°C 46.8°F8.2°C 52% 2.2 mph S3.5 kmh S 6.0 mph9.7 kmh 29.83 in1010.2 mb 0.00 in0.0 mm 0.00 in0.0 mm 0.00 in0.0 mm
05:36 PM 64.9°F18.3°C 46.9°F8.3°C 52% 2.2 mph SE3.5 kmh SE 4.5 mph7.2 kmh 29.83 in1010.2 mb 0.00 in0.0 mm 0.00 in0.0 mm 0.00 in0.0 mm
05:35 PM 64.8°F18.2°C 46.8°F8.2°C 52% 2.2 mph SW3.5 kmh SW 6.0 mph9.7 kmh 29.83 in1010.2 mb 0.00 in0.0 mm 0.00 in0.0 mm 0.00 in0.0 mm
05:34 PM 64.9°F18.3°C 46.9°F8.3°C 52% 3.1 mph SE5.0 kmh SE 6.0 mph9.7 kmh 29.83 in1010.2 mb 0.00 in0.0 mm 0.00 in0.0 mm 0.00 in0.0 mm
05:33 PM 64.9°F18.3°C 46.9°F8.3°C 52% 3.1 mph SE5.0 kmh SE 5.4 mph8.7 kmh 29.83 in1010.2 mb 0.00 in0.0 mm 0.00 in0.0 mm 0.00 in0.0 mm
05:32 PM 64.9°F18.3°C 46.4°F8.0°C 51% 2.2 mph WSW3.5 kmh WSW 4.5 mph7.2 kmh 29.83 in1010.2 mb 0.00 in0.0 mm 0.00 in0.0 mm 0.00 in0.0 mm
05:31 PM 64.9°F18.3°C 46.4°F8.0°C 51% 2.2 mph SW3.5 kmh SW 4.5 mph7.2 kmh 29.83 in1010.2 mb 0.00 in0.0 mm 0.00 in0.0 mm 0.00 in0.0 mm
05:29 PM 64.9°F18.3°C 46.4°F8.0°C 51% 1.6 mph SW2.6 kmh SW 3.1 mph5.0 kmh 29.83 in1010.2 mb 0.00 in0.0 mm 0.00 in0.0 mm 0.00 in0.0 mm
05:28 PM 64.9°F18.3°C 46.9°F8.3°C 52% 0.7 mph S1.1 kmh S 3.1 mph5.0 kmh 29.83 in1010.2 mb 0.00 in0.0 mm 0.00 in0.0 mm 0.00 in0.0 mm
05:27 PM 64.9°F18.3°C 46.9°F8.3°C 52% 1.6 mph S2.6 kmh S 2.2 mph3.5 kmh 29.83 in1010.2 mb 0.00 in0.0 mm 0.00 in0.0 mm 0.00 in0.0 mm
05:26 PM 64.9°F18.3°C 46.9°F8.3°C 52% Calm Calm 3.1 mph5.0 kmh 29.83 in1010.2 mb 0.00 in0.0 mm 0.00 in0.0 mm 0.00 in0.0 mm
05:25 PM 64.9°F18.3°C 46.4°F8.0°C 51% Calm Calm 1.6 mph2.6 kmh 29.83 in1010.2 mb 0.00 in0.0 mm 0.00 in0.0 mm 0.00 in0.0 mm
05:24 PM 64.9°F18.3°C 46.4°F8.0°C 51% Calm Calm 2.2 mph3.5 kmh 29.83 in1010.2 mb 0.00 in0.0 mm 0.00 in0.0 mm 0.00 in0.0 mm
05:22 PM 64.9°F18.3°C 46.4°F8.0°C 51% 1.6 mph S2.6 kmh S 3.1 mph5.0 kmh 29.83 in1010.2 mb 0.00 in0.0 mm 0.00 in0.0 mm 0.00 in0.0 mm
05:21 PM 64.9°F18.3°C 46.4°F8.0°C 51% 0.7 mph SW1.1 kmh SW 3.1 mph5.0 kmh 29.83 in1010.2 mb 0.00 in0.0 mm 0.00 in0.0 mm 0.00 in0.0 mm
05:20 PM 65.1°F18.4°C 46.6°F8.1°C 51% 1.6 mph S2.6 kmh S 3.1 mph5.0 kmh 29.83 in1010.2 mb 0.00 in0.0 mm 0.00 in0.0 mm 0.00 in0.0 mm
05:19 PM 64.9°F18.3°C 46.4°F8.0°C 51% 0.7 mph S1.1 kmh S 3.1 mph5.0 kmh 29.83 in1010.2 mb 0.00 in0.0 mm 0.00 in0.0 mm 0.00 in0.0 mm
05:18 PM 64.9°F18.3°C 46.4°F8.0°C 51% 1.6 mph SW2.6 kmh SW 3.8 mph6.1 kmh 29.83 in1010.2 mb 0.00 in0.0 mm 0.00 in0.0 mm 0.00 in0.0 mm
05:16 PM 64.9°F18.3°C 46.9°F8.3°C 52% 0.7 mph SE1.1 kmh SE 3.1 mph5.0 kmh 29.83 in1010.2 mb 0.00 in0.0 mm 0.00 in0.0 mm 0.00 in0.0 mm
05:15 PM 64.9°F18.3°C 46.9°F8.3°C 52% 1.6 mph SW2.6 kmh SW 3.1 mph5.0 kmh 29.83 in1010.2 mb 0.00 in0.0 mm 0.00 in0.0 mm 0.00 in0.0 mm
05:14 PM 64.9°F18.3°C 46.9°F8.3°C 52% 0.7 mph S1.1 kmh S 3.8 mph6.1 kmh 29.83 in1010.2 mb 0.00 in0.0 mm 0.00 in0.0 mm 0.00 in0.0 mm
05:13 PM 64.9°F18.3°C 46.4°F8.0°C 51% 2.2 mph SW3.5 kmh SW 3.8 mph6.1 kmh 29.83 in1010.2 mb 0.00 in0.0 mm 0.00 in0.0 mm 0.00 in0.0 mm
05:12 PM 64.9°F18.3°C 46.4°F8.0°C 51% 0.7 mph W1.1 kmh W 2.2 mph3.5 kmh 29.83 in1010.2 mb 0.00 in0.0 mm 0.00 in0.0 mm 0.00 in0.0 mm
05:11 PM 64.9°F18.3°C 46.9°F8.3°C 52% 0.7 mph NW1.1 kmh NW 2.2 mph3.5 kmh 29.83 in1010.2 mb 0.00 in0.0 mm 0.00 in0.0 mm 0.00 in0.0 mm
05:09 PM 64.9°F18.3°C 46.9°F8.3°C 52% 0.7 mph SE1.1 kmh SE 2.2 mph3.5 kmh 29.83 in1010.2 mb 0.00 in0.0 mm 0.00 in0.0 mm 0.00 in0.0 mm
05:08 PM 64.9°F18.3°C 46.9°F8.3°C 52% 0.7 mph SW1.1 kmh SW 3.1 mph5.0 kmh 29.83 in1010.2 mb 0.00 in0.0 mm 0.00 in0.0 mm 0.00 in0.0 mm
05:07 PM 64.9°F18.3°C 46.9°F8.3°C 52% Calm Calm 3.8 mph6.1 kmh 29.83 in1010.2 mb 0.00 in0.0 mm 0.00 in0.0 mm 0.00 in0.0 mm
05:06 PM 64.9°F18.3°C 46.9°F8.3°C 52% 2.2 mph S3.5 kmh S 3.8 mph6.1 kmh 29.83 in1010.2 mb 0.00 in0.0 mm 0.00 in0.0 mm 0.00 in0.0 mm
05:05 PM 64.9°F18.3°C 46.9°F8.3°C 52% 0.7 mph S1.1 kmh S 3.1 mph5.0 kmh 29.83 in1010.2 mb 0.00 in0.0 mm 0.00 in0.0 mm 0.00 in0.0 mm
05:04 PM 64.9°F18.3°C 46.9°F8.3°C 52% 1.6 mph SW2.6 kmh SW 3.1 mph5.0 kmh 29.83 in1010.2 mb 0.00 in0.0 mm 0.00 in0.0 mm 0.00 in0.0 mm
05:02 PM 64.9°F18.3°C 46.9°F8.3°C 52% 0.7 mph S1.1 kmh S 3.1 mph5.0 kmh 29.83 in1010.2 mb 0.00 in0.0 mm 0.00 in0.0 mm 0.00 in0.0 mm
05:01 PM 64.9°F18.3°C 46.9°F8.3°C 52% 1.6 mph SSE2.6 kmh SSE 3.1 mph5.0 kmh 29.83 in1010.2 mb 0.00 in0.0 mm 0.00 in0.0 mm 0.00 in0.0 mm
05:00 PM 64.9°F18.3°C 46.9°F8.3°C 52% 1.6 mph S2.6 kmh S 3.1 mph5.0 kmh 29.83 in1010.2 mb 0.00 in0.0 mm 0.00 in0.0 mm 0.00 in0.0 mm
04:59 PM 65.1°F18.4°C 47.5°F8.6°C 53% 1.6 mph SW2.6 kmh SW 3.1 mph5.0 kmh 29.83 in1010.2 mb 0.00 in0.0 mm 0.00 in0.0 mm 0.00 in0.0 mm
04:58 PM 65.1°F18.4°C 48.0°F8.9°C 54% 0.7 mph S1.1 kmh S 3.1 mph5.0 kmh 29.83 in1010.2 mb 0.00 in0.0 mm 0.00 in0.0 mm 0.00 in0.0 mm
04:57 PM 65.3°F18.5°C 48.2°F9.0°C 54% 0.7 mph S1.1 kmh S 2.2 mph3.5 kmh 29.83 in1010.2 mb 0.00 in0.0 mm 0.00 in0.0 mm 0.00 in0.0 mm
04:55 PM 65.3°F18.5°C 48.2°F9.0°C 54% 0.7 mph SW1.1 kmh SW 2.2 mph3.5 kmh 29.83 in1010.2 mb 0.00 in0.0 mm 0.00 in0.0 mm 0.00 in0.0 mm
04:54 PM 65.3°F18.5°C 48.2°F9.0°C 54% 0.7 mph SW1.1 kmh SW 3.1 mph5.0 kmh 29.83 in1010.2 mb 0.00 in0.0 mm 0.00 in0.0 mm 0.00 in0.0 mm
04:53 PM 65.3°F18.5°C 48.2°F9.0°C 54% 1.6 mph S2.6 kmh S 3.1 mph5.0 kmh 29.83 in1010.2 mb 0.00 in0.0 mm 0.00 in0.0 mm 0.00 in0.0 mm
04:52 PM 65.5°F18.6°C 48.4°F9.1°C 54% Calm Calm 1.6 mph2.6 kmh 29.83 in1010.2 mb 0.00 in0.0 mm 0.00 in0.0 mm 0.00 in0.0 mm
04:51 PM 65.5°F18.6°C 47.8°F8.8°C 53% Calm Calm 0.7 mph1.1 kmh 29.83 in1010.2 mb 0.00 in0.0 mm 0.00 in0.0 mm 0.00 in0.0 mm
04:49 PM 65.5°F18.6°C 47.5°F8.6°C 52% Calm Calm 1.6 mph2.6 kmh 29.83 in1010.2 mb 0.00 in0.0 mm 0.00 in0.0 mm 0.00 in0.0 mm
04:48 PM 65.5°F18.6°C 47.5°F8.6°C 52% Calm Calm 1.6 mph2.6 kmh 29.83 in1010.2 mb 0.00 in0.0 mm 0.00 in0.0 mm 0.00 in0.0 mm
04:47 PM 65.7°F18.7°C 47.5°F8.6°C 52% Calm Calm 2.2 mph3.5 kmh 29.83 in1010.2 mb 0.00 in0.0 mm 0.00 in0.0 mm 0.00 in0.0 mm
04:46 PM 65.7°F18.7°C 47.1°F8.4°C 51% 0.7 mph SE1.1 kmh SE 2.2 mph3.5 kmh 29.83 in1010.2 mb 0.00 in0.0 mm 0.00 in0.0 mm 0.00 in0.0 mm
04:45 PM 65.7°F18.7°C 47.1°F8.4°C 51% Calm Calm 2.2 mph3.5 kmh 29.83 in1010.2 mb 0.00 in0.0 mm 0.00 in0.0 mm 0.00 in0.0 mm
04:44 PM 65.8°F18.8°C 46.8°F8.2°C 50% 0.7 mph S1.1 kmh S 3.1 mph5.0 kmh 29.84 in1010.5 mb 0.00 in0.0 mm 0.00 in0.0 mm 0.00 in0.0 mm
04:42 PM 65.8°F18.8°C 46.2°F7.9°C 49% 1.6 mph SW2.6 kmh SW 3.8 mph6.1 kmh 29.83 in1010.2 mb 0.00 in0.0 mm 0.00 in0.0 mm 0.00 in0.0 mm
04:41 PM 65.8°F18.8°C 46.2°F7.9°C 49% 0.7 mph SW1.1 kmh SW 3.1 mph5.0 kmh 29.84 in1010.5 mb 0.00 in0.0 mm 0.00 in0.0 mm 0.00 in0.0 mm
04:40 PM 65.8°F18.8°C 46.2°F7.9°C 49% 1.6 mph 2.6 kmh 4.5 mph7.2 kmh 29.84 in1010.5 mb 0.00 in0.0 mm 0.00 in0.0 mm 0.00 in0.0 mm
04:39 PM 66.0°F18.9°C 46.8°F8.2°C 50% 3.1 mph SW5.0 kmh SW 4.5 mph7.2 kmh 29.84 in1010.5 mb 0.00 in0.0 mm 0.00 in0.0 mm 0.00 in0.0 mm
04:38 PM 66.0°F18.9°C 46.8°F8.2°C 50% 2.2 mph SW3.5 kmh SW 4.5 mph7.2 kmh 29.84 in1010.5 mb 0.00 in0.0 mm 0.00 in0.0 mm 0.00 in0.0 mm
04:37 PM 65.8°F18.8°C 46.8°F8.2°C 50% 0.7 mph W1.1 kmh W 4.5 mph7.2 kmh 29.84 in1010.5 mb 0.00 in0.0 mm 0.00 in0.0 mm 0.00 in0.0 mm
04:35 PM 66.0°F18.9°C 46.4°F8.0°C 49% 1.6 mph SW2.6 kmh SW 4.5 mph7.2 kmh 29.84 in1010.5 mb 0.00 in0.0 mm 0.00 in0.0 mm 0.00 in0.0 mm
04:34 PM 66.0°F18.9°C 46.4°F8.0°C 49% 2.2 mph S3.5 kmh S 5.4 mph8.7 kmh 29.83 in1010.2 mb 0.00 in0.0 mm 0.00 in0.0 mm 0.00 in0.0 mm
04:33 PM 66.0°F18.9°C 46.4°F8.0°C 49% 2.2 mph SW3.5 kmh SW 4.5 mph7.2 kmh 29.84 in1010.5 mb 0.00 in0.0 mm 0.00 in0.0 mm 0.00 in0.0 mm
04:32 PM 66.0°F18.9°C 46.4°F8.0°C 49% 1.6 mph E2.6 kmh E 4.5 mph7.2 kmh 29.84 in1010.5 mb 0.00 in0.0 mm 0.00 in0.0 mm 0.00 in0.0 mm
04:31 PM 66.0°F18.9°C 45.7°F7.6°C 48% 2.2 mph SE3.5 kmh SE 5.4 mph8.7 kmh 29.84 in1010.5 mb 0.00 in0.0 mm 0.00 in0.0 mm 0.00 in0.0 mm
04:29 PM 66.0°F18.9°C 46.4°F8.0°C 49% 3.8 mph SW6.1 kmh SW 6.0 mph9.7 kmh 29.84 in1010.5 mb 0.00 in0.0 mm 0.00 in0.0 mm 0.00 in0.0 mm
04:28 PM 66.0°F18.9°C 45.7°F7.6°C 48% 2.2 mph S3.5 kmh S 5.4 mph8.7 kmh 29.84 in1010.5 mb 0.00 in0.0 mm 0.00 in0.0 mm 0.00 in0.0 mm
04:27 PM 66.0°F18.9°C 46.4°F8.0°C 49% 1.6 mph S2.6 kmh S 3.1 mph5.0 kmh 29.84 in1010.5 mb 0.00 in0.0 mm 0.00 in0.0 mm 0.00 in0.0 mm
04:26 PM 66.0°F18.9°C 46.4°F8.0°C 49% 0.7 mph SE1.1 kmh SE 3.1 mph5.0 kmh 29.84 in1010.5 mb 0.00 in0.0 mm 0.00 in0.0 mm 0.00 in0.0 mm
04:25 PM 66.0°F18.9°C 45.7°F7.6°C 48% 0.7 mph S1.1 kmh S 4.5 mph7.2 kmh 29.84 in1010.5 mb 0.00 in0.0 mm 0.00 in0.0 mm 0.00 in0.0 mm
04:24 PM 66.0°F18.9°C 46.4°F8.0°C 49% 1.6 mph SW2.6 kmh SW 3.8 mph6.1 kmh 29.84 in1010.5 mb 0.00 in0.0 mm 0.00 in0.0 mm 0.00 in0.0 mm
04:22 PM 66.0°F18.9°C 46.4°F8.0°C 49% 0.7 mph W1.1 kmh W 6.0 mph9.7 kmh 29.84 in1010.5 mb 0.00 in0.0 mm 0.00 in0.0 mm 0.00 in0.0 mm
04:21 PM 66.0°F18.9°C 45.7°F7.6°C 48% 3.1 mph W5.0 kmh W 6.0 mph9.7 kmh 29.84 in1010.5 mb 0.00 in0.0 mm 0.00 in0.0 mm 0.00 in0.0 mm
04:20 PM 65.8°F18.8°C 46.2°F7.9°C 49% 2.2 mph SW3.5 kmh SW 5.4 mph8.7 kmh 29.85 in1010.8 mb 0.00 in0.0 mm 0.00 in0.0 mm 0.00 in0.0 mm
04:19 PM 66.0°F18.9°C 46.4°F8.0°C 49% 3.1 mph 5.0 kmh 5.4 mph8.7 kmh 29.84 in1010.5 mb 0.00 in0.0 mm 0.00 in0.0 mm 0.00 in0.0 mm
04:18 PM 66.0°F18.9°C 46.4°F8.0°C 49% 3.1 mph SW5.0 kmh SW 5.4 mph8.7 kmh 29.84 in1010.5 mb 0.00 in0.0 mm 0.00 in0.0 mm 0.00 in0.0 mm
04:17 PM 66.0°F18.9°C 46.4°F8.0°C 49% 0.7 mph SW1.1 kmh SW 5.4 mph8.7 kmh 29.85 in1010.8 mb 0.00 in0.0 mm 0.00 in0.0 mm 0.00 in0.0 mm
04:15 PM 66.0°F18.9°C 46.4°F8.0°C 49% 3.1 mph SW5.0 kmh SW 5.4 mph8.7 kmh 29.85 in1010.8 mb 0.00 in0.0 mm 0.00 in0.0 mm 0.00 in0.0 mm
04:14 PM 66.0°F18.9°C 46.4°F8.0°C 49% Calm Calm 2.2 mph3.5 kmh 29.85 in1010.8 mb 0.00 in0.0 mm 0.00 in0.0 mm 0.00 in0.0 mm
04:13 PM 66.0°F18.9°C 46.4°F8.0°C 49% 0.7 mph SW1.1 kmh SW 3.1 mph5.0 kmh 29.85 in1010.8 mb 0.00 in0.0 mm 0.00 in0.0 mm 0.00 in0.0 mm
04:12 PM 66.2°F19.0°C 46.4°F8.0°C 49% Calm Calm 4.5 mph7.2 kmh 29.84 in1010.5 mb 0.00 in0.0 mm 0.00 in0.0 mm 0.00 in0.0 mm
04:11 PM 66.2°F19.0°C 45.9°F7.7°C 48% 2.2 mph W3.5 kmh W 4.5 mph7.2 kmh 29.84 in1010.5 mb 0.00 in0.0 mm 0.00 in0.0 mm 0.00 in0.0 mm
04:10 PM 66.2°F19.0°C 45.9°F7.7°C 48% 1.6 mph S2.6 kmh S 6.9 mph11.1 kmh 29.84 in1010.5 mb 0.00 in0.0 mm 0.00 in0.0 mm 0.00 in0.0 mm
04:08 PM 66.2°F19.0°C 45.9°F7.7°C 48% 2.2 mph SW3.5 kmh SW 6.9 mph11.1 kmh 29.85 in1010.8 mb 0.00 in0.0 mm 0.00 in0.0 mm 0.00 in0.0 mm
04:07 PM 66.4°F19.1°C 46.0°F7.8°C 48% 3.1 mph SW5.0 kmh SW 6.0 mph9.7 kmh 29.85 in1010.8 mb 0.00 in0.0 mm 0.00 in0.0 mm 0.00 in0.0 mm
04:06 PM 66.4°F19.1°C 46.0°F7.8°C 48% 3.1 mph SW5.0 kmh SW 5.4 mph8.7 kmh 29.84 in1010.5 mb 0.00 in0.0 mm 0.00 in0.0 mm 0.00 in0.0 mm
04:05 PM 66.4°F19.1°C 46.0°F7.8°C 48% 3.8 mph W6.1 kmh W 6.9 mph11.1 kmh 29.85 in1010.8 mb 0.00 in0.0 mm 0.00 in0.0 mm 0.00 in0.0 mm
04:04 PM 66.4°F19.1°C 46.0°F7.8°C 48% 2.2 mph S3.5 kmh S 4.5 mph7.2 kmh 29.85 in1010.8 mb 0.00 in0.0 mm 0.00 in0.0 mm 0.00 in0.0 mm
04:02 PM 66.4°F19.1°C 46.0°F7.8°C 48% 2.2 mph SW3.5 kmh SW 6.0 mph9.7 kmh 29.85 in1010.8 mb 0.00 in0.0 mm 0.00 in0.0 mm 0.00 in0.0 mm
04:01 PM 66.6°F19.2°C 46.8°F8.2°C 49% 3.1 mph S5.0 kmh S 6.9 mph11.1 kmh 29.84 in1010.5 mb 0.00 in0.0 mm 0.00 in0.0 mm 0.00 in0.0 mm
04:00 PM 66.6°F19.2°C 46.8°F8.2°C 49% 4.5 mph SW7.2 kmh SW 6.9 mph11.1 kmh 29.85 in1010.8 mb 0.00 in0.0 mm 0.00 in0.0 mm 0.00 in0.0 mm
03:59 PM 66.6°F19.2°C 46.2°F7.9°C 48% 1.6 mph SW2.6 kmh SW 4.5 mph7.2 kmh 29.85 in1010.8 mb 0.00 in0.0 mm 0.00 in0.0 mm 0.00 in0.0 mm
03:58 PM 66.6°F19.2°C 46.2°F7.9°C 48% 1.6 mph S2.6 kmh S 5.4 mph8.7 kmh 29.84 in1010.5 mb 0.00 in0.0 mm 0.00 in0.0 mm 0.00 in0.0 mm
03:57 PM 66.6°F19.2°C 46.2°F7.9°C 48% 4.5 mph S7.2 kmh S 7.6 mph12.2 kmh 29.84 in1010.5 mb 0.00 in0.0 mm 0.00 in0.0 mm 0.00 in0.0 mm
03:55 PM 66.6°F19.2°C 46.2°F7.9°C 48% 3.8 mph SW6.1 kmh SW 7.6 mph12.2 kmh 29.84 in1010.5 mb 0.00 in0.0 mm 0.00 in0.0 mm 0.00 in0.0 mm
03:54 PM 66.7°F19.3°C 46.4°F8.0°C 48% 2.2 mph SW3.5 kmh SW 6.0 mph9.7 kmh 29.84 in1010.5 mb 0.00 in0.0 mm 0.00 in0.0 mm 0.00 in0.0 mm
03:53 PM 66.6°F19.2°C 46.8°F8.2°C 49% 3.8 mph S6.1 kmh S 6.0 mph9.7 kmh 29.84 in1010.5 mb 0.00 in0.0 mm 0.00 in0.0 mm 0.00 in0.0 mm
03:52 PM 66.7°F19.3°C 46.4°F8.0°C 48% 3.8 mph S6.1 kmh S 7.6 mph12.2 kmh 29.85 in1010.8 mb 0.00 in0.0 mm 0.00 in0.0 mm 0.00 in0.0 mm
03:51 PM 66.6°F19.2°C 46.2°F7.9°C 48% 2.2 mph SW3.5 kmh SW 6.0 mph9.7 kmh 29.85 in1010.8 mb 0.00 in0.0 mm 0.00 in0.0 mm 0.00 in0.0 mm
03:50 PM 66.6°F19.2°C 46.2°F7.9°C 48% 4.5 mph SE7.2 kmh SE 8.3 mph13.4 kmh 29.85 in1010.8 mb 0.00 in0.0 mm 0.00 in0.0 mm 0.00 in0.0 mm
03:48 PM 66.7°F19.3°C 46.4°F8.0°C 48% 4.5 mph S7.2 kmh S 8.3 mph13.4 kmh 29.85 in1010.8 mb 0.00 in0.0 mm 0.00 in0.0 mm 0.00 in0.0 mm
03:47 PM 66.7°F19.3°C 46.4°F8.0°C 48% 3.8 mph SW6.1 kmh SW 6.9 mph11.1 kmh 29.85 in1010.8 mb 0.00 in0.0 mm 0.00 in0.0 mm 0.00 in0.0 mm
03:46 PM 66.7°F19.3°C 46.4°F8.0°C 48% 3.1 mph SW5.0 kmh SW 6.9 mph11.1 kmh 29.85 in1010.8 mb 0.00 in0.0 mm 0.00 in0.0 mm 0.00 in0.0 mm
03:45 PM 66.7°F19.3°C 45.9°F7.7°C 47% 4.5 mph SW7.2 kmh SW 9.2 mph14.8 kmh 29.85 in1010.8 mb 0.00 in0.0 mm 0.00 in0.0 mm 0.00 in0.0 mm
03:44 PM 66.7°F19.3°C 45.9°F7.7°C 47% 5.4 mph SW8.7 kmh SW 9.2 mph14.8 kmh 29.85 in1010.8 mb 0.00 in0.0 mm 0.00 in0.0 mm 0.00 in0.0 mm
03:43 PM 66.7°F19.3°C 45.9°F7.7°C 47% 3.1 mph S5.0 kmh S 7.6 mph12.2 kmh 29.85 in1010.8 mb 0.00 in0.0 mm 0.00 in0.0 mm 0.00 in0.0 mm
03:41 PM 66.7°F19.3°C 45.9°F7.7°C 47% 3.8 mph NW6.1 kmh NW 6.9 mph11.1 kmh 29.85 in1010.8 mb 0.00 in0.0 mm 0.00 in0.0 mm 0.00 in0.0 mm
03:40 PM 66.6°F19.2°C 46.2°F7.9°C 48% 3.8 mph SW6.1 kmh SW 8.3 mph13.4 kmh 29.85 in1010.8 mb 0.00 in0.0 mm 0.00 in0.0 mm 0.00 in0.0 mm
03:39 PM 66.6°F19.2°C 45.7°F7.6°C 47% 3.1 mph SW5.0 kmh SW 5.4 mph8.7 kmh 29.85 in1010.8 mb 0.00 in0.0 mm 0.00 in0.0 mm 0.00 in0.0 mm
03:38 PM 66.6°F19.2°C 46.2°F7.9°C 48% 3.1 mph SW5.0 kmh SW 7.6 mph12.2 kmh 29.85 in1010.8 mb 0.00 in0.0 mm 0.00 in0.0 mm 0.00 in0.0 mm
03:37 PM 66.6°F19.2°C 46.2°F7.9°C 48% 5.4 mph W8.7 kmh W 7.6 mph12.2 kmh 29.85 in1010.8 mb 0.00 in0.0 mm 0.00 in0.0 mm 0.00 in0.0 mm
03:35 PM 66.6°F19.2°C 46.2°F7.9°C 48% 3.8 mph S6.1 kmh S 6.9 mph11.1 kmh 29.85 in1010.8 mb 0.00 in0.0 mm 0.00 in0.0 mm 0.00 in0.0 mm
03:34 PM 66.6°F19.2°C 46.2°F7.9°C 48% 3.8 mph S6.1 kmh S 8.3 mph13.4 kmh 29.85 in1010.8 mb 0.00 in0.0 mm 0.00 in0.0 mm 0.00 in0.0 mm
03:33 PM 66.6°F19.2°C 46.2°F7.9°C 48% 5.4 mph S8.7 kmh S 10.7 mph17.2 kmh 29.85 in1010.8 mb 0.00 in0.0 mm 0.00 in0.0 mm 0.00 in0.0 mm
03:32 PM 66.6°F19.2°C 46.8°F8.2°C 49% 1.6 mph SW2.6 kmh SW 5.4 mph8.7 kmh 29.85 in1010.8 mb 0.00 in0.0 mm 0.00 in0.0 mm 0.00 in0.0 mm
03:31 PM 66.4°F19.1°C 46.6°F8.1°C 49% 2.2 mph SW3.5 kmh SW 5.4 mph8.7 kmh 29.85 in1010.8 mb 0.00 in0.0 mm 0.00 in0.0 mm 0.00 in0.0 mm
03:30 PM 66.6°F19.2°C 46.8°F8.2°C 49% 3.1 mph SW5.0 kmh SW 5.4 mph8.7 kmh 29.84 in1010.5 mb 0.00 in0.0 mm 0.00 in0.0 mm 0.00 in0.0 mm
03:28 PM 66.4°F19.1°C 46.0°F7.8°C 48% 3.1 mph S5.0 kmh S 5.4 mph8.7 kmh 29.85 in1010.8 mb 0.00 in0.0 mm 0.00 in0.0 mm 0.00 in0.0 mm
03:27 PM 66.4°F19.1°C 46.6°F8.1°C 49% 3.8 mph S6.1 kmh S 7.6 mph12.2 kmh 29.85 in1010.8 mb 0.00 in0.0 mm 0.00 in0.0 mm 0.00 in0.0 mm
03:26 PM 66.4°F19.1°C 46.6°F8.1°C 49% 3.8 mph WSW6.1 kmh WSW 7.6 mph12.2 kmh 29.85 in1010.8 mb 0.00 in0.0 mm 0.00 in0.0 mm 0.00 in0.0 mm
03:25 PM 66.4°F19.1°C 46.0°F7.8°C 48% 2.2 mph S3.5 kmh S 6.9 mph11.1 kmh 29.85 in1010.8 mb 0.00 in0.0 mm 0.00 in0.0 mm 0.00 in0.0 mm
03:24 PM 66.4°F19.1°C 46.0°F7.8°C 48% 2.2 mph S3.5 kmh S 6.9 mph11.1 kmh 29.85 in1010.8 mb 0.00 in0.0 mm 0.00 in0.0 mm 0.00 in0.0 mm
03:23 PM 66.4°F19.1°C 46.0°F7.8°C 48% 2.2 mph S3.5 kmh S 6.9 mph11.1 kmh 29.85 in1010.8 mb 0.00 in0.0 mm 0.00 in0.0 mm 0.00 in0.0 mm
03:21 PM 66.2°F19.0°C 45.9°F7.7°C 48% 3.8 mph SW6.1 kmh SW 6.9 mph11.1 kmh 29.85 in1010.8 mb 0.00 in0.0 mm 0.00 in0.0 mm 0.00 in0.0 mm
03:20 PM 66.2°F19.0°C 45.9°F7.7°C 48% 3.8 mph WNW6.1 kmh WNW 6.9 mph11.1 kmh 29.85 in1010.8 mb 0.00 in0.0 mm 0.00 in0.0 mm 0.00 in0.0 mm
03:19 PM 66.4°F19.1°C 46.0°F7.8°C 48% 4.5 mph SW7.2 kmh SW 8.3 mph13.4 kmh 29.85 in1010.8 mb 0.00 in0.0 mm 0.00 in0.0 mm 0.00 in0.0 mm
03:18 PM 66.4°F19.1°C 45.5°F7.5°C 47% 4.5 mph S7.2 kmh S 8.3 mph13.4 kmh 29.85 in1010.8 mb 0.00 in0.0 mm 0.00 in0.0 mm 0.00 in0.0 mm
03:17 PM 66.4°F19.1°C 45.5°F7.5°C 47% 2.2 mph SW3.5 kmh SW 6.0 mph9.7 kmh 29.85 in1010.8 mb 0.00 in0.0 mm 0.00 in0.0 mm 0.00 in0.0 mm
03:15 PM 66.4°F19.1°C 45.5°F7.5°C 47% 3.1 mph SW5.0 kmh SW 6.0 mph9.7 kmh 29.85 in1010.8 mb 0.00 in0.0 mm 0.00 in0.0 mm 0.00 in0.0 mm
03:14 PM 66.4°F19.1°C 45.5°F7.5°C 47% 2.2 mph SW3.5 kmh SW 6.9 mph11.1 kmh 29.85 in1010.8 mb 0.00 in0.0 mm 0.00 in0.0 mm 0.00 in0.0 mm
03:13 PM 66.2°F19.0°C 45.9°F7.7°C 48% 3.1 mph S5.0 kmh S 4.5 mph7.2 kmh 29.85 in1010.8 mb 0.00 in0.0 mm 0.00 in0.0 mm 0.00 in0.0 mm
03:12 PM 66.2°F19.0°C 45.9°F7.7°C 48% 0.7 mph W1.1 kmh W 4.5 mph7.2 kmh 29.85 in1010.8 mb 0.00 in0.0 mm 0.00 in0.0 mm 0.00 in0.0 mm
03:11 PM 66.4°F19.1°C 46.0°F7.8°C 48% 1.6 mph NW2.6 kmh NW 4.5 mph7.2 kmh 29.85 in1010.8 mb 0.00 in0.0 mm 0.00 in0.0 mm 0.00 in0.0 mm
03:10 PM 66.4°F19.1°C 46.0°F7.8°C 48% 2.2 mph SW3.5 kmh SW 4.5 mph7.2 kmh 29.85 in1010.8 mb 0.00 in0.0 mm 0.00 in0.0 mm 0.00 in0.0 mm
03:08 PM 66.4°F19.1°C 45.5°F7.5°C 47% 1.6 mph SW2.6 kmh SW 6.0 mph9.7 kmh 29.85 in1010.8 mb 0.00 in0.0 mm 0.00 in0.0 mm 0.00 in0.0 mm
03:07 PM 65.8°F18.8°C 45.0°F7.2°C 47% 3.8 mph SW6.1 kmh SW 8.3 mph13.4 kmh 29.85 in1010.8 mb 0.00 in0.0 mm 0.00 in0.0 mm 0.00 in0.0 mm
03:06 PM 66.4°F19.1°C 45.5°F7.5°C 47% 4.5 mph W7.2 kmh W 9.2 mph14.8 kmh 29.85 in1010.8 mb 0.00 in0.0 mm 0.00 in0.0 mm 0.00 in0.0 mm
03:05 PM 66.4°F19.1°C 45.5°F7.5°C 47% 3.8 mph SW6.1 kmh SW 9.2 mph14.8 kmh 29.85 in1010.8 mb 0.00 in0.0 mm 0.00 in0.0 mm 0.00 in0.0 mm
03:04 PM 66.4°F19.1°C 45.5°F7.5°C 47% 1.6 mph SW2.6 kmh SW 6.0 mph9.7 kmh 29.85 in1010.8 mb 0.00 in0.0 mm 0.00 in0.0 mm 0.00 in0.0 mm
03:03 PM 66.4°F19.1°C 45.5°F7.5°C 47% 2.2 mph S3.5 kmh S 6.0 mph9.7 kmh 29.85 in1010.8 mb 0.00 in0.0 mm 0.00 in0.0 mm 0.00 in0.0 mm
03:01 PM 66.4°F19.1°C 45.5°F7.5°C 47% 3.1 mph W5.0 kmh W 5.4 mph8.7 kmh 29.86 in1011.2 mb 0.00 in0.0 mm 0.00 in0.0 mm 0.00 in0.0 mm
03:00 PM 66.4°F19.1°C 45.5°F7.5°C 47% 3.1 mph S5.0 kmh S 5.4 mph8.7 kmh 29.86 in1011.2 mb 0.00 in0.0 mm 0.00 in0.0 mm 0.00 in0.0 mm
02:59 PM 66.4°F19.1°C 45.5°F7.5°C 47% 2.2 mph NW3.5 kmh NW 4.5 mph7.2 kmh 29.86 in1011.2 mb 0.00 in0.0 mm 0.00 in0.0 mm 0.00 in0.0 mm
02:58 PM 66.4°F19.1°C 46.0°F7.8°C 48% 1.6 mph SW2.6 kmh SW 4.5 mph7.2 kmh 29.86 in1011.2 mb 0.00 in0.0 mm 0.00 in0.0 mm 0.00 in0.0 mm
02:57 PM 66.4°F19.1°C 46.0°F7.8°C 48% 2.2 mph SW3.5 kmh SW 4.5 mph7.2 kmh 29.86 in1011.2 mb 0.00 in0.0 mm 0.00 in0.0 mm 0.00 in0.0 mm
02:56 PM 66.4°F19.1°C 46.0°F7.8°C 48% 1.6 mph WNW2.6 kmh WNW 3.8 mph6.1 kmh 29.86 in1011.2 mb 0.00 in0.0 mm 0.00 in0.0 mm 0.00 in0.0 mm
02:54 PM 66.4°F19.1°C 46.0°F7.8°C 48% 0.7 mph S1.1 kmh S 2.2 mph3.5 kmh 29.85 in1010.8 mb 0.00 in0.0 mm 0.00 in0.0 mm 0.00 in0.0 mm
02:53 PM 66.4°F19.1°C 46.0°F7.8°C 48% 0.7 mph S1.1 kmh S 3.1 mph5.0 kmh 29.86 in1011.2 mb 0.00 in0.0 mm 0.00 in0.0 mm 0.00 in0.0 mm
02:52 PM 66.4°F19.1°C 46.0°F7.8°C 48% 0.7 mph SW1.1 kmh SW 4.5 mph7.2 kmh 29.86 in1011.2 mb 0.00 in0.0 mm 0.00 in0.0 mm 0.00 in0.0 mm
02:51 PM 66.4°F19.1°C 46.0°F7.8°C 48% 2.2 mph SW3.5 kmh SW 4.5 mph7.2 kmh 29.86 in1011.2 mb 0.00 in0.0 mm 0.00 in0.0 mm 0.00 in0.0 mm
02:50 PM 66.4°F19.1°C 46.0°F7.8°C 48% 2.2 mph SW3.5 kmh SW 3.8 mph6.1 kmh 29.86 in1011.2 mb 0.00 in0.0 mm 0.00 in0.0 mm 0.00 in0.0 mm
02:48 PM 66.4°F19.1°C 46.0°F7.8°C 48% 2.2 mph S3.5 kmh S 4.5 mph7.2 kmh 29.86 in1011.2 mb 0.00 in0.0 mm 0.00 in0.0 mm 0.00 in0.0 mm
02:47 PM 66.6°F19.2°C 46.2°F7.9°C 48% 2.2 mph SW3.5 kmh SW 5.4 mph8.7 kmh 29.86 in1011.2 mb 0.00 in0.0 mm 0.00 in0.0 mm 0.00 in0.0 mm
02:46 PM 66.6°F19.2°C 46.2°F7.9°C 48% 0.7 mph S1.1 kmh S 6.0 mph9.7 kmh 29.86 in1011.2 mb 0.00 in0.0 mm 0.00 in0.0 mm 0.00 in0.0 mm
02:45 PM 66.6°F19.2°C 46.2°F7.9°C 48% 3.8 mph S6.1 kmh S 6.0 mph9.7 kmh 29.86 in1011.2 mb 0.00 in0.0 mm 0.00 in0.0 mm 0.00 in0.0 mm
02:44 PM 66.6°F19.2°C 46.2°F7.9°C 48% 1.6 mph S2.6 kmh S 3.1 mph5.0 kmh 29.86 in1011.2 mb 0.00 in0.0 mm 0.00 in0.0 mm 0.00 in0.0 mm
02:43 PM 66.6°F19.2°C 45.7°F7.6°C 47% 2.2 mph SW3.5 kmh SW 3.8 mph6.1 kmh 29.86 in1011.2 mb 0.00 in0.0 mm 0.00 in0.0 mm 0.00 in0.0 mm
02:41 PM 66.6°F19.2°C 45.7°F7.6°C 47% 3.1 mph SW5.0 kmh SW 5.4 mph8.7 kmh 29.86 in1011.2 mb 0.00 in0.0 mm 0.00 in0.0 mm 0.00 in0.0 mm
02:40 PM 66.6°F19.2°C 45.7°F7.6°C 47% 3.8 mph SW6.1 kmh SW 5.4 mph8.7 kmh 29.86 in1011.2 mb 0.00 in0.0 mm 0.00 in0.0 mm 0.00 in0.0 mm
02:39 PM 66.6°F19.2°C 45.7°F7.6°C 47% 2.2 mph S3.5 kmh S 5.4 mph8.7 kmh 29.86 in1011.2 mb 0.00 in0.0 mm 0.00 in0.0 mm 0.00 in0.0 mm
02:38 PM 66.7°F19.3°C 46.4°F8.0°C 48% 1.6 mph S2.6 kmh S 4.5 mph7.2 kmh 29.87 in1011.5 mb 0.00 in0.0 mm 0.00 in0.0 mm 0.00 in0.0 mm
02:37 PM 66.7°F19.3°C 46.4°F8.0°C 48% 2.2 mph S3.5 kmh S 5.4 mph8.7 kmh 29.86 in1011.2 mb 0.00 in0.0 mm 0.00 in0.0 mm 0.00 in0.0 mm
02:36 PM 66.7°F19.3°C 45.9°F7.7°C 47% 1.6 mph SE2.6 kmh SE 3.8 mph6.1 kmh 29.87 in1011.5 mb 0.00 in0.0 mm 0.00 in0.0 mm 0.00 in0.0 mm
02:34 PM 66.7°F19.3°C 45.9°F7.7°C 47% 3.1 mph SW5.0 kmh SW 5.4 mph8.7 kmh 29.86 in1011.2 mb 0.00 in0.0 mm 0.00 in0.0 mm 0.00 in0.0 mm
02:33 PM 66.7°F19.3°C 46.4°F8.0°C 48% 2.2 mph S3.5 kmh S 4.5 mph7.2 kmh 29.87 in1011.5 mb 0.00 in0.0 mm 0.00 in0.0 mm 0.00 in0.0 mm
02:32 PM 66.7°F19.3°C 46.4°F8.0°C 48% 1.6 mph SW2.6 kmh SW 4.5 mph7.2 kmh 29.87 in1011.5 mb 0.00 in0.0 mm 0.00 in0.0 mm 0.00 in0.0 mm
02:31 PM 66.7°F19.3°C 46.4°F8.0°C 48% 2.2 mph SSE3.5 kmh SSE 4.5 mph7.2 kmh 29.87 in1011.5 mb 0.00 in0.0 mm 0.00 in0.0 mm 0.00 in0.0 mm
02:30 PM 66.7°F19.3°C 46.4°F8.0°C 48% 2.2 mph SW3.5 kmh SW 4.5 mph7.2 kmh 29.87 in1011.5 mb 0.00 in0.0 mm 0.00 in0.0 mm 0.00 in0.0 mm
02:28 PM 66.7°F19.3°C 45.9°F7.7°C 47% Calm Calm 2.2 mph3.5 kmh 29.87 in1011.5 mb 0.00 in0.0 mm 0.00 in0.0 mm 0.00 in0.0 mm
02:27 PM 66.7°F19.3°C 45.9°F7.7°C 47% 0.7 mph S1.1 kmh S 3.8 mph6.1 kmh 29.87 in1011.5 mb 0.00 in0.0 mm 0.00 in0.0 mm 0.00 in0.0 mm
02:26 PM 66.6°F19.2°C 45.7°F7.6°C 47% 1.6 mph S2.6 kmh S 4.5 mph7.2 kmh 29.88 in1011.9 mb 0.00 in0.0 mm 0.00 in0.0 mm 0.00 in0.0 mm
02:25 PM 66.7°F19.3°C 45.9°F7.7°C 47% 3.1 mph SW5.0 kmh SW 4.5 mph7.2 kmh 29.87 in1011.5 mb 0.00 in0.0 mm 0.00 in0.0 mm 0.00 in0.0 mm
02:24 PM 66.6°F19.2°C 46.2°F7.9°C 48% 3.1 mph SE5.0 kmh SE 5.4 mph8.7 kmh 29.87 in1011.5 mb 0.00 in0.0 mm 0.00 in0.0 mm 0.00 in0.0 mm
02:23 PM 66.6°F19.2°C 45.7°F7.6°C 47% 2.2 mph S3.5 kmh S 4.5 mph7.2 kmh 29.87 in1011.5 mb 0.00 in0.0 mm 0.00 in0.0 mm 0.00 in0.0 mm
02:21 PM 66.6°F19.2°C 45.7°F7.6°C 47% 3.8 mph SW6.1 kmh SW 5.4 mph8.7 kmh 29.87 in1011.5 mb 0.00 in0.0 mm 0.00 in0.0 mm 0.00 in0.0 mm
02:20 PM 66.6°F19.2°C 45.7°F7.6°C 47% 1.6 mph SW2.6 kmh SW 4.5 mph7.2 kmh 29.87 in1011.5 mb 0.00 in0.0 mm 0.00 in0.0 mm 0.00 in0.0 mm
02:19 PM 66.6°F19.2°C 45.7°F7.6°C 47% 2.2 mph S3.5 kmh S 5.4 mph8.7 kmh 29.87 in1011.5 mb 0.00 in0.0 mm 0.00 in0.0 mm 0.00 in0.0 mm
02:18 PM 66.4°F19.1°C 46.0°F7.8°C 48% 3.1 mph S5.0 kmh S 5.4 mph8.7 kmh 29.87 in1011.5 mb 0.00 in0.0 mm 0.00 in0.0 mm 0.00 in0.0 mm
02:17 PM 66.4°F19.1°C 46.0°F7.8°C 48% 1.6 mph SE2.6 kmh SE 6.0 mph9.7 kmh 29.87 in1011.5 mb 0.00 in0.0 mm 0.00 in0.0 mm 0.00 in0.0 mm
02:16 PM 66.4°F19.1°C 46.0°F7.8°C 48% 1.6 mph E2.6 kmh E 6.0 mph9.7 kmh 29.87 in1011.5 mb 0.00 in0.0 mm 0.00 in0.0 mm 0.00 in0.0 mm
02:14 PM 66.4°F19.1°C 46.0°F7.8°C 48% 3.1 mph S5.0 kmh S 6.0 mph9.7 kmh 29.87 in1011.5 mb 0.00 in0.0 mm 0.00 in0.0 mm 0.00 in0.0 mm
02:13 PM 66.4°F19.1°C 46.0°F7.8°C 48% 2.2 mph SE3.5 kmh SE 5.4 mph8.7 kmh 29.88 in1011.9 mb 0.00 in0.0 mm 0.00 in0.0 mm 0.00 in0.0 mm
02:12 PM 66.2°F19.0°C 45.9°F7.7°C 48% 3.1 mph S5.0 kmh S 5.4 mph8.7 kmh 29.87 in1011.5 mb 0.00 in0.0 mm 0.00 in0.0 mm 0.00 in0.0 mm
02:11 PM 66.2°F19.0°C 45.9°F7.7°C 48% 3.1 mph SW5.0 kmh SW 5.4 mph8.7 kmh 29.88 in1011.9 mb 0.00 in0.0 mm 0.00 in0.0 mm 0.00 in0.0 mm
02:10 PM 66.2°F19.0°C 45.9°F7.7°C 48% 2.2 mph S3.5 kmh S 3.8 mph6.1 kmh 29.88 in1011.9 mb 0.00 in0.0 mm 0.00 in0.0 mm 0.00 in0.0 mm
02:09 PM 66.0°F18.9°C 45.7°F7.6°C 48% Calm Calm 3.1 mph5.0 kmh 29.88 in1011.9 mb 0.00 in0.0 mm 0.00 in0.0 mm 0.00 in0.0 mm
02:07 PM 66.2°F19.0°C 45.9°F7.7°C 48% 1.6 mph SSE2.6 kmh SSE 3.8 mph6.1 kmh 29.88 in1011.9 mb 0.00 in0.0 mm 0.00 in0.0 mm 0.00 in0.0 mm
02:06 PM 66.2°F19.0°C 45.3°F7.4°C 47% 3.1 mph SW5.0 kmh SW 4.5 mph7.2 kmh 29.88 in1011.9 mb 0.00 in0.0 mm 0.00 in0.0 mm 0.00 in0.0 mm
02:05 PM 66.0°F18.9°C 45.1°F7.3°C 47% 2.2 mph SW3.5 kmh SW 5.4 mph8.7 kmh 29.88 in1011.9 mb 0.00 in0.0 mm 0.00 in0.0 mm 0.00 in0.0 mm
02:04 PM 66.0°F18.9°C 45.1°F7.3°C 47% 3.8 mph SE6.1 kmh SE 6.9 mph11.1 kmh 29.88 in1011.9 mb 0.00 in0.0 mm 0.00 in0.0 mm 0.00 in0.0 mm
02:03 PM 66.0°F18.9°C 45.1°F7.3°C 47% 3.1 mph SW5.0 kmh SW 6.0 mph9.7 kmh 29.88 in1011.9 mb 0.00 in0.0 mm 0.00 in0.0 mm 0.00 in0.0 mm
02:01 PM 66.0°F18.9°C 45.1°F7.3°C 47% 3.8 mph SW6.1 kmh SW 7.6 mph12.2 kmh 29.88 in1011.9 mb 0.00 in0.0 mm 0.00 in0.0 mm 0.00 in0.0 mm
02:00 PM 66.0°F18.9°C 44.6°F7.0°C 46% 4.5 mph S7.2 kmh S 7.6 mph12.2 kmh 29.88 in1011.9 mb 0.00 in0.0 mm 0.00 in0.0 mm 0.00 in0.0 mm
01:59 PM 66.0°F18.9°C 44.6°F7.0°C 46% 3.8 mph SW6.1 kmh SW 6.9 mph11.1 kmh 29.89 in1012.2 mb 0.00 in0.0 mm 0.00 in0.0 mm 0.00 in0.0 mm
01:58 PM 66.0°F18.9°C 44.6°F7.0°C 46% 1.6 mph W2.6 kmh W 3.8 mph6.1 kmh 29.88 in1011.9 mb 0.00 in0.0 mm 0.00 in0.0 mm 0.00 in0.0 mm
01:57 PM 66.0°F18.9°C 44.6°F7.0°C 46% 2.2 mph W3.5 kmh W 5.4 mph8.7 kmh 29.88 in1011.9 mb 0.00 in0.0 mm 0.00 in0.0 mm 0.00 in0.0 mm
01:56 PM 66.0°F18.9°C 45.1°F7.3°C 47% 2.2 mph W3.5 kmh W 5.4 mph8.7 kmh 29.89 in1012.2 mb 0.00 in0.0 mm 0.00 in0.0 mm 0.00 in0.0 mm
01:54 PM 66.0°F18.9°C 45.1°F7.3°C 47% 3.1 mph SW5.0 kmh SW 5.4 mph8.7 kmh 29.89 in1012.2 mb 0.00 in0.0 mm 0.00 in0.0 mm 0.00 in0.0 mm
01:53 PM 66.0°F18.9°C 45.7°F7.6°C 48% 2.2 mph SW3.5 kmh SW 4.5 mph7.2 kmh 29.89 in1012.2 mb 0.00 in0.0 mm 0.00 in0.0 mm 0.00 in0.0 mm
01:52 PM 66.0°F18.9°C 45.1°F7.3°C 47% 2.2 mph SW3.5 kmh SW 5.4 mph8.7 kmh 29.89 in1012.2 mb 0.00 in0.0 mm 0.00 in0.0 mm 0.00 in0.0 mm
01:51 PM 66.0°F18.9°C 45.1°F7.3°C 47% 3.8 mph S6.1 kmh S 5.4 mph8.7 kmh 29.89 in1012.2 mb 0.00 in0.0 mm 0.00 in0.0 mm 0.00 in0.0 mm
01:50 PM 66.0°F18.9°C 44.6°F7.0°C 46% 2.2 mph SE3.5 kmh SE 6.0 mph9.7 kmh 29.89 in1012.2 mb 0.00 in0.0 mm 0.00 in0.0 mm 0.00 in0.0 mm
01:49 PM 66.0°F18.9°C 44.6°F7.0°C 46% 0.7 mph SW1.1 kmh SW 6.0 mph9.7 kmh 29.89 in1012.2 mb 0.00 in0.0 mm 0.00 in0.0 mm 0.00 in0.0 mm
01:47 PM 66.2°F19.0°C 44.8°F7.1°C 46% 3.1 mph SW5.0 kmh SW 6.9 mph11.1 kmh 29.89 in1012.2 mb 0.00 in0.0 mm 0.00 in0.0 mm 0.00 in0.0 mm
01:46 PM 66.0°F18.9°C 44.6°F7.0°C 46% 4.5 mph SW7.2 kmh SW 8.3 mph13.4 kmh 29.90 in1012.5 mb 0.00 in0.0 mm 0.00 in0.0 mm 0.00 in0.0 mm
01:45 PM 66.0°F18.9°C 44.6°F7.0°C 46% 6.0 mph S9.7 kmh S 8.3 mph13.4 kmh 29.90 in1012.5 mb 0.00 in0.0 mm 0.00 in0.0 mm 0.00 in0.0 mm
01:44 PM 66.0°F18.9°C 44.6°F7.0°C 46% 3.8 mph S6.1 kmh S 7.6 mph12.2 kmh 29.90 in1012.5 mb 0.00 in0.0 mm 0.00 in0.0 mm 0.00 in0.0 mm
01:43 PM 66.0°F18.9°C 44.6°F7.0°C 46% 5.4 mph S8.7 kmh S 7.6 mph12.2 kmh 29.90 in1012.5 mb 0.00 in0.0 mm 0.00 in0.0 mm 0.00 in0.0 mm
01:42 PM 66.0°F18.9°C 44.6°F7.0°C 46% 3.1 mph S5.0 kmh S 5.4 mph8.7 kmh 29.90 in1012.5 mb 0.00 in0.0 mm 0.00 in0.0 mm 0.00 in0.0 mm
01:40 PM 66.0°F18.9°C 44.6°F7.0°C 46% 3.1 mph SW5.0 kmh SW 6.9 mph11.1 kmh 29.90 in1012.5 mb 0.00 in0.0 mm 0.00 in0.0 mm 0.00 in0.0 mm
01:39 PM 66.0°F18.9°C 44.6°F7.0°C 46% 3.1 mph S5.0 kmh S 6.9 mph11.1 kmh 29.90 in1012.5 mb 0.00 in0.0 mm 0.00 in0.0 mm 0.00 in0.0 mm
01:38 PM 66.0°F18.9°C 44.6°F7.0°C 46% 4.5 mph SW7.2 kmh SW 6.9 mph11.1 kmh 29.90 in1012.5 mb 0.00 in0.0 mm 0.00 in0.0 mm 0.00 in0.0 mm
01:37 PM 66.0°F18.9°C 44.6°F7.0°C 46% 2.2 mph SW3.5 kmh SW 6.9 mph11.1 kmh 29.90 in1012.5 mb 0.00 in0.0 mm 0.00 in0.0 mm 0.00 in0.0 mm
01:36 PM 66.0°F18.9°C 44.6°F7.0°C 46% 2.2 mph S3.5 kmh S 4.5 mph7.2 kmh 29.90 in1012.5 mb 0.00 in0.0 mm 0.00 in0.0 mm 0.00 in0.0 mm
01:34 PM 66.0°F18.9°C 44.6°F7.0°C 46% 2.2 mph NW3.5 kmh NW 5.4 mph8.7 kmh 29.90 in1012.5 mb 0.00 in0.0 mm 0.00 in0.0 mm 0.00 in0.0 mm
01:33 PM 66.0°F18.9°C 44.6°F7.0°C 46% 2.2 mph W3.5 kmh W 5.4 mph8.7 kmh 29.90 in1012.5 mb 0.00 in0.0 mm 0.00 in0.0 mm 0.00 in0.0 mm
01:32 PM 66.0°F18.9°C 44.6°F7.0°C 46% 1.6 mph SW2.6 kmh SW 5.4 mph8.7 kmh 29.90 in1012.5 mb 0.00 in0.0 mm 0.00 in0.0 mm 0.00 in0.0 mm
01:31 PM 65.8°F18.8°C 44.4°F6.9°C 46% 0.7 mph SW1.1 kmh SW 3.8 mph6.1 kmh 29.91 in1012.9 mb 0.00 in0.0 mm 0.00 in0.0 mm 0.00 in0.0 mm
01:30 PM 66.0°F18.9°C 44.6°F7.0°C 46% 1.6 mph SW2.6 kmh SW 6.0 mph9.7 kmh 29.91 in1012.9 mb 0.00 in0.0 mm 0.00 in0.0 mm 0.00 in0.0 mm
01:29 PM 66.0°F18.9°C 44.6°F7.0°C 46% 3.1 mph SW5.0 kmh SW 6.0 mph9.7 kmh 29.91 in1012.9 mb 0.00 in0.0 mm 0.00 in0.0 mm 0.00 in0.0 mm
01:27 PM 66.0°F18.9°C 44.6°F7.0°C 46% 3.8 mph S6.1 kmh S 6.9 mph11.1 kmh 29.91 in1012.9 mb 0.00 in0.0 mm 0.00 in0.0 mm 0.00 in0.0 mm
01:26 PM 66.0°F18.9°C 44.6°F7.0°C 46% 3.1 mph SW5.0 kmh SW 6.0 mph9.7 kmh 29.91 in1012.9 mb 0.00 in0.0 mm 0.00 in0.0 mm 0.00 in0.0 mm
01:25 PM 66.0°F18.9°C 44.6°F7.0°C 46% 2.2 mph S3.5 kmh S 6.9 mph11.1 kmh 29.91 in1012.9 mb 0.00 in0.0 mm 0.00 in0.0 mm 0.00 in0.0 mm
01:24 PM 66.0°F18.9°C 44.6°F7.0°C 46% 3.1 mph SW5.0 kmh SW 6.0 mph9.7 kmh 29.91 in1012.9 mb 0.00 in0.0 mm 0.00 in0.0 mm 0.00 in0.0 mm
01:23 PM 66.0°F18.9°C 44.6°F7.0°C 46% 3.8 mph S6.1 kmh S 6.0 mph9.7 kmh 29.91 in1012.9 mb 0.00 in0.0 mm 0.00 in0.0 mm 0.00 in0.0 mm
01:22 PM 65.8°F18.8°C 44.4°F6.9°C 46% 3.8 mph S6.1 kmh S 6.0 mph9.7 kmh 29.91 in1012.9 mb 0.00 in0.0 mm 0.00 in0.0 mm 0.00 in0.0 mm
01:20 PM 65.8°F18.8°C 44.4°F6.9°C 46% 2.2 mph NW3.5 kmh NW 6.9 mph11.1 kmh 29.91 in1012.9 mb 0.00 in0.0 mm 0.00 in0.0 mm 0.00 in0.0 mm
01:19 PM 65.8°F18.8°C 44.4°F6.9°C 46% 3.8 mph SW6.1 kmh SW 6.9 mph11.1 kmh 29.91 in1012.9 mb 0.00 in0.0 mm 0.00 in0.0 mm 0.00 in0.0 mm
01:18 PM 65.8°F18.8°C 44.4°F6.9°C 46% 4.5 mph S7.2 kmh S 6.9 mph11.1 kmh 29.91 in1012.9 mb 0.00 in0.0 mm 0.00 in0.0 mm 0.00 in0.0 mm
01:17 PM 65.8°F18.8°C 44.4°F6.9°C 46% 3.1 mph S5.0 kmh S 8.3 mph13.4 kmh 29.92 in1013.2 mb 0.00 in0.0 mm 0.00 in0.0 mm 0.00 in0.0 mm
01:16 PM 65.7°F18.7°C 44.2°F6.8°C 46% 5.4 mph S8.7 kmh S 8.3 mph13.4 kmh 29.92 in1013.2 mb 0.00 in0.0 mm 0.00 in0.0 mm 0.00 in0.0 mm
01:14 PM 65.7°F18.7°C 44.2°F6.8°C 46% 3.1 mph SW5.0 kmh SW 6.9 mph11.1 kmh 29.92 in1013.2 mb 0.00 in0.0 mm 0.00 in0.0 mm 0.00 in0.0 mm
01:13 PM 65.7°F18.7°C 44.2°F6.8°C 46% 3.8 mph S6.1 kmh S 6.9 mph11.1 kmh 29.92 in1013.2 mb 0.00 in0.0 mm 0.00 in0.0 mm 0.00 in0.0 mm
01:12 PM 65.7°F18.7°C 44.2°F6.8°C 46% 4.5 mph NW7.2 kmh NW 6.9 mph11.1 kmh 29.92 in1013.2 mb 0.00 in0.0 mm 0.00 in0.0 mm 0.00 in0.0 mm
01:11 PM 65.7°F18.7°C 44.2°F6.8°C 46% 3.8 mph S6.1 kmh S 6.9 mph11.1 kmh 29.92 in1013.2 mb 0.00 in0.0 mm 0.00 in0.0 mm 0.00 in0.0 mm
01:10 PM 65.5°F18.6°C 44.2°F6.8°C 46% 4.5 mph WSW7.2 kmh WSW 6.9 mph11.1 kmh 29.92 in1013.2 mb 0.00 in0.0 mm 0.00 in0.0 mm 0.00 in0.0 mm
01:09 PM 65.5°F18.6°C 44.2°F6.8°C 46% 3.8 mph SE6.1 kmh SE 7.6 mph12.2 kmh 29.92 in1013.2 mb 0.00 in0.0 mm 0.00 in0.0 mm 0.00 in0.0 mm
01:07 PM 65.3°F18.5°C 43.3°F6.3°C 45% 4.5 mph SW7.2 kmh SW 7.6 mph12.2 kmh 29.92 in1013.2 mb 0.00 in0.0 mm 0.00 in0.0 mm 0.00 in0.0 mm
01:06 PM 65.3°F18.5°C 43.3°F6.3°C 45% 4.5 mph SW7.2 kmh SW 6.9 mph11.1 kmh 29.92 in1013.2 mb 0.00 in0.0 mm 0.00 in0.0 mm 0.00 in0.0 mm
01:05 PM 65.1°F18.4°C 43.9°F6.6°C 46% 3.8 mph SW6.1 kmh SW 6.0 mph9.7 kmh 29.92 in1013.2 mb 0.00 in0.0 mm 0.00 in0.0 mm 0.00 in0.0 mm
01:04 PM 64.9°F18.3°C 43.7°F6.5°C 46% 2.2 mph S3.5 kmh S 6.0 mph9.7 kmh 29.92 in1013.2 mb 0.00 in0.0 mm 0.00 in0.0 mm 0.00 in0.0 mm
01:03 PM 64.9°F18.3°C 43.7°F6.5°C 46% 3.1 mph 5.0 kmh 6.0 mph9.7 kmh 29.93 in1013.5 mb 0.00 in0.0 mm 0.00 in0.0 mm 0.00 in0.0 mm
01:02 PM 64.8°F18.2°C 43.5°F6.4°C 46% 2.2 mph SW3.5 kmh SW 5.4 mph8.7 kmh 29.93 in1013.5 mb 0.00 in0.0 mm 0.00 in0.0 mm 0.00 in0.0 mm
01:00 PM 64.8°F18.2°C 43.5°F6.4°C 46% 3.1 mph ESE5.0 kmh ESE 5.4 mph8.7 kmh 29.92 in1013.2 mb 0.00 in0.0 mm 0.00 in0.0 mm 0.00 in0.0 mm
12:59 PM 64.6°F18.1°C 43.3°F6.3°C 46% 3.1 mph S5.0 kmh S 6.0 mph9.7 kmh 29.92 in1013.2 mb 0.00 in0.0 mm 0.00 in0.0 mm 0.00 in0.0 mm
12:58 PM 64.6°F18.1°C 43.3°F6.3°C 46% 2.2 mph SE3.5 kmh SE 5.4 mph8.7 kmh 29.92 in1013.2 mb 0.00 in0.0 mm 0.00 in0.0 mm 0.00 in0.0 mm
12:57 PM 64.2°F17.9°C 43.0°F6.1°C 46% 3.1 mph W5.0 kmh W 6.9 mph11.1 kmh 29.93 in1013.5 mb 0.00 in0.0 mm 0.00 in0.0 mm 0.00 in0.0 mm
12:56 PM 64.2°F17.9°C 43.0°F6.1°C 46% 2.2 mph S3.5 kmh S 6.0 mph9.7 kmh 29.93 in1013.5 mb 0.00 in0.0 mm 0.00 in0.0 mm 0.00 in0.0 mm
12:55 PM 64.2°F17.9°C 43.0°F6.1°C 46% 3.8 mph SW6.1 kmh SW 6.9 mph11.1 kmh 29.93 in1013.5 mb 0.00 in0.0 mm 0.00 in0.0 mm 0.00 in0.0 mm
12:53 PM 64.0°F17.8°C 42.8°F6.0°C 46% 3.8 mph SW6.1 kmh SW 6.9 mph11.1 kmh 29.93 in1013.5 mb 0.00 in0.0 mm 0.00 in0.0 mm 0.00 in0.0 mm
12:52 PM 64.0°F17.8°C 42.8°F6.0°C 46% 2.2 mph S3.5 kmh S 4.5 mph7.2 kmh 29.93 in1013.5 mb 0.00 in0.0 mm 0.00 in0.0 mm 0.00 in0.0 mm
12:51 PM 64.0°F17.8°C 42.8°F6.0°C 46% 3.1 mph S5.0 kmh S 5.4 mph8.7 kmh 29.93 in1013.5 mb 0.00 in0.0 mm 0.00 in0.0 mm 0.00 in0.0 mm
12:50 PM 63.9°F17.7°C 42.6°F5.9°C 46% 3.1 mph SW5.0 kmh SW 5.4 mph8.7 kmh 29.93 in1013.5 mb 0.00 in0.0 mm 0.00 in0.0 mm 0.00 in0.0 mm
12:49 PM 63.9°F17.7°C 42.6°F5.9°C 46% 1.6 mph SW2.6 kmh SW 3.8 mph6.1 kmh 29.93 in1013.5 mb 0.00 in0.0 mm 0.00 in0.0 mm 0.00 in0.0 mm
12:47 PM 63.7°F17.6°C 43.2°F6.2°C 47% 1.6 mph S2.6 kmh S 4.5 mph7.2 kmh 29.93 in1013.5 mb 0.00 in0.0 mm 0.00 in0.0 mm 0.00 in0.0 mm
12:46 PM 63.5°F17.5°C 42.3°F5.7°C 46% 2.2 mph SE3.5 kmh SE 5.4 mph8.7 kmh 29.93 in1013.5 mb 0.00 in0.0 mm 0.00 in0.0 mm 0.00 in0.0 mm
12:45 PM 63.1°F17.3°C 42.6°F5.9°C 47% 3.8 mph S6.1 kmh S 5.4 mph8.7 kmh 29.93 in1013.5 mb 0.00 in0.0 mm 0.00 in0.0 mm 0.00 in0.0 mm
12:44 PM 63.3°F17.4°C 42.8°F6.0°C 47% 2.2 mph SW3.5 kmh SW 6.9 mph11.1 kmh 29.93 in1013.5 mb 0.00 in0.0 mm 0.00 in0.0 mm 0.00 in0.0 mm
12:43 PM 63.1°F17.3°C 42.6°F5.9°C 47% 3.1 mph SE5.0 kmh SE 6.0 mph9.7 kmh 29.93 in1013.5 mb 0.00 in0.0 mm 0.00 in0.0 mm 0.00 in0.0 mm
12:42 PM 63.0°F17.2°C 42.4°F5.8°C 47% 3.1 mph SSE5.0 kmh SSE 6.0 mph9.7 kmh 29.93 in1013.5 mb 0.00 in0.0 mm 0.00 in0.0 mm 0.00 in0.0 mm
12:40 PM 63.0°F17.2°C 42.4°F5.8°C 47% 1.6 mph SE2.6 kmh SE 4.5 mph7.2 kmh 29.93 in1013.5 mb 0.00 in0.0 mm 0.00 in0.0 mm 0.00 in0.0 mm
12:39 PM 62.8°F17.1°C 42.3°F5.7°C 47% 2.2 mph SW3.5 kmh SW 5.4 mph8.7 kmh 29.93 in1013.5 mb 0.00 in0.0 mm 0.00 in0.0 mm 0.00 in0.0 mm
12:38 PM 62.8°F17.1°C 42.3°F5.7°C 47% 1.6 mph SE2.6 kmh SE 3.1 mph5.0 kmh 29.93 in1013.5 mb 0.00 in0.0 mm 0.00 in0.0 mm 0.00 in0.0 mm
12:37 PM 62.4°F16.9°C 41.9°F5.5°C 47% 1.6 mph S2.6 kmh S 3.1 mph5.0 kmh 29.93 in1013.5 mb 0.00 in0.0 mm 0.00 in0.0 mm 0.00 in0.0 mm
12:36 PM 62.6°F17.0°C 42.1°F5.6°C 47% 0.7 mph W1.1 kmh W 4.5 mph7.2 kmh 29.93 in1013.5 mb 0.00 in0.0 mm 0.00 in0.0 mm 0.00 in0.0 mm
12:35 PM 62.4°F16.9°C 41.9°F5.5°C 47% 3.1 mph W5.0 kmh W 5.4 mph8.7 kmh 29.93 in1013.5 mb 0.00 in0.0 mm 0.00 in0.0 mm 0.00 in0.0 mm
12:33 PM 62.2°F16.8°C 41.7°F5.4°C 47% 1.6 mph S2.6 kmh S 3.8 mph6.1 kmh 29.93 in1013.5 mb 0.00 in0.0 mm 0.00 in0.0 mm 0.00 in0.0 mm
12:32 PM 62.2°F16.8°C 41.7°F5.4°C 47% 2.2 mph S3.5 kmh S 3.8 mph6.1 kmh 29.93 in1013.5 mb 0.00 in0.0 mm 0.00 in0.0 mm 0.00 in0.0 mm
12:31 PM 61.9°F16.6°C 41.9°F5.5°C 48% 2.2 mph SE3.5 kmh SE 4.5 mph7.2 kmh 29.93 in1013.5 mb 0.00 in0.0 mm 0.00 in0.0 mm 0.00 in0.0 mm
12:30 PM 61.9°F16.6°C 41.9°F5.5°C 48% 2.2 mph S3.5 kmh S 4.5 mph7.2 kmh 29.93 in1013.5 mb 0.00 in0.0 mm 0.00 in0.0 mm 0.00 in0.0 mm
12:29 PM 61.7°F16.5°C 41.9°F5.5°C 48% 2.2 mph NE3.5 kmh NE 5.4 mph8.7 kmh 29.94 in1013.9 mb 0.00 in0.0 mm 0.00 in0.0 mm 0.00 in0.0 mm
12:27 PM 61.9°F16.6°C 42.4°F5.8°C 49% 3.1 mph S5.0 kmh S 5.4 mph8.7 kmh 29.94 in1013.9 mb 0.00 in0.0 mm 0.00 in0.0 mm 0.00 in0.0 mm
12:26 PM 61.7°F16.5°C 42.3°F5.7°C 49% 1.6 mph S2.6 kmh S 5.4 mph8.7 kmh 29.94 in1013.9 mb 0.00 in0.0 mm 0.00 in0.0 mm 0.00 in0.0 mm
12:25 PM 61.5°F16.4°C 42.3°F5.7°C 49% 3.8 mph SE6.1 kmh SE 5.4 mph8.7 kmh 29.94 in1013.9 mb 0.00 in0.0 mm 0.00 in0.0 mm 0.00 in0.0 mm
12:24 PM 61.3°F16.3°C 41.5°F5.3°C 48% 0.7 mph SE1.1 kmh SE 4.5 mph7.2 kmh 29.93 in1013.5 mb 0.00 in0.0 mm 0.00 in0.0 mm 0.00 in0.0 mm
12:23 PM 61.3°F16.3°C 42.1°F5.6°C 49% 2.2 mph SE3.5 kmh SE 5.4 mph8.7 kmh 29.94 in1013.9 mb 0.00 in0.0 mm 0.00 in0.0 mm 0.00 in0.0 mm
12:22 PM 61.3°F16.3°C 42.1°F5.6°C 49% 2.2 mph SE3.5 kmh SE 5.4 mph8.7 kmh 29.94 in1013.9 mb 0.00 in0.0 mm 0.00 in0.0 mm 0.00 in0.0 mm
12:20 PM 61.2°F16.2°C 41.9°F5.5°C 49% 1.6 mph SE2.6 kmh SE 4.5 mph7.2 kmh 29.94 in1013.9 mb 0.00 in0.0 mm 0.00 in0.0 mm 0.00 in0.0 mm
12:19 PM 61.0°F16.1°C 41.7°F5.4°C 49% 2.2 mph S3.5 kmh S 5.4 mph8.7 kmh 29.94 in1013.9 mb 0.00 in0.0 mm 0.00 in0.0 mm 0.00 in0.0 mm
12:18 PM 60.8°F16.0°C 41.5°F5.3°C 49% 2.2 mph S3.5 kmh S 4.5 mph7.2 kmh 29.94 in1013.9 mb 0.00 in0.0 mm 0.00 in0.0 mm 0.00 in0.0 mm
12:17 PM 60.8°F16.0°C 41.0°F5.0°C 48% 3.1 mph SE5.0 kmh SE 6.0 mph9.7 kmh 29.94 in1013.9 mb 0.00 in0.0 mm 0.00 in0.0 mm 0.00 in0.0 mm
12:16 PM 60.8°F16.0°C 41.0°F5.0°C 48% 3.1 mph SW5.0 kmh SW 5.4 mph8.7 kmh 29.94 in1013.9 mb 0.00 in0.0 mm 0.00 in0.0 mm 0.00 in0.0 mm
12:15 PM 60.6°F15.9°C 40.8°F4.9°C 48% 3.8 mph SW6.1 kmh SW 5.4 mph8.7 kmh 29.94 in1013.9 mb 0.00 in0.0 mm 0.00 in0.0 mm 0.00 in0.0 mm
12:13 PM 60.6°F15.9°C 41.4°F5.2°C 49% 2.2 mph SW3.5 kmh SW 4.5 mph7.2 kmh 29.94 in1013.9 mb 0.00 in0.0 mm 0.00 in0.0 mm 0.00 in0.0 mm
12:12 PM 60.4°F15.8°C 41.2°F5.1°C 49% 3.1 mph S5.0 kmh S 4.5 mph7.2 kmh 29.94 in1013.9 mb 0.00 in0.0 mm 0.00 in0.0 mm 0.00 in0.0 mm
12:11 PM 60.4°F15.8°C 41.2°F5.1°C 49% 1.6 mph SSE2.6 kmh SSE 3.1 mph5.0 kmh 29.94 in1013.9 mb 0.00 in0.0 mm 0.00 in0.0 mm 0.00 in0.0 mm
12:10 PM 60.3°F15.7°C 41.0°F5.0°C 49% 0.7 mph SE1.1 kmh SE 3.1 mph5.0 kmh 29.95 in1014.2 mb 0.00 in0.0 mm 0.00 in0.0 mm 0.00 in0.0 mm
12:09 PM 60.3°F15.7°C 41.0°F5.0°C 49% 3.1 mph SW5.0 kmh SW 4.5 mph7.2 kmh 29.95 in1014.2 mb 0.00 in0.0 mm 0.00 in0.0 mm 0.00 in0.0 mm
12:08 PM 60.1°F15.6°C 40.8°F4.9°C 49% 2.2 mph SSE3.5 kmh SSE 3.8 mph6.1 kmh 29.95 in1014.2 mb 0.00 in0.0 mm 0.00 in0.0 mm 0.00 in0.0 mm
12:06 PM 60.1°F15.6°C 40.8°F4.9°C 49% 2.2 mph S3.5 kmh S 4.5 mph7.2 kmh 29.95 in1014.2 mb 0.00 in0.0 mm 0.00 in0.0 mm 0.00 in0.0 mm
12:05 PM 60.1°F15.6°C 40.8°F4.9°C 49% 2.2 mph SW3.5 kmh SW 3.8 mph6.1 kmh 29.95 in1014.2 mb 0.00 in0.0 mm 0.00 in0.0 mm 0.00 in0.0 mm
12:04 PM 59.9°F15.5°C 40.6°F4.8°C 49% 1.6 mph SW2.6 kmh SW 4.5 mph7.2 kmh 29.95 in1014.2 mb 0.00 in0.0 mm 0.00 in0.0 mm 0.00 in0.0 mm
12:03 PM 59.9°F15.5°C 41.2°F5.1°C 50% 3.1 mph SW5.0 kmh SW 4.5 mph7.2 kmh 29.95 in1014.2 mb 0.00 in0.0 mm 0.00 in0.0 mm 0.00 in0.0 mm
12:02 PM 59.7°F15.4°C 41.0°F5.0°C 50% 3.1 mph S5.0 kmh S 4.5 mph7.2 kmh 29.95 in1014.2 mb 0.00 in0.0 mm 0.00 in0.0 mm 0.00 in0.0 mm
12:00 PM 59.7°F15.4°C 41.0°F5.0°C 50% 0.7 mph S1.1 kmh S 3.8 mph6.1 kmh 29.95 in1014.2 mb 0.00 in0.0 mm 0.00 in0.0 mm 0.00 in0.0 mm
11:59 AM 59.5°F15.3°C 40.8°F4.9°C 50% 2.2 mph SW3.5 kmh SW 4.5 mph7.2 kmh 29.95 in1014.2 mb 0.00 in0.0 mm 0.00 in0.0 mm 0.00 in0.0 mm
11:58 AM 59.5°F15.3°C 40.8°F4.9°C 50% 2.2 mph SW3.5 kmh SW 3.8 mph6.1 kmh 29.95 in1014.2 mb 0.00 in0.0 mm 0.00 in0.0 mm 0.00 in0.0 mm
11:57 AM 59.4°F15.2°C 40.6°F4.8°C 50% 1.6 mph SE2.6 kmh SE 5.4 mph8.7 kmh 29.96 in1014.6 mb 0.00 in0.0 mm 0.00 in0.0 mm 0.00 in0.0 mm
11:56 AM 59.4°F15.2°C 40.6°F4.8°C 50% 3.1 mph SW5.0 kmh SW 5.4 mph8.7 kmh 29.96 in1014.6 mb 0.00 in0.0 mm 0.00 in0.0 mm 0.00 in0.0 mm
11:55 AM 59.4°F15.2°C 41.2°F5.1°C 51% 1.6 mph SW2.6 kmh SW 4.5 mph7.2 kmh 29.96 in1014.6 mb 0.00 in0.0 mm 0.00 in0.0 mm 0.00 in0.0 mm
11:53 AM 59.2°F15.1°C 41.0°F5.0°C 51% 0.7 mph 1.1 kmh 4.5 mph7.2 kmh 29.96 in1014.6 mb 0.00 in0.0 mm 0.00 in0.0 mm 0.00 in0.0 mm
11:52 AM 59.2°F15.1°C 41.0°F5.0°C 51% 2.2 mph SW3.5 kmh SW 4.5 mph7.2 kmh 29.96 in1014.6 mb 0.00 in0.0 mm 0.00 in0.0 mm 0.00 in0.0 mm
11:51 AM 59.0°F15.0°C 40.8°F4.9°C 51% 1.6 mph SW2.6 kmh SW 4.5 mph7.2 kmh 29.96 in1014.6 mb 0.00 in0.0 mm 0.00 in0.0 mm 0.00 in0.0 mm
11:50 AM 59.0°F15.0°C 41.4°F5.2°C 52% 1.6 mph W2.6 kmh W 6.9 mph11.1 kmh 29.96 in1014.6 mb 0.00 in0.0 mm 0.00 in0.0 mm 0.00 in0.0 mm
11:49 AM 58.8°F14.9°C 40.8°F4.9°C 51% 3.8 mph SW6.1 kmh SW 6.9 mph11.1 kmh 29.96 in1014.6 mb 0.00 in0.0 mm 0.00 in0.0 mm 0.00 in0.0 mm
11:48 AM 58.8°F14.9°C 41.7°F5.4°C 53% 1.6 mph W2.6 kmh W 5.4 mph8.7 kmh 29.96 in1014.6 mb 0.00 in0.0 mm 0.00 in0.0 mm 0.00 in0.0 mm
11:46 AM 58.6°F14.8°C 41.5°F5.3°C 53% 3.8 mph SW6.1 kmh SW 6.9 mph11.1 kmh 29.96 in1014.6 mb 0.00 in0.0 mm 0.00 in0.0 mm 0.00 in0.0 mm
11:45 AM 58.6°F14.8°C 41.5°F5.3°C 53% 3.8 mph S6.1 kmh S 6.9 mph11.1 kmh 29.96 in1014.6 mb 0.00 in0.0 mm 0.00 in0.0 mm 0.00 in0.0 mm
11:44 AM 58.5°F14.7°C 41.4°F5.2°C 53% 2.2 mph SW3.5 kmh SW 5.4 mph8.7 kmh 29.96 in1014.6 mb 0.00 in0.0 mm 0.00 in0.0 mm 0.00 in0.0 mm
11:43 AM 58.3°F14.6°C 41.2°F5.1°C 53% 2.2 mph W3.5 kmh W 5.4 mph8.7 kmh 29.96 in1014.6 mb 0.00 in0.0 mm 0.00 in0.0 mm 0.00 in0.0 mm
11:42 AM 58.3°F14.6°C 41.2°F5.1°C 53% 3.1 mph SW5.0 kmh SW 5.4 mph8.7 kmh 29.96 in1014.6 mb 0.00 in0.0 mm 0.00 in0.0 mm 0.00 in0.0 mm
11:40 AM 58.1°F14.5°C 41.0°F5.0°C 53% 3.1 mph SW5.0 kmh SW 5.4 mph8.7 kmh 29.96 in1014.6 mb 0.00 in0.0 mm 0.00 in0.0 mm 0.00 in0.0 mm
11:39 AM 58.1°F14.5°C 41.5°F5.3°C 54% 2.2 mph SW3.5 kmh SW 4.5 mph7.2 kmh 29.96 in1014.6 mb 0.00 in0.0 mm 0.00 in0.0 mm 0.00 in0.0 mm
11:38 AM 58.1°F14.5°C 41.5°F5.3°C 54% 2.2 mph W3.5 kmh W 4.5 mph7.2 kmh 29.96 in1014.6 mb 0.00 in0.0 mm 0.00 in0.0 mm 0.00 in0.0 mm
11:37 AM 57.9°F14.4°C 41.4°F5.2°C 54% 2.2 mph W3.5 kmh W 5.4 mph8.7 kmh 29.96 in1014.6 mb 0.00 in0.0 mm 0.00 in0.0 mm 0.00 in0.0 mm
11:36 AM 57.7°F14.3°C 41.7°F5.4°C 55% 3.8 mph W6.1 kmh W 7.6 mph12.2 kmh 29.96 in1014.6 mb 0.00 in0.0 mm 0.00 in0.0 mm 0.00 in0.0 mm
11:35 AM 57.7°F14.3°C 42.1°F5.6°C 56% 3.1 mph SW5.0 kmh SW 7.6 mph12.2 kmh 29.97 in1014.9 mb 0.00 in0.0 mm 0.00 in0.0 mm 0.00 in0.0 mm
11:33 AM 57.6°F14.2°C 41.9°F5.5°C 56% 3.8 mph S6.1 kmh S 7.6 mph12.2 kmh 29.96 in1014.6 mb 0.00 in0.0 mm 0.00 in0.0 mm 0.00 in0.0 mm
11:32 AM 57.6°F14.2°C 41.9°F5.5°C 56% 3.1 mph S5.0 kmh S 4.5 mph7.2 kmh 29.97 in1014.9 mb 0.00 in0.0 mm 0.00 in0.0 mm 0.00 in0.0 mm
11:31 AM 57.4°F14.1°C 41.9°F5.5°C 56% 2.2 mph SW3.5 kmh SW 5.4 mph8.7 kmh 29.97 in1014.9 mb 0.00 in0.0 mm 0.00 in0.0 mm 0.00 in0.0 mm
11:30 AM 57.2°F14.0°C 41.7°F5.4°C 56% 2.2 mph SW3.5 kmh SW 5.4 mph8.7 kmh 29.97 in1014.9 mb 0.00 in0.0 mm 0.00 in0.0 mm 0.00 in0.0 mm
11:29 AM 57.2°F14.0°C 41.7°F5.4°C 56% 1.6 mph NW2.6 kmh NW 4.5 mph7.2 kmh 29.97 in1014.9 mb 0.00 in0.0 mm 0.00 in0.0 mm 0.00 in0.0 mm
11:28 AM 57.0°F13.9°C 41.9°F5.5°C 57% 2.2 mph W3.5 kmh W 7.6 mph12.2 kmh 29.97 in1014.9 mb 0.00 in0.0 mm 0.00 in0.0 mm 0.00 in0.0 mm
11:26 AM 57.0°F13.9°C 41.9°F5.5°C 57% 2.2 mph SW3.5 kmh SW 7.6 mph12.2 kmh 29.97 in1014.9 mb 0.00 in0.0 mm 0.00 in0.0 mm 0.00 in0.0 mm
11:25 AM 56.8°F13.8°C 41.7°F5.4°C 57% 1.6 mph W2.6 kmh W 5.4 mph8.7 kmh 29.97 in1014.9 mb 0.00 in0.0 mm 0.00 in0.0 mm 0.00 in0.0 mm
11:24 AM 56.8°F13.8°C 41.7°F5.4°C 57% 1.6 mph SW2.6 kmh SW 7.6 mph12.2 kmh 29.97 in1014.9 mb 0.00 in0.0 mm 0.00 in0.0 mm 0.00 in0.0 mm
11:23 AM 56.7°F13.7°C 42.1°F5.6°C 58% 3.8 mph SW6.1 kmh SW 7.6 mph12.2 kmh 29.97 in1014.9 mb 0.00 in0.0 mm 0.00 in0.0 mm 0.00 in0.0 mm
11:22 AM 56.5°F13.6°C 42.3°F5.7°C 59% 3.1 mph W5.0 kmh W 7.6 mph12.2 kmh 29.97 in1014.9 mb 0.00 in0.0 mm 0.00 in0.0 mm 0.00 in0.0 mm
11:21 AM 56.5°F13.6°C 42.8°F6.0°C 60% 4.5 mph SW7.2 kmh SW 7.6 mph12.2 kmh 29.97 in1014.9 mb 0.00 in0.0 mm 0.00 in0.0 mm 0.00 in0.0 mm
11:19 AM 56.3°F13.5°C 42.6°F5.9°C 60% 4.5 mph SW7.2 kmh SW 7.6 mph12.2 kmh 29.97 in1014.9 mb 0.00 in0.0 mm 0.00 in0.0 mm 0.00 in0.0 mm
11:18 AM 56.3°F13.5°C 42.6°F5.9°C 60% 1.6 mph S2.6 kmh S 6.0 mph9.7 kmh 29.98 in1015.2 mb 0.00 in0.0 mm 0.00 in0.0 mm 0.00 in0.0 mm
11:17 AM 56.1°F13.4°C 42.8°F6.0°C 61% 2.2 mph SW3.5 kmh SW 6.9 mph11.1 kmh 29.97 in1014.9 mb 0.00 in0.0 mm 0.00 in0.0 mm 0.00 in0.0 mm
11:16 AM 56.1°F13.4°C 42.8°F6.0°C 61% 3.8 mph SW6.1 kmh SW 6.9 mph11.1 kmh 29.97 in1014.9 mb 0.00 in0.0 mm 0.00 in0.0 mm 0.00 in0.0 mm
11:15 AM 55.9°F13.3°C 42.3°F5.7°C 60% 3.8 mph S6.1 kmh S 6.0 mph9.7 kmh 29.97 in1014.9 mb 0.00 in0.0 mm 0.00 in0.0 mm 0.00 in0.0 mm
11:13 AM 55.9°F13.3°C 42.3°F5.7°C 60% 4.5 mph W7.2 kmh W 8.3 mph13.4 kmh 29.97 in1014.9 mb 0.00 in0.0 mm 0.00 in0.0 mm 0.00 in0.0 mm
11:12 AM 55.8°F13.2°C 42.1°F5.6°C 60% 6.0 mph S9.7 kmh S 9.8 mph15.8 kmh 29.97 in1014.9 mb 0.00 in0.0 mm 0.00 in0.0 mm 0.00 in0.0 mm
11:11 AM 55.8°F13.2°C 42.1°F5.6°C 60% 3.1 mph SW5.0 kmh SW 6.9 mph11.1 kmh 29.97 in1014.9 mb 0.00 in0.0 mm 0.00 in0.0 mm 0.00 in0.0 mm
11:10 AM 55.6°F13.1°C 41.9°F5.5°C 60% 4.5 mph S7.2 kmh S 6.9 mph11.1 kmh 29.97 in1014.9 mb 0.00 in0.0 mm 0.00 in0.0 mm 0.00 in0.0 mm
11:09 AM 55.6°F13.1°C 41.9°F5.5°C 60% 3.8 mph NW6.1 kmh NW 6.9 mph11.1 kmh 29.98 in1015.2 mb 0.00 in0.0 mm 0.00 in0.0 mm 0.00 in0.0 mm
11:08 AM 55.4°F13.0°C 41.7°F5.4°C 60% 3.1 mph SW5.0 kmh SW 8.3 mph13.4 kmh 29.97 in1014.9 mb 0.00 in0.0 mm 0.00 in0.0 mm 0.00 in0.0 mm
11:06 AM 55.4°F13.0°C 41.7°F5.4°C 60% 4.5 mph S7.2 kmh S 8.3 mph13.4 kmh 29.98 in1015.2 mb 0.00 in0.0 mm 0.00 in0.0 mm 0.00 in0.0 mm
11:05 AM 55.4°F13.0°C 41.7°F5.4°C 60% 4.5 mph SW7.2 kmh SW 8.3 mph13.4 kmh 29.97 in1014.9 mb 0.00 in0.0 mm 0.00 in0.0 mm 0.00 in0.0 mm
11:04 AM 55.4°F13.0°C 41.4°F5.2°C 59% 5.4 mph S8.7 kmh S 10.7 mph17.2 kmh 29.98 in1015.2 mb 0.00 in0.0 mm 0.00 in0.0 mm 0.00 in0.0 mm
11:03 AM 55.2°F12.9°C 41.2°F5.1°C 59% 6.0 mph S9.7 kmh S 9.2 mph14.8 kmh 29.97 in1014.9 mb 0.00 in0.0 mm 0.00 in0.0 mm 0.00 in0.0 mm
11:02 AM 55.2°F12.9°C 41.2°F5.1°C 59% 5.4 mph SW8.7 kmh SW 9.2 mph14.8 kmh 29.98 in1015.2 mb 0.00 in0.0 mm 0.00 in0.0 mm 0.00 in0.0 mm
11:01 AM 55.2°F12.9°C 41.5°F5.3°C 60% 3.8 mph SW6.1 kmh SW 9.8 mph15.8 kmh 29.98 in1015.2 mb 0.00 in0.0 mm 0.00 in0.0 mm 0.00 in0.0 mm
10:59 AM 55.2°F12.9°C 41.2°F5.1°C 59% 4.5 mph WNW7.2 kmh WNW 9.8 mph15.8 kmh 29.98 in1015.2 mb 0.00 in0.0 mm 0.00 in0.0 mm 0.00 in0.0 mm
10:58 AM 55.0°F12.8°C 41.0°F5.0°C 59% 5.4 mph SW8.7 kmh SW 9.2 mph14.8 kmh 29.98 in1015.2 mb 0.00 in0.0 mm 0.00 in0.0 mm 0.00 in0.0 mm
10:57 AM 55.0°F12.8°C 41.4°F5.2°C 60% 6.0 mph S9.7 kmh S 9.2 mph14.8 kmh 29.98 in1015.2 mb 0.00 in0.0 mm 0.00 in0.0 mm 0.00 in0.0 mm
10:56 AM 55.0°F12.8°C 41.4°F5.2°C 60% 4.5 mph SW7.2 kmh SW 9.2 mph14.8 kmh 29.98 in1015.2 mb 0.00 in0.0 mm 0.00 in0.0 mm 0.00 in0.0 mm
10:55 AM 54.9°F12.7°C 41.2°F5.1°C 60% 3.8 mph SW6.1 kmh SW 9.2 mph14.8 kmh 29.98 in1015.2 mb 0.00 in0.0 mm 0.00 in0.0 mm 0.00 in0.0 mm
10:54 AM 54.9°F12.7°C 41.2°F5.1°C 60% 5.4 mph W8.7 kmh W 9.2 mph14.8 kmh 29.98 in1015.2 mb 0.00 in0.0 mm 0.00 in0.0 mm 0.00 in0.0 mm
10:52 AM 54.7°F12.6°C 41.0°F5.0°C 60% 4.5 mph SW7.2 kmh SW 9.8 mph15.8 kmh 29.98 in1015.2 mb 0.00 in0.0 mm 0.00 in0.0 mm 0.00 in0.0 mm
10:51 AM 54.7°F12.6°C 41.5°F5.3°C 61% 3.8 mph S6.1 kmh S 8.3 mph13.4 kmh 29.98 in1015.2 mb 0.00 in0.0 mm 0.00 in0.0 mm 0.00 in0.0 mm
10:50 AM 54.5°F12.5°C 40.8°F4.9°C 60% 4.5 mph SW7.2 kmh SW 9.8 mph15.8 kmh 29.98 in1015.2 mb 0.00 in0.0 mm 0.00 in0.0 mm 0.00 in0.0 mm
10:49 AM 54.5°F12.5°C 41.7°F5.4°C 62% 3.8 mph SW6.1 kmh SW 10.7 mph17.2 kmh 29.98 in1015.2 mb 0.00 in0.0 mm 0.00 in0.0 mm 0.00 in0.0 mm
10:48 AM 54.3°F12.4°C 42.1°F5.6°C 63% 6.9 mph SW11.1 kmh SW 10.7 mph17.2 kmh 29.97 in1014.9 mb 0.00 in0.0 mm 0.00 in0.0 mm 0.00 in0.0 mm
10:46 AM 54.1°F12.3°C 42.3°F5.7°C 64% 3.8 mph NW6.1 kmh NW 9.2 mph14.8 kmh 29.97 in1014.9 mb 0.00 in0.0 mm 0.00 in0.0 mm 0.00 in0.0 mm
10:45 AM 54.1°F12.3°C 42.6°F5.9°C 65% 3.1 mph SW5.0 kmh SW 7.6 mph12.2 kmh 29.97 in1014.9 mb 0.00 in0.0 mm 0.00 in0.0 mm 0.00 in0.0 mm
10:44 AM 54.0°F12.2°C 42.4°F5.8°C 65% 3.1 mph NE5.0 kmh NE 10.7 mph17.2 kmh 29.97 in1014.9 mb 0.00 in0.0 mm 0.00 in0.0 mm 0.00 in0.0 mm
10:43 AM 54.1°F12.3°C 43.0°F6.1°C 66% 6.0 mph WSW9.7 kmh WSW 9.8 mph15.8 kmh 29.97 in1014.9 mb 0.00 in0.0 mm 0.00 in0.0 mm 0.00 in0.0 mm
10:42 AM 53.8°F12.1°C 43.2°F6.2°C 67% 5.4 mph WNW8.7 kmh WNW 9.2 mph14.8 kmh 29.97 in1014.9 mb 0.00 in0.0 mm 0.00 in0.0 mm 0.00 in0.0 mm
10:41 AM 53.6°F12.0°C 43.0°F6.1°C 67% 6.0 mph S9.7 kmh S 8.3 mph13.4 kmh 29.97 in1014.9 mb 0.00 in0.0 mm 0.00 in0.0 mm 0.00 in0.0 mm
10:39 AM 53.4°F11.9°C 43.2°F6.2°C 68% 5.4 mph W8.7 kmh W 7.6 mph12.2 kmh 29.97 in1014.9 mb 0.00 in0.0 mm 0.00 in0.0 mm 0.00 in0.0 mm
10:38 AM 53.4°F11.9°C 43.2°F6.2°C 68% 3.1 mph S5.0 kmh S 9.2 mph14.8 kmh 29.97 in1014.9 mb 0.00 in0.0 mm 0.00 in0.0 mm 0.00 in0.0 mm
10:37 AM 53.2°F11.8°C 43.7°F6.5°C 70% 5.4 mph S8.7 kmh S 9.2 mph14.8 kmh 29.97 in1014.9 mb 0.00 in0.0 mm 0.00 in0.0 mm 0.00 in0.0 mm
10:36 AM 53.2°F11.8°C 44.1°F6.7°C 71% 4.5 mph W7.2 kmh W 10.7 mph17.2 kmh 29.97 in1014.9 mb 0.00 in0.0 mm 0.00 in0.0 mm 0.00 in0.0 mm
10:35 AM 52.9°F11.6°C 44.1°F6.7°C 72% 6.9 mph SW11.1 kmh SW 10.7 mph17.2 kmh 29.97 in1014.9 mb 0.00 in0.0 mm 0.00 in0.0 mm 0.00 in0.0 mm
10:34 AM 52.9°F11.6°C 44.1°F6.7°C 72% 4.5 mph ESE7.2 kmh ESE 9.8 mph15.8 kmh 29.97 in1014.9 mb 0.00 in0.0 mm 0.00 in0.0 mm 0.00 in0.0 mm
10:32 AM 52.7°F11.5°C 43.9°F6.6°C 72% 5.4 mph S8.7 kmh S 9.8 mph15.8 kmh 29.97 in1014.9 mb 0.00 in0.0 mm 0.00 in0.0 mm 0.00 in0.0 mm
10:31 AM 52.5°F11.4°C 44.1°F6.7°C 73% 4.5 mph SW7.2 kmh SW 8.3 mph13.4 kmh 29.97 in1014.9 mb 0.00 in0.0 mm 0.00 in0.0 mm 0.00 in0.0 mm
10:30 AM 52.3°F11.3°C 43.9°F6.6°C 73% 5.4 mph SW8.7 kmh SW 8.3 mph13.4 kmh 29.97 in1014.9 mb 0.00 in0.0 mm 0.00 in0.0 mm 0.00 in0.0 mm
10:29 AM 52.2°F11.2°C 43.7°F6.5°C 73% 3.1 mph S5.0 kmh S 7.6 mph12.2 kmh 29.96 in1014.6 mb 0.00 in0.0 mm 0.00 in0.0 mm 0.00 in0.0 mm
10:28 AM 52.0°F11.1°C 43.9°F6.6°C 74% 4.5 mph S7.2 kmh S 7.6 mph12.2 kmh 29.96 in1014.6 mb 0.00 in0.0 mm 0.00 in0.0 mm 0.00 in0.0 mm
10:26 AM 51.8°F11.0°C 43.3°F6.3°C 73% 3.1 mph S5.0 kmh S 5.4 mph8.7 kmh 29.97 in1014.9 mb 0.00 in0.0 mm 0.00 in0.0 mm 0.00 in0.0 mm
10:25 AM 51.6°F10.9°C 43.5°F6.4°C 74% 3.1 mph SW5.0 kmh SW 6.0 mph9.7 kmh 29.97 in1014.9 mb 0.00 in0.0 mm 0.00 in0.0 mm 0.00 in0.0 mm
10:24 AM 51.4°F10.8°C 43.7°F6.5°C 75% 3.8 mph SW6.1 kmh SW 6.0 mph9.7 kmh 29.96 in1014.6 mb 0.00 in0.0 mm 0.00 in0.0 mm 0.00 in0.0 mm
10:23 AM 51.4°F10.8°C 43.7°F6.5°C 75% 3.1 mph S5.0 kmh S 6.0 mph9.7 kmh 29.96 in1014.6 mb 0.00 in0.0 mm 0.00 in0.0 mm 0.00 in0.0 mm
10:22 AM 51.3°F10.7°C 43.9°F6.6°C 76% 2.2 mph S3.5 kmh S 5.4 mph8.7 kmh 29.96 in1014.6 mb 0.00 in0.0 mm 0.00 in0.0 mm 0.00 in0.0 mm
10:21 AM 51.1°F10.6°C 43.7°F6.5°C 76% 2.2 mph SW3.5 kmh SW 3.8 mph6.1 kmh 29.96 in1014.6 mb 0.00 in0.0 mm 0.00 in0.0 mm 0.00 in0.0 mm
10:19 AM 50.9°F10.5°C 43.5°F6.4°C 76% 2.2 mph S3.5 kmh S 3.8 mph6.1 kmh 29.96 in1014.6 mb 0.00 in0.0 mm 0.00 in0.0 mm 0.00 in0.0 mm
10:18 AM 50.7°F10.4°C 43.5°F6.4°C 76% 2.2 mph SW3.5 kmh SW 4.5 mph7.2 kmh 29.96 in1014.6 mb 0.00 in0.0 mm 0.00 in0.0 mm 0.00 in0.0 mm
10:17 AM 50.5°F10.3°C 43.5°F6.4°C 77% 2.2 mph SE3.5 kmh SE 4.5 mph7.2 kmh 29.96 in1014.6 mb 0.00 in0.0 mm 0.00 in0.0 mm 0.00 in0.0 mm
10:16 AM 50.4°F10.2°C 43.3°F6.3°C 77% 3.1 mph SW5.0 kmh SW 4.5 mph7.2 kmh 29.96 in1014.6 mb 0.00 in0.0 mm 0.00 in0.0 mm 0.00 in0.0 mm
10:15 AM 50.2°F10.1°C 43.3°F6.3°C 77% 2.2 mph S3.5 kmh S 4.5 mph7.2 kmh 29.96 in1014.6 mb 0.00 in0.0 mm 0.00 in0.0 mm 0.00 in0.0 mm
10:14 AM 50.0°F10.0°C 43.3°F6.3°C 78% 3.1 mph SW5.0 kmh SW 4.5 mph7.2 kmh 29.96 in1014.6 mb 0.00 in0.0 mm 0.00 in0.0 mm 0.00 in0.0 mm
10:12 AM 49.8°F9.9°C 43.5°F6.4°C 79% 1.6 mph SW2.6 kmh SW 2.2 mph3.5 kmh 29.96 in1014.6 mb 0.00 in0.0 mm 0.00 in0.0 mm 0.00 in0.0 mm
10:11 AM 49.8°F9.9°C 43.5°F6.4°C 79% 1.6 mph SSE2.6 kmh SSE 3.1 mph5.0 kmh 29.96 in1014.6 mb 0.00 in0.0 mm 0.00 in0.0 mm 0.00 in0.0 mm
10:10 AM 49.5°F9.7°C 43.5°F6.4°C 80% 0.7 mph S1.1 kmh S 3.1 mph5.0 kmh 29.96 in1014.6 mb 0.00 in0.0 mm 0.00 in0.0 mm 0.00 in0.0 mm
10:09 AM 49.5°F9.7°C 43.5°F6.4°C 80% 1.6 mph S2.6 kmh S 4.5 mph7.2 kmh 29.96 in1014.6 mb 0.00 in0.0 mm 0.00 in0.0 mm 0.00 in0.0 mm
10:08 AM 49.3°F9.6°C 43.7°F6.5°C 81% 1.6 mph SE2.6 kmh SE 4.5 mph7.2 kmh 29.96 in1014.6 mb 0.00 in0.0 mm 0.00 in0.0 mm 0.00 in0.0 mm
10:07 AM 49.1°F9.5°C 43.5°F6.4°C 81% 1.6 mph SE2.6 kmh SE 3.1 mph5.0 kmh 29.96 in1014.6 mb 0.00 in0.0 mm 0.00 in0.0 mm 0.00 in0.0 mm
10:05 AM 48.9°F9.4°C 43.7°F6.5°C 82% 0.7 mph SE1.1 kmh SE 2.2 mph3.5 kmh 29.96 in1014.6 mb 0.00 in0.0 mm 0.00 in0.0 mm 0.00 in0.0 mm
10:04 AM 48.7°F9.3°C 43.5°F6.4°C 82% 0.7 mph E1.1 kmh E 2.2 mph3.5 kmh 29.96 in1014.6 mb 0.00 in0.0 mm 0.00 in0.0 mm 0.00 in0.0 mm
10:03 AM 48.6°F9.2°C 43.3°F6.3°C 82% 0.7 mph E1.1 kmh E 2.2 mph3.5 kmh 29.96 in1014.6 mb 0.00 in0.0 mm 0.00 in0.0 mm 0.00 in0.0 mm
10:02 AM 48.4°F9.1°C 43.2°F6.2°C 82% 0.7 mph E1.1 kmh E 2.2 mph3.5 kmh 29.96 in1014.6 mb 0.00 in0.0 mm 0.00 in0.0 mm 0.00 in0.0 mm
10:01 AM 48.4°F9.1°C 43.2°F6.2°C 82% 0.7 mph SE1.1 kmh SE 1.6 mph2.6 kmh 29.96 in1014.6 mb 0.00 in0.0 mm 0.00 in0.0 mm 0.00 in0.0 mm
09:59 AM 48.2°F9.0°C 43.0°F6.1°C 82% 0.7 mph S1.1 kmh S 1.6 mph2.6 kmh 29.96 in1014.6 mb 0.00 in0.0 mm 0.00 in0.0 mm 0.00 in0.0 mm
09:58 AM 48.0°F8.9°C 42.8°F6.0°C 82% 0.7 mph SE1.1 kmh SE 1.6 mph2.6 kmh 29.96 in1014.6 mb 0.00 in0.0 mm 0.00 in0.0 mm 0.00 in0.0 mm
09:57 AM 47.8°F8.8°C 42.6°F5.9°C 82% 0.7 mph S1.1 kmh S 1.6 mph2.6 kmh 29.96 in1014.6 mb 0.00 in0.0 mm 0.00 in0.0 mm 0.00 in0.0 mm
09:56 AM 47.7°F8.7°C 42.8°F6.0°C 83% Calm Calm 1.6 mph2.6 kmh 29.96 in1014.6 mb 0.00 in0.0 mm 0.00 in0.0 mm 0.00 in0.0 mm
09:55 AM 47.7°F8.7°C 42.8°F6.0°C 83% Calm Calm 1.6 mph2.6 kmh 29.96 in1014.6 mb 0.00 in0.0 mm 0.00 in0.0 mm 0.00 in0.0 mm
09:54 AM 47.5°F8.6°C 42.6°F5.9°C 83% 0.7 mph NE1.1 kmh NE 1.6 mph2.6 kmh 29.96 in1014.6 mb 0.00 in0.0 mm 0.00 in0.0 mm 0.00 in0.0 mm
09:52 AM 47.3°F8.5°C 42.4°F5.8°C 83% Calm Calm 0.7 mph1.1 kmh 29.96 in1014.6 mb 0.00 in0.0 mm 0.00 in0.0 mm 0.00 in0.0 mm
09:51 AM 47.3°F8.5°C 42.4°F5.8°C 83% Calm Calm 0.7 mph1.1 kmh 29.96 in1014.6 mb 0.00 in0.0 mm 0.00 in0.0 mm 0.00 in0.0 mm
09:50 AM 46.9°F8.3°C 41.7°F5.4°C 82% Calm Calm 0.7 mph1.1 kmh 29.96 in1014.6 mb 0.00 in0.0 mm 0.00 in0.0 mm 0.00 in0.0 mm
09:49 AM 46.9°F8.3°C 41.7°F5.4°C 82% Calm Calm -- 29.96 in1014.6 mb 0.00 in0.0 mm 0.00 in0.0 mm 0.00 in0.0 mm
09:48 AM 46.8°F8.2°C 41.5°F5.3°C 82% Calm Calm 0.7 mph1.1 kmh 29.96 in1014.6 mb 0.00 in0.0 mm 0.00 in0.0 mm 0.00 in0.0 mm
09:47 AM 46.6°F8.1°C 41.4°F5.2°C 82% Calm Calm 0.7 mph1.1 kmh 29.96 in1014.6 mb 0.00 in0.0 mm 0.00 in0.0 mm 0.00 in0.0 mm
09:45 AM 46.6°F8.1°C 41.4°F5.2°C 82% Calm Calm 1.6 mph2.6 kmh 29.96 in1014.6 mb 0.00 in0.0 mm 0.00 in0.0 mm 0.00 in0.0 mm
09:44 AM 46.2°F7.9°C 40.6°F4.8°C 81% Calm Calm 2.2 mph3.5 kmh 29.96 in1014.6 mb 0.00 in0.0 mm 0.00 in0.0 mm 0.00 in0.0 mm
09:43 AM 46.2°F7.9°C 40.6°F4.8°C 81% 0.7 mph E1.1 kmh E 1.6 mph2.6 kmh 29.96 in1014.6 mb 0.00 in0.0 mm 0.00 in0.0 mm 0.00 in0.0 mm
09:42 AM 46.0°F7.8°C 40.8°F4.9°C 82% 0.7 mph E1.1 kmh E 1.6 mph2.6 kmh 29.96 in1014.6 mb 0.00 in0.0 mm 0.00 in0.0 mm 0.00 in0.0 mm
09:41 AM 45.9°F7.7°C 40.6°F4.8°C 82% Calm Calm 0.7 mph1.1 kmh 29.96 in1014.6 mb 0.00 in0.0 mm 0.00 in0.0 mm 0.00 in0.0 mm
09:39 AM 45.9°F7.7°C 40.6°F4.8°C 82% Calm Calm 0.7 mph1.1 kmh 29.96 in1014.6 mb 0.00 in0.0 mm 0.00 in0.0 mm 0.00 in0.0 mm
09:38 AM 45.7°F7.6°C 40.5°F4.7°C 82% 0.7 mph NE1.1 kmh NE 1.6 mph2.6 kmh 29.96 in1014.6 mb 0.00 in0.0 mm 0.00 in0.0 mm 0.00 in0.0 mm
09:37 AM 45.5°F7.5°C 40.6°F4.8°C 83% 0.7 mph NE1.1 kmh NE 1.6 mph2.6 kmh 29.96 in1014.6 mb 0.00 in0.0 mm 0.00 in0.0 mm 0.00 in0.0 mm
09:36 AM 45.5°F7.5°C 41.0°F5.0°C 84% Calm Calm 0.7 mph1.1 kmh 29.96 in1014.6 mb 0.00 in0.0 mm 0.00 in0.0 mm 0.00 in0.0 mm
09:35 AM 45.3°F7.4°C 40.8°F4.9°C 84% Calm Calm -- 29.96 in1014.6 mb 0.00 in0.0 mm 0.00 in0.0 mm 0.00 in0.0 mm
09:34 AM 45.3°F7.4°C 40.8°F4.9°C 84% Calm Calm -- 29.96 in1014.6 mb 0.00 in0.0 mm 0.00 in0.0 mm 0.00 in0.0 mm
09:32 AM 45.1°F7.3°C 40.6°F4.8°C 84% Calm Calm -- 29.96 in1014.6 mb 0.00 in0.0 mm 0.00 in0.0 mm 0.00 in0.0 mm
09:31 AM 45.0°F7.2°C 40.5°F4.7°C 84% Calm Calm -- 29.96 in1014.6 mb 0.00 in0.0 mm 0.00 in0.0 mm 0.00 in0.0 mm
09:30 AM 45.0°F7.2°C 40.6°F4.8°C 85% Calm Calm 0.7 mph1.1 kmh 29.96 in1014.6 mb 0.00 in0.0 mm 0.00 in0.0 mm 0.00 in0.0 mm
09:29 AM 44.8°F7.1°C 40.5°F4.7°C 85% Calm Calm 1.6 mph2.6 kmh 29.96 in1014.6 mb 0.00 in0.0 mm 0.00 in0.0 mm 0.00 in0.0 mm
09:28 AM 44.8°F7.1°C 40.8°F4.9°C 86% 0.7 mph NW1.1 kmh NW 1.6 mph2.6 kmh 29.97 in1014.9 mb 0.00 in0.0 mm 0.00 in0.0 mm 0.00 in0.0 mm
09:27 AM 44.6°F7.0°C 40.6°F4.8°C 86% 0.7 mph NW1.1 kmh NW 1.6 mph2.6 kmh 29.97 in1014.9 mb 0.00 in0.0 mm 0.00 in0.0 mm 0.00 in0.0 mm
09:25 AM 44.6°F7.0°C 40.6°F4.8°C 86% 1.6 mph NW2.6 kmh NW 2.2 mph3.5 kmh 29.96 in1014.6 mb 0.00 in0.0 mm 0.00 in0.0 mm 0.00 in0.0 mm
09:24 AM 44.4°F6.9°C 40.5°F4.7°C 86% Calm Calm 1.6 mph2.6 kmh 29.96 in1014.6 mb 0.00 in0.0 mm 0.00 in0.0 mm 0.00 in0.0 mm
09:23 AM 44.4°F6.9°C 40.5°F4.7°C 86% Calm Calm 1.6 mph2.6 kmh 29.96 in1014.6 mb 0.00 in0.0 mm 0.00 in0.0 mm 0.00 in0.0 mm
09:22 AM 44.2°F6.8°C 40.1°F4.5°C 85% Calm Calm 0.7 mph1.1 kmh 29.96 in1014.6 mb 0.00 in0.0 mm 0.00 in0.0 mm 0.00 in0.0 mm
09:21 AM 44.2°F6.8°C 40.1°F4.5°C 85% Calm Calm 1.6 mph2.6 kmh 29.96 in1014.6 mb 0.00 in0.0 mm 0.00 in0.0 mm 0.00 in0.0 mm
09:20 AM 44.1°F6.7°C 40.1°F4.5°C 86% Calm Calm 1.6 mph2.6 kmh 29.97 in1014.9 mb 0.00 in0.0 mm 0.00 in0.0 mm 0.00 in0.0 mm
09:18 AM 44.1°F6.7°C 40.1°F4.5°C 86% 0.7 mph W1.1 kmh W 1.6 mph2.6 kmh 29.97 in1014.9 mb 0.00 in0.0 mm 0.00 in0.0 mm 0.00 in0.0 mm
09:17 AM 43.9°F6.6°C 39.9°F4.4°C 86% 0.7 mph W1.1 kmh W 1.6 mph2.6 kmh 29.97 in1014.9 mb 0.00 in0.0 mm 0.00 in0.0 mm 0.00 in0.0 mm
09:16 AM 43.9°F6.6°C 39.9°F4.4°C 86% 0.7 mph NW1.1 kmh NW 2.2 mph3.5 kmh 29.97 in1014.9 mb 0.00 in0.0 mm 0.00 in0.0 mm 0.00 in0.0 mm
09:15 AM 43.7°F6.5°C 39.6°F4.2°C 85% 0.7 mph NW1.1 kmh NW 1.6 mph2.6 kmh 29.97 in1014.9 mb 0.00 in0.0 mm 0.00 in0.0 mm 0.00 in0.0 mm
09:14 AM 43.7°F6.5°C 39.6°F4.2°C 85% Calm Calm 2.2 mph3.5 kmh 29.96 in1014.6 mb 0.00 in0.0 mm 0.00 in0.0 mm 0.00 in0.0 mm
09:12 AM 43.5°F6.4°C 39.4°F4.1°C 85% 0.7 mph W1.1 kmh W 2.2 mph3.5 kmh 29.97 in1014.9 mb 0.00 in0.0 mm 0.00 in0.0 mm 0.00 in0.0 mm
09:11 AM 43.5°F6.4°C 39.4°F4.1°C 85% 0.7 mph NW1.1 kmh NW 1.6 mph2.6 kmh 29.97 in1014.9 mb 0.00 in0.0 mm 0.00 in0.0 mm 0.00 in0.0 mm
09:10 AM 43.3°F6.3°C 39.2°F4.0°C 85% Calm Calm 1.6 mph2.6 kmh 29.96 in1014.6 mb 0.00 in0.0 mm 0.00 in0.0 mm 0.00 in0.0 mm
09:09 AM 43.3°F6.3°C 39.2°F4.0°C 85% Calm Calm 1.6 mph2.6 kmh 29.96 in1014.6 mb 0.00 in0.0 mm 0.00 in0.0 mm 0.00 in0.0 mm
09:08 AM 43.3°F6.3°C 39.2°F4.0°C 85% Calm Calm 2.2 mph3.5 kmh 29.97 in1014.9 mb 0.00 in0.0 mm 0.00 in0.0 mm 0.00 in0.0 mm
09:07 AM 43.3°F6.3°C 38.8°F3.8°C 84% 0.7 mph NE1.1 kmh NE 2.2 mph3.5 kmh 29.97 in1014.9 mb 0.00 in0.0 mm 0.00 in0.0 mm 0.00 in0.0 mm
09:05 AM 43.2°F6.2°C 38.7°F3.7°C 84% Calm Calm 0.7 mph1.1 kmh 29.97 in1014.9 mb 0.00 in0.0 mm 0.00 in0.0 mm 0.00 in0.0 mm
09:04 AM 43.2°F6.2°C 38.7°F3.7°C 84% Calm Calm -- 29.97 in1014.9 mb 0.00 in0.0 mm 0.00 in0.0 mm 0.00 in0.0 mm
09:03 AM 43.2°F6.2°C 38.7°F3.7°C 84% Calm Calm -- 29.97 in1014.9 mb 0.00 in0.0 mm 0.00 in0.0 mm 0.00 in0.0 mm
09:02 AM 43.2°F6.2°C 38.7°F3.7°C 84% Calm Calm -- 29.97 in1014.9 mb 0.00 in0.0 mm 0.00 in0.0 mm 0.00 in0.0 mm
09:01 AM 43.0°F6.1°C 38.5°F3.6°C 84% Calm Calm -- 29.97 in1014.9 mb 0.00 in0.0 mm 0.00 in0.0 mm 0.00 in0.0 mm
09:00 AM 43.0°F6.1°C 38.5°F3.6°C 84% Calm Calm -- 29.97 in1014.9 mb 0.00 in0.0 mm 0.00 in0.0 mm 0.00 in0.0 mm
08:58 AM 43.0°F6.1°C 38.5°F3.6°C 84% Calm Calm 0.7 mph1.1 kmh 29.96 in1014.6 mb 0.00 in0.0 mm 0.00 in0.0 mm 0.00 in0.0 mm
08:57 AM 43.0°F6.1°C 38.1°F3.4°C 83% Calm Calm 0.7 mph1.1 kmh 29.96 in1014.6 mb 0.00 in0.0 mm 0.00 in0.0 mm 0.00 in0.0 mm
08:56 AM 43.0°F6.1°C 38.1°F3.4°C 83% Calm Calm 1.6 mph2.6 kmh 29.97 in1014.9 mb 0.00 in0.0 mm 0.00 in0.0 mm 0.00 in0.0 mm
08:55 AM 42.8°F6.0°C 37.9°F3.3°C 83% Calm Calm 1.6 mph2.6 kmh 29.97 in1014.9 mb 0.00 in0.0 mm 0.00 in0.0 mm 0.00 in0.0 mm
08:54 AM 42.8°F6.0°C 37.9°F3.3°C 83% Calm Calm 0.7 mph1.1 kmh 29.97 in1014.9 mb 0.00 in0.0 mm 0.00 in0.0 mm 0.00 in0.0 mm
08:53 AM 42.8°F6.0°C 37.9°F3.3°C 83% Calm Calm 0.7 mph1.1 kmh 29.97 in1014.9 mb 0.00 in0.0 mm 0.00 in0.0 mm 0.00 in0.0 mm
08:51 AM 42.8°F6.0°C 37.9°F3.3°C 83% Calm Calm 0.7 mph1.1 kmh 29.97 in1014.9 mb 0.00 in0.0 mm 0.00 in0.0 mm 0.00 in0.0 mm
08:50 AM 42.8°F6.0°C 37.8°F3.2°C 82% Calm Calm -- 29.97 in1014.9 mb 0.00 in0.0 mm 0.00 in0.0 mm 0.00 in0.0 mm
08:49 AM 42.6°F5.9°C 37.6°F3.1°C 82% Calm Calm -- 29.97 in1014.9 mb 0.00 in0.0 mm 0.00 in0.0 mm 0.00 in0.0 mm
08:48 AM 42.6°F5.9°C 37.6°F3.1°C 82% Calm Calm 0.7 mph1.1 kmh 29.97 in1014.9 mb 0.00 in0.0 mm 0.00 in0.0 mm 0.00 in0.0 mm
08:47 AM 42.6°F5.9°C 37.6°F3.1°C 82% Calm Calm 0.7 mph1.1 kmh 29.97 in1014.9 mb 0.00 in0.0 mm 0.00 in0.0 mm 0.00 in0.0 mm
08:45 AM 42.4°F5.8°C 37.4°F3.0°C 82% Calm Calm 1.6 mph2.6 kmh 29.97 in1014.9 mb 0.00 in0.0 mm 0.00 in0.0 mm 0.00 in0.0 mm
08:44 AM 42.4°F5.8°C 37.0°F2.8°C 81% 0.7 mph W1.1 kmh W 1.6 mph2.6 kmh 29.97 in1014.9 mb 0.00 in0.0 mm 0.00 in0.0 mm 0.00 in0.0 mm
08:43 AM 42.4°F5.8°C 37.0°F2.8°C 81% 0.7 mph W1.1 kmh W 2.2 mph3.5 kmh 29.97 in1014.9 mb 0.00 in0.0 mm 0.00 in0.0 mm 0.00 in0.0 mm
08:42 AM 42.3°F5.7°C 37.2°F2.9°C 82% 0.7 mph W1.1 kmh W 1.6 mph2.6 kmh 29.97 in1014.9 mb 0.00 in0.0 mm 0.00 in0.0 mm 0.00 in0.0 mm
08:41 AM 42.3°F5.7°C 37.2°F2.9°C 82% 0.7 mph W1.1 kmh W 1.6 mph2.6 kmh 29.97 in1014.9 mb 0.00 in0.0 mm 0.00 in0.0 mm 0.00 in0.0 mm
08:40 AM 42.1°F5.6°C 37.0°F2.8°C 82% 0.7 mph W1.1 kmh W 2.2 mph3.5 kmh 29.97 in1014.9 mb 0.00 in0.0 mm 0.00 in0.0 mm 0.00 in0.0 mm
08:38 AM 42.1°F5.6°C 37.0°F2.8°C 82% 0.7 mph W1.1 kmh W 2.2 mph3.5 kmh 29.97 in1014.9 mb 0.00 in0.0 mm 0.00 in0.0 mm 0.00 in0.0 mm
08:37 AM 42.1°F5.6°C 37.0°F2.8°C 82% 0.7 mph W1.1 kmh W 1.6 mph2.6 kmh 29.97 in1014.9 mb 0.00 in0.0 mm 0.00 in0.0 mm 0.00 in0.0 mm
08:36 AM 42.1°F5.6°C 37.0°F2.8°C 82% 0.7 mph W1.1 kmh W 1.6 mph2.6 kmh 29.97 in1014.9 mb 0.00 in0.0 mm 0.00 in0.0 mm 0.00 in0.0 mm
08:35 AM 41.9°F5.5°C 36.9°F2.7°C 82% 0.7 mph W1.1 kmh W 1.6 mph2.6 kmh 29.97 in1014.9 mb 0.00 in0.0 mm 0.00 in0.0 mm 0.00 in0.0 mm
08:34 AM 41.9°F5.5°C 36.9°F2.7°C 82% 0.7 mph W1.1 kmh W 1.6 mph2.6 kmh 29.97 in1014.9 mb 0.00 in0.0 mm 0.00 in0.0 mm 0.00 in0.0 mm
08:33 AM 41.9°F5.5°C 36.9°F2.7°C 82% 0.7 mph W1.1 kmh W 2.2 mph3.5 kmh 29.97 in1014.9 mb 0.00 in0.0 mm 0.00 in0.0 mm 0.00 in0.0 mm
08:31 AM 41.9°F5.5°C 36.9°F2.7°C 82% 0.7 mph W1.1 kmh W 2.2 mph3.5 kmh 29.97 in1014.9 mb 0.00 in0.0 mm 0.00 in0.0 mm 0.00 in0.0 mm
08:30 AM 41.9°F5.5°C 36.9°F2.7°C 82% 0.7 mph W1.1 kmh W 2.2 mph3.5 kmh 29.97 in1014.9 mb 0.00 in0.0 mm 0.00 in0.0 mm 0.00 in0.0 mm
08:29 AM 41.7°F5.4°C 36.7°F2.6°C 82% 0.7 mph W1.1 kmh W 1.6 mph2.6 kmh 29.97 in1014.9 mb 0.00 in0.0 mm 0.00 in0.0 mm 0.00 in0.0 mm
08:28 AM 41.7°F5.4°C 36.9°F2.7°C 83% 0.7 mph W1.1 kmh W 1.6 mph2.6 kmh 29.97 in1014.9 mb 0.00 in0.0 mm 0.00 in0.0 mm 0.00 in0.0 mm
08:27 AM 41.7°F5.4°C 36.9°F2.7°C 83% 0.7 mph W1.1 kmh W 2.2 mph3.5 kmh 29.97 in1014.9 mb 0.00 in0.0 mm 0.00 in0.0 mm 0.00 in0.0 mm
08:25 AM 41.7°F5.4°C 36.9°F2.7°C 83% 1.6 mph NW2.6 kmh NW 2.2 mph3.5 kmh 29.97 in1014.9 mb 0.00 in0.0 mm 0.00 in0.0 mm 0.00 in0.0 mm
08:24 AM 41.7°F5.4°C 36.9°F2.7°C 83% 0.7 mph NW1.1 kmh NW 2.2 mph3.5 kmh 29.97 in1014.9 mb 0.00 in0.0 mm 0.00 in0.0 mm 0.00 in0.0 mm
08:23 AM 41.7°F5.4°C 36.9°F2.7°C 83% 0.7 mph NW1.1 kmh NW 2.2 mph3.5 kmh 29.97 in1014.9 mb 0.00 in0.0 mm 0.00 in0.0 mm 0.00 in0.0 mm
08:22 AM 41.7°F5.4°C 36.9°F2.7°C 83% 0.7 mph W1.1 kmh W 2.2 mph3.5 kmh 29.97 in1014.9 mb 0.00 in0.0 mm 0.00 in0.0 mm 0.00 in0.0 mm
08:21 AM 41.5°F5.3°C 36.7°F2.6°C 83% 0.7 mph W1.1 kmh W 2.2 mph3.5 kmh 29.97 in1014.9 mb 0.00 in0.0 mm 0.00 in0.0 mm 0.00 in0.0 mm
08:20 AM 41.5°F5.3°C 36.7°F2.6°C 83% 0.7 mph W1.1 kmh W 1.6 mph2.6 kmh 29.97 in1014.9 mb 0.00 in0.0 mm 0.00 in0.0 mm 0.00 in0.0 mm
08:18 AM 41.7°F5.4°C 36.9°F2.7°C 83% 0.7 mph W1.1 kmh W 1.6 mph2.6 kmh 29.97 in1014.9 mb 0.00 in0.0 mm 0.00 in0.0 mm 0.00 in0.0 mm
08:17 AM 41.5°F5.3°C 37.0°F2.8°C 84% 0.7 mph W1.1 kmh W 1.6 mph2.6 kmh 29.97 in1014.9 mb 0.00 in0.0 mm 0.00 in0.0 mm 0.00 in0.0 mm
08:16 AM 41.5°F5.3°C 37.0°F2.8°C 84% 0.7 mph WNW1.1 kmh WNW 3.1 mph5.0 kmh 29.97 in1014.9 mb 0.00 in0.0 mm 0.00 in0.0 mm 0.00 in0.0 mm
08:15 AM 41.5°F5.3°C 37.0°F2.8°C 84% 0.7 mph W1.1 kmh W 2.2 mph3.5 kmh 29.97 in1014.9 mb 0.00 in0.0 mm 0.00 in0.0 mm 0.00 in0.0 mm
08:14 AM 41.5°F5.3°C 37.0°F2.8°C 84% 0.7 mph W1.1 kmh W 1.6 mph2.6 kmh 29.97 in1014.9 mb 0.00 in0.0 mm 0.00 in0.0 mm 0.00 in0.0 mm
08:13 AM 41.5°F5.3°C 37.0°F2.8°C 84% 0.7 mph W1.1 kmh W 1.6 mph2.6 kmh 29.97 in1014.9 mb 0.00 in0.0 mm 0.00 in0.0 mm 0.00 in0.0 mm
08:11 AM 41.5°F5.3°C 37.0°F2.8°C 84% 0.7 mph W1.1 kmh W 1.6 mph2.6 kmh 29.97 in1014.9 mb 0.00 in0.0 mm 0.00 in0.0 mm 0.00 in0.0 mm
08:10 AM 41.5°F5.3°C 37.0°F2.8°C 84% 0.7 mph W1.1 kmh W 1.6 mph2.6 kmh 29.97 in1014.9 mb 0.00 in0.0 mm 0.00 in0.0 mm 0.00 in0.0 mm
08:09 AM 41.5°F5.3°C 37.0°F2.8°C 84% Calm Calm 0.7 mph1.1 kmh 29.97 in1014.9 mb 0.00 in0.0 mm 0.00 in0.0 mm 0.00 in0.0 mm
08:08 AM 41.5°F5.3°C 37.0°F2.8°C 84% Calm Calm 1.6 mph2.6 kmh 29.97 in1014.9 mb 0.00 in0.0 mm 0.00 in0.0 mm 0.00 in0.0 mm
08:07 AM 41.5°F5.3°C 36.7°F2.6°C 83% Calm Calm 1.6 mph2.6 kmh 29.97 in1014.9 mb 0.00 in0.0 mm 0.00 in0.0 mm 0.00 in0.0 mm
08:06 AM 41.7°F5.4°C 36.9°F2.7°C 83% Calm Calm 1.6 mph2.6 kmh 29.97 in1014.9 mb 0.00 in0.0 mm 0.00 in0.0 mm 0.00 in0.0 mm
08:04 AM 41.5°F5.3°C 36.7°F2.6°C 83% Calm Calm 2.2 mph3.5 kmh 29.97 in1014.9 mb 0.00 in0.0 mm 0.00 in0.0 mm 0.00 in0.0 mm
08:03 AM 41.5°F5.3°C 36.7°F2.6°C 83% Calm Calm 2.2 mph3.5 kmh 29.97 in1014.9 mb 0.00 in0.0 mm 0.00 in0.0 mm 0.00 in0.0 mm
08:02 AM 41.5°F5.3°C 36.7°F2.6°C 83% 0.7 mph E1.1 kmh E 2.2 mph3.5 kmh 29.97 in1014.9 mb 0.00 in0.0 mm 0.00 in0.0 mm 0.00 in0.0 mm
08:01 AM 41.5°F5.3°C 36.7°F2.6°C 83% Calm Calm 1.6 mph2.6 kmh 29.97 in1014.9 mb 0.00 in0.0 mm 0.00 in0.0 mm 0.00 in0.0 mm
08:00 AM 41.5°F5.3°C 36.7°F2.6°C 83% Calm Calm 0.7 mph1.1 kmh 29.97 in1014.9 mb 0.00 in0.0 mm 0.00 in0.0 mm 0.00 in0.0 mm
07:58 AM 41.5°F5.3°C 36.7°F2.6°C 83% Calm Calm 1.6 mph2.6 kmh 29.97 in1014.9 mb 0.00 in0.0 mm 0.00 in0.0 mm 0.00 in0.0 mm
07:57 AM 41.5°F5.3°C 36.7°F2.6°C 83% 0.7 mph W1.1 kmh W 1.6 mph2.6 kmh 29.96 in1014.6 mb 0.00 in0.0 mm 0.00 in0.0 mm 0.00 in0.0 mm
07:56 AM 41.5°F5.3°C 36.7°F2.6°C 83% 0.7 mph W1.1 kmh W 1.6 mph2.6 kmh 29.96 in1014.6 mb 0.00 in0.0 mm 0.00 in0.0 mm 0.00 in0.0 mm
07:55 AM 41.5°F5.3°C 36.7°F2.6°C 83% 0.7 mph W1.1 kmh W 1.6 mph2.6 kmh 29.96 in1014.6 mb 0.00 in0.0 mm 0.00 in0.0 mm 0.00 in0.0 mm
07:54 AM 41.5°F5.3°C 37.0°F2.8°C 84% 0.7 mph W1.1 kmh W 1.6 mph2.6 kmh 29.96 in1014.6 mb 0.00 in0.0 mm 0.00 in0.0 mm 0.00 in0.0 mm
07:53 AM 41.5°F5.3°C 37.0°F2.8°C 84% 0.7 mph W1.1 kmh W 2.2 mph3.5 kmh 29.97 in1014.9 mb 0.00 in0.0 mm 0.00 in0.0 mm 0.00 in0.0 mm
07:51 AM 41.5°F5.3°C 36.7°F2.6°C 83% 0.7 mph SW1.1 kmh SW 2.2 mph3.5 kmh 29.97 in1014.9 mb 0.00 in0.0 mm 0.00 in0.0 mm 0.00 in0.0 mm
07:50 AM 41.5°F5.3°C 36.7°F2.6°C 83% 0.7 mph W1.1 kmh W 2.2 mph3.5 kmh 29.97 in1014.9 mb 0.00 in0.0 mm 0.00 in0.0 mm 0.00 in0.0 mm
07:49 AM 41.5°F5.3°C 36.7°F2.6°C 83% 0.7 mph W1.1 kmh W 2.2 mph3.5 kmh 29.96 in1014.6 mb 0.00 in0.0 mm 0.00 in0.0 mm 0.00 in0.0 mm
07:48 AM 41.5°F5.3°C 36.7°F2.6°C 83% 0.7 mph W1.1 kmh W 2.2 mph3.5 kmh 29.96 in1014.6 mb 0.00 in0.0 mm 0.00 in0.0 mm 0.00 in0.0 mm
07:47 AM 41.5°F5.3°C 37.0°F2.8°C 84% 0.7 mph SW1.1 kmh SW 1.6 mph2.6 kmh 29.96 in1014.6 mb 0.00 in0.0 mm 0.00 in0.0 mm 0.00 in0.0 mm
07:46 AM 41.5°F5.3°C 36.7°F2.6°C 83% Calm Calm 1.6 mph2.6 kmh 29.96 in1014.6 mb 0.00 in0.0 mm 0.00 in0.0 mm 0.00 in0.0 mm
07:44 AM 41.5°F5.3°C 37.0°F2.8°C 84% Calm Calm 1.6 mph2.6 kmh 29.96 in1014.6 mb 0.00 in0.0 mm 0.00 in0.0 mm 0.00 in0.0 mm
07:43 AM 41.5°F5.3°C 37.0°F2.8°C 84% Calm Calm 1.6 mph2.6 kmh 29.96 in1014.6 mb 0.00 in0.0 mm 0.00 in0.0 mm 0.00 in0.0 mm
07:42 AM 41.4°F5.2°C 36.9°F2.7°C 84% 0.7 mph W1.1 kmh W 1.6 mph2.6 kmh 29.96 in1014.6 mb 0.00 in0.0 mm 0.00 in0.0 mm 0.00 in0.0 mm
07:41 AM 41.4°F5.2°C 36.9°F2.7°C 84% 0.7 mph W1.1 kmh W 2.2 mph3.5 kmh 29.96 in1014.6 mb 0.00 in0.0 mm 0.00 in0.0 mm 0.00 in0.0 mm
07:40 AM 41.4°F5.2°C 36.9°F2.7°C 84% 0.7 mph W1.1 kmh W 2.2 mph3.5 kmh 29.96 in1014.6 mb 0.00 in0.0 mm 0.00 in0.0 mm 0.00 in0.0 mm
07:38 AM 41.4°F5.2°C 36.9°F2.7°C 84% 0.7 mph NW1.1 kmh NW 1.6 mph2.6 kmh 29.96 in1014.6 mb 0.00 in0.0 mm 0.00 in0.0 mm 0.00 in0.0 mm
07:37 AM 41.4°F5.2°C 36.9°F2.7°C 84% 0.7 mph W1.1 kmh W 2.2 mph3.5 kmh 29.96 in1014.6 mb 0.00 in0.0 mm 0.00 in0.0 mm 0.00 in0.0 mm
07:36 AM 41.4°F5.2°C 36.9°F2.7°C 84% 1.6 mph W2.6 kmh W 2.2 mph3.5 kmh 29.97 in1014.9 mb 0.00 in0.0 mm 0.00 in0.0 mm 0.00 in0.0 mm
07:35 AM 41.4°F5.2°C 36.9°F2.7°C 84% Calm Calm 1.6 mph2.6 kmh 29.96 in1014.6 mb 0.00 in0.0 mm 0.00 in0.0 mm 0.00 in0.0 mm
07:34 AM 41.4°F5.2°C 36.9°F2.7°C 84% Calm Calm 1.6 mph2.6 kmh 29.96 in1014.6 mb 0.00 in0.0 mm 0.00 in0.0 mm 0.00 in0.0 mm
07:33 AM 41.4°F5.2°C 36.9°F2.7°C 84% 0.7 mph NW1.1 kmh NW 1.6 mph2.6 kmh 29.96 in1014.6 mb 0.00 in0.0 mm 0.00 in0.0 mm 0.00 in0.0 mm
07:31 AM 41.4°F5.2°C 36.9°F2.7°C 84% Calm Calm 1.6 mph2.6 kmh 29.96 in1014.6 mb 0.00 in0.0 mm 0.00 in0.0 mm 0.00 in0.0 mm
07:30 AM 41.4°F5.2°C 36.9°F2.7°C 84% Calm Calm 1.6 mph2.6 kmh 29.96 in1014.6 mb 0.00 in0.0 mm 0.00 in0.0 mm 0.00 in0.0 mm
07:29 AM 41.4°F5.2°C 36.9°F2.7°C 84% 0.7 mph W1.1 kmh W 1.6 mph2.6 kmh 29.96 in1014.6 mb 0.00 in0.0 mm 0.00 in0.0 mm 0.00 in0.0 mm
07:28 AM 41.4°F5.2°C 36.9°F2.7°C 84% Calm Calm 1.6 mph2.6 kmh 29.96 in1014.6 mb 0.00 in0.0 mm 0.00 in0.0 mm 0.00 in0.0 mm
07:27 AM 41.4°F5.2°C 36.9°F2.7°C 84% Calm Calm 1.6 mph2.6 kmh 29.96 in1014.6 mb 0.00 in0.0 mm 0.00 in0.0 mm 0.00 in0.0 mm
07:26 AM 41.4°F5.2°C 36.9°F2.7°C 84% 0.7 mph NW1.1 kmh NW 1.6 mph2.6 kmh 29.96 in1014.6 mb 0.00 in0.0 mm 0.00 in0.0 mm 0.00 in0.0 mm
07:24 AM 41.4°F5.2°C 36.9°F2.7°C 84% 0.7 mph NW1.1 kmh NW 1.6 mph2.6 kmh 29.96 in1014.6 mb 0.00 in0.0 mm 0.00 in0.0 mm 0.00 in0.0 mm
07:23 AM 41.4°F5.2°C 36.9°F2.7°C 84% Calm Calm 1.6 mph2.6 kmh 29.96 in1014.6 mb 0.00 in0.0 mm 0.00 in0.0 mm 0.00 in0.0 mm
07:22 AM 41.5°F5.3°C 37.0°F2.8°C 84% 0.7 mph W1.1 kmh W 1.6 mph2.6 kmh 29.96 in1014.6 mb 0.00 in0.0 mm 0.00 in0.0 mm 0.00 in0.0 mm
07:21 AM 41.5°F5.3°C 37.0°F2.8°C 84% 0.7 mph W1.1 kmh W 1.6 mph2.6 kmh 29.96 in1014.6 mb 0.00 in0.0 mm 0.00 in0.0 mm 0.00 in0.0 mm
07:20 AM 41.5°F5.3°C 37.0°F2.8°C 84% 0.7 mph W1.1 kmh W 1.6 mph2.6 kmh 29.96 in1014.6 mb 0.00 in0.0 mm 0.00 in0.0 mm 0.00 in0.0 mm
07:19 AM 41.5°F5.3°C 37.0°F2.8°C 84% Calm Calm 1.6 mph2.6 kmh 29.96 in1014.6 mb 0.00 in0.0 mm 0.00 in0.0 mm 0.00 in0.0 mm
07:17 AM 41.5°F5.3°C 37.0°F2.8°C 84% 0.7 mph W1.1 kmh W 1.6 mph2.6 kmh 29.96 in1014.6 mb 0.00 in0.0 mm 0.00 in0.0 mm 0.00 in0.0 mm
07:16 AM 41.5°F5.3°C 37.0°F2.8°C 84% 0.7 mph W1.1 kmh W 1.6 mph2.6 kmh 29.96 in1014.6 mb 0.00 in0.0 mm 0.00 in0.0 mm 0.00 in0.0 mm
07:15 AM 41.5°F5.3°C 37.0°F2.8°C 84% Calm Calm 0.7 mph1.1 kmh 29.96 in1014.6 mb 0.00 in0.0 mm 0.00 in0.0 mm 0.00 in0.0 mm
07:14 AM 41.5°F5.3°C 37.0°F2.8°C 84% Calm Calm -- 29.96 in1014.6 mb 0.00 in0.0 mm 0.00 in0.0 mm 0.00 in0.0 mm
07:13 AM 41.5°F5.3°C 36.7°F2.6°C 83% Calm Calm 0.7 mph1.1 kmh 29.97 in1014.9 mb 0.00 in0.0 mm 0.00 in0.0 mm 0.00 in0.0 mm
07:11 AM 41.7°F5.4°C 36.9°F2.7°C 83% Calm Calm 0.7 mph1.1 kmh 29.96 in1014.6 mb 0.00 in0.0 mm 0.00 in0.0 mm 0.00 in0.0 mm
07:10 AM 41.7°F5.4°C 36.9°F2.7°C 83% Calm Calm 1.6 mph2.6 kmh 29.96 in1014.6 mb 0.00 in0.0 mm 0.00 in0.0 mm 0.00 in0.0 mm
07:09 AM 41.7°F5.4°C 36.9°F2.7°C 83% 0.7 mph 1.1 kmh 1.6 mph2.6 kmh 29.96 in1014.6 mb 0.00 in0.0 mm 0.00 in0.0 mm 0.00 in0.0 mm
07:08 AM 41.7°F5.4°C 36.9°F2.7°C 83% 0.7 mph NW1.1 kmh NW 1.6 mph2.6 kmh 29.96 in1014.6 mb 0.00 in0.0 mm 0.00 in0.0 mm 0.00 in0.0 mm
07:07 AM 41.7°F5.4°C 36.9°F2.7°C 83% 0.7 mph W1.1 kmh W 1.6 mph2.6 kmh 29.96 in1014.6 mb 0.00 in0.0 mm 0.00 in0.0 mm 0.00 in0.0 mm
07:06 AM 41.7°F5.4°C 36.9°F2.7°C 83% Calm Calm 1.6 mph2.6 kmh 29.96 in1014.6 mb 0.00 in0.0 mm 0.00 in0.0 mm 0.00 in0.0 mm
07:04 AM 41.7°F5.4°C 36.9°F2.7°C 83% Calm Calm 0.7 mph1.1 kmh 29.96 in1014.6 mb 0.00 in0.0 mm 0.00 in0.0 mm 0.00 in0.0 mm
07:03 AM 41.7°F5.4°C 36.9°F2.7°C 83% Calm Calm 1.6 mph2.6 kmh 29.96 in1014.6 mb 0.00 in0.0 mm 0.00 in0.0 mm 0.00 in0.0 mm
07:02 AM 41.7°F5.4°C 36.7°F2.6°C 82% Calm Calm 1.6 mph2.6 kmh 29.96 in1014.6 mb 0.00 in0.0 mm 0.00 in0.0 mm 0.00 in0.0 mm
07:01 AM 41.7°F5.4°C 36.9°F2.7°C 83% Calm Calm 0.7 mph1.1 kmh 29.96 in1014.6 mb 0.00 in0.0 mm 0.00 in0.0 mm 0.00 in0.0 mm
07:00 AM 41.9°F5.5°C 37.0°F2.8°C 83% Calm Calm 0.7 mph1.1 kmh 29.96 in1014.6 mb 0.00 in0.0 mm 0.00 in0.0 mm 0.00 in0.0 mm
06:59 AM 41.7°F5.4°C 36.9°F2.7°C 83% Calm Calm 1.6 mph2.6 kmh 29.96 in1014.6 mb 0.00 in0.0 mm 0.00 in0.0 mm 0.00 in0.0 mm
06:57 AM 41.7°F5.4°C 36.7°F2.6°C 82% Calm Calm 0.7 mph1.1 kmh 29.96 in1014.6 mb 0.00 in0.0 mm 0.00 in0.0 mm 0.00 in0.0 mm
06:56 AM 41.7°F5.4°C 36.7°F2.6°C 82% Calm Calm 0.7 mph1.1 kmh 29.96 in1014.6 mb 0.00 in0.0 mm 0.00 in0.0 mm 0.00 in0.0 mm
06:55 AM 41.9°F5.5°C 36.9°F2.7°C 82% Calm Calm 0.7 mph1.1 kmh 29.96 in1014.6 mb 0.00 in0.0 mm 0.00 in0.0 mm 0.00 in0.0 mm
06:54 AM 41.9°F5.5°C 36.9°F2.7°C 82% Calm Calm 0.7 mph1.1 kmh 29.96 in1014.6 mb 0.00 in0.0 mm 0.00 in0.0 mm 0.00 in0.0 mm
06:53 AM 41.9°F5.5°C 36.9°F2.7°C 82% Calm Calm 1.6 mph2.6 kmh 29.96 in1014.6 mb 0.00 in0.0 mm 0.00 in0.0 mm 0.00 in0.0 mm
06:51 AM 41.9°F5.5°C 36.9°F2.7°C 82% 0.7 mph W1.1 kmh W 2.2 mph3.5 kmh 29.96 in1014.6 mb 0.00 in0.0 mm 0.00 in0.0 mm 0.00 in0.0 mm
06:50 AM 41.9°F5.5°C 36.9°F2.7°C 82% Calm Calm 1.6 mph2.6 kmh 29.96 in1014.6 mb 0.00 in0.0 mm 0.00 in0.0 mm 0.00 in0.0 mm
06:49 AM 41.9°F5.5°C 36.9°F2.7°C 82% 0.7 mph W1.1 kmh W 1.6 mph2.6 kmh 29.96 in1014.6 mb 0.00 in0.0 mm 0.00 in0.0 mm 0.00 in0.0 mm
06:48 AM 41.9°F5.5°C 36.9°F2.7°C 82% Calm Calm 1.6 mph2.6 kmh 29.96 in1014.6 mb 0.00 in0.0 mm 0.00 in0.0 mm 0.00 in0.0 mm
06:47 AM 41.9°F5.5°C 36.9°F2.7°C 82% Calm Calm 1.6 mph2.6 kmh 29.96 in1014.6 mb 0.00 in0.0 mm 0.00 in0.0 mm 0.00 in0.0 mm
06:46 AM 41.9°F5.5°C 36.9°F2.7°C 82% Calm Calm 1.6 mph2.6 kmh 29.96 in1014.6 mb 0.00 in0.0 mm 0.00 in0.0 mm 0.00 in0.0 mm
06:44 AM 41.9°F5.5°C 36.9°F2.7°C 82% Calm Calm 1.6 mph2.6 kmh 29.96 in1014.6 mb 0.00 in0.0 mm 0.00 in0.0 mm 0.00 in0.0 mm
06:43 AM 41.9°F5.5°C 36.9°F2.7°C 82% Calm Calm 1.6 mph2.6 kmh 29.96 in1014.6 mb 0.00 in0.0 mm 0.00 in0.0 mm 0.00 in0.0 mm
06:42 AM 41.9°F5.5°C 36.9°F2.7°C 82% Calm Calm 1.6 mph2.6 kmh 29.96 in1014.6 mb 0.00 in0.0 mm 0.00 in0.0 mm 0.00 in0.0 mm
06:41 AM 41.9°F5.5°C 36.9°F2.7°C 82% Calm Calm 0.7 mph1.1 kmh 29.96 in1014.6 mb 0.00 in0.0 mm 0.00 in0.0 mm 0.00 in0.0 mm
06:40 AM 42.1°F5.6°C 37.0°F2.8°C 82% 0.7 mph W1.1 kmh W 2.2 mph3.5 kmh 29.96 in1014.6 mb 0.00 in0.0 mm 0.00 in0.0 mm 0.00 in0.0 mm
06:39 AM 41.9°F5.5°C 36.9°F2.7°C 82% 0.7 mph NW1.1 kmh NW 2.2 mph3.5 kmh 29.96 in1014.6 mb 0.00 in0.0 mm 0.00 in0.0 mm 0.00 in0.0 mm
06:37 AM 42.1°F5.6°C 37.0°F2.8°C 82% 0.7 mph W1.1 kmh W 1.6 mph2.6 kmh 29.96 in1014.6 mb 0.00 in0.0 mm 0.00 in0.0 mm 0.00 in0.0 mm
06:36 AM 42.1°F5.6°C 37.0°F2.8°C 82% 0.7 mph W1.1 kmh W 1.6 mph2.6 kmh 29.96 in1014.6 mb 0.00 in0.0 mm 0.00 in0.0 mm 0.00 in0.0 mm
06:35 AM 42.1°F5.6°C 37.0°F2.8°C 82% 0.7 mph W1.1 kmh W 2.2 mph3.5 kmh 29.96 in1014.6 mb 0.00 in0.0 mm 0.00 in0.0 mm 0.00 in0.0 mm
06:34 AM 42.1°F5.6°C 36.7°F2.6°C 81% 0.7 mph W1.1 kmh W 2.2 mph3.5 kmh 29.95 in1014.2 mb 0.00 in0.0 mm 0.00 in0.0 mm 0.00 in0.0 mm
06:33 AM 42.1°F5.6°C 36.7°F2.6°C 81% 0.7 mph W1.1 kmh W 2.2 mph3.5 kmh 29.96 in1014.6 mb 0.00 in0.0 mm 0.00 in0.0 mm 0.00 in0.0 mm
06:32 AM 42.3°F5.7°C 36.9°F2.7°C 81% 0.7 mph W1.1 kmh W 1.6 mph2.6 kmh 29.96 in1014.6 mb 0.00 in0.0 mm 0.00 in0.0 mm 0.00 in0.0 mm
06:30 AM 42.3°F5.7°C 36.9°F2.7°C 81% Calm Calm 1.6 mph2.6 kmh 29.96 in1014.6 mb 0.00 in0.0 mm 0.00 in0.0 mm 0.00 in0.0 mm
06:29 AM 42.3°F5.7°C 36.9°F2.7°C 81% 0.7 mph W1.1 kmh W 1.6 mph2.6 kmh 29.96 in1014.6 mb 0.00 in0.0 mm 0.00 in0.0 mm 0.00 in0.0 mm
06:28 AM 42.3°F5.7°C 36.9°F2.7°C 81% Calm Calm 1.6 mph2.6 kmh 29.96 in1014.6 mb 0.00 in0.0 mm 0.00 in0.0 mm 0.00 in0.0 mm
06:27 AM 42.4°F5.8°C 37.0°F2.8°C 81% Calm Calm 1.6 mph2.6 kmh 29.95 in1014.2 mb 0.00 in0.0 mm 0.00 in0.0 mm 0.00 in0.0 mm
06:26 AM 42.4°F5.8°C 37.0°F2.8°C 81% 0.7 mph W1.1 kmh W 1.6 mph2.6 kmh 29.96 in1014.6 mb 0.00 in0.0 mm 0.00 in0.0 mm 0.00 in0.0 mm
06:24 AM 42.4°F5.8°C 37.0°F2.8°C 81% Calm Calm -- 29.95 in1014.2 mb 0.00 in0.0 mm 0.00 in0.0 mm 0.00 in0.0 mm
06:23 AM 42.4°F5.8°C 37.0°F2.8°C 81% Calm Calm 0.7 mph1.1 kmh 29.95 in1014.2 mb 0.00 in0.0 mm 0.00 in0.0 mm 0.00 in0.0 mm
06:22 AM 42.4°F5.8°C 37.0°F2.8°C 81% Calm Calm 0.7 mph1.1 kmh 29.95 in1014.2 mb 0.00 in0.0 mm 0.00 in0.0 mm 0.00 in0.0 mm
06:21 AM 42.4°F5.8°C 37.0°F2.8°C 81% Calm Calm 0.7 mph1.1 kmh 29.95 in1014.2 mb 0.00 in0.0 mm 0.00 in0.0 mm 0.00 in0.0 mm
06:20 AM 42.4°F5.8°C 37.0°F2.8°C 81% Calm Calm 0.7 mph1.1 kmh 29.95 in1014.2 mb 0.00 in0.0 mm 0.00 in0.0 mm 0.00 in0.0 mm
06:19 AM 42.6°F5.9°C 37.2°F2.9°C 81% Calm Calm 0.7 mph1.1 kmh 29.95 in1014.2 mb 0.00 in0.0 mm 0.00 in0.0 mm 0.00 in0.0 mm
06:17 AM 42.6°F5.9°C 37.2°F2.9°C 81% 0.7 mph W1.1 kmh W 1.6 mph2.6 kmh 29.96 in1014.6 mb 0.00 in0.0 mm 0.00 in0.0 mm 0.00 in0.0 mm
06:16 AM 42.6°F5.9°C 37.2°F2.9°C 81% 0.7 mph W1.1 kmh W 1.6 mph2.6 kmh 29.96 in1014.6 mb 0.00 in0.0 mm 0.00 in0.0 mm 0.00 in0.0 mm
06:15 AM 42.6°F5.9°C 37.2°F2.9°C 81% Calm Calm 1.6 mph2.6 kmh 29.96 in1014.6 mb 0.00 in0.0 mm 0.00 in0.0 mm 0.00 in0.0 mm
06:14 AM 42.8°F6.0°C 37.4°F3.0°C 81% Calm Calm 1.6 mph2.6 kmh 29.95 in1014.2 mb 0.00 in0.0 mm 0.00 in0.0 mm 0.00 in0.0 mm
06:13 AM 42.6°F5.9°C 37.2°F2.9°C 81% Calm Calm 1.6 mph2.6 kmh 29.95 in1014.2 mb 0.00 in0.0 mm 0.00 in0.0 mm 0.00 in0.0 mm
06:12 AM 42.8°F6.0°C 37.4°F3.0°C 81% Calm Calm 0.7 mph1.1 kmh 29.95 in1014.2 mb 0.00 in0.0 mm 0.00 in0.0 mm 0.00 in0.0 mm
06:10 AM 42.8°F6.0°C 37.4°F3.0°C 81% Calm Calm 1.6 mph2.6 kmh 29.95 in1014.2 mb 0.00 in0.0 mm 0.00 in0.0 mm 0.00 in0.0 mm
06:09 AM 42.8°F6.0°C 37.4°F3.0°C 81% 0.7 mph W1.1 kmh W 1.6 mph2.6 kmh 29.95 in1014.2 mb 0.00 in0.0 mm 0.00 in0.0 mm 0.00 in0.0 mm
06:08 AM 42.8°F6.0°C 37.4°F3.0°C 81% 0.7 mph W1.1 kmh W 1.6 mph2.6 kmh 29.95 in1014.2 mb 0.00 in0.0 mm 0.00 in0.0 mm 0.00 in0.0 mm
06:07 AM 43.0°F6.1°C 37.2°F2.9°C 80% Calm Calm 0.7 mph1.1 kmh 29.95 in1014.2 mb 0.00 in0.0 mm 0.00 in0.0 mm 0.00 in0.0 mm
06:06 AM 43.0°F6.1°C 37.6°F3.1°C 81% Calm Calm 0.7 mph1.1 kmh 29.95 in1014.2 mb 0.00 in0.0 mm 0.00 in0.0 mm 0.00 in0.0 mm
06:05 AM 43.0°F6.1°C 37.2°F2.9°C 80% Calm Calm 1.6 mph2.6 kmh 29.95 in1014.2 mb 0.00 in0.0 mm 0.00 in0.0 mm 0.00 in0.0 mm
06:03 AM 43.0°F6.1°C 37.2°F2.9°C 80% Calm Calm 1.6 mph2.6 kmh 29.95 in1014.2 mb 0.00 in0.0 mm 0.00 in0.0 mm 0.00 in0.0 mm
06:02 AM 43.0°F6.1°C 37.2°F2.9°C 80% Calm Calm 1.6 mph2.6 kmh 29.95 in1014.2 mb 0.00 in0.0 mm 0.00 in0.0 mm 0.00 in0.0 mm
06:01 AM 43.0°F6.1°C 37.2°F2.9°C 80% Calm Calm 1.6 mph2.6 kmh 29.95 in1014.2 mb 0.00 in0.0 mm 0.00 in0.0 mm 0.00 in0.0 mm
06:00 AM 43.2°F6.2°C 37.4°F3.0°C 80% Calm Calm 1.6 mph2.6 kmh 29.95 in1014.2 mb 0.00 in0.0 mm 0.00 in0.0 mm 0.00 in0.0 mm
05:59 AM 43.0°F6.1°C 37.2°F2.9°C 80% Calm Calm 1.6 mph2.6 kmh 29.95 in1014.2 mb 0.00 in0.0 mm 0.00 in0.0 mm 0.00 in0.0 mm
05:57 AM 43.2°F6.2°C 37.0°F2.8°C 79% Calm Calm 0.7 mph1.1 kmh 29.95 in1014.2 mb 0.00 in0.0 mm 0.00 in0.0 mm 0.00 in0.0 mm
05:56 AM 43.2°F6.2°C 37.0°F2.8°C 79% Calm Calm 0.7 mph1.1 kmh 29.95 in1014.2 mb 0.00 in0.0 mm 0.00 in0.0 mm 0.00 in0.0 mm
05:55 AM 43.2°F6.2°C 37.0°F2.8°C 79% Calm Calm 0.7 mph1.1 kmh 29.95 in1014.2 mb 0.00 in0.0 mm 0.00 in0.0 mm 0.00 in0.0 mm
05:54 AM 43.2°F6.2°C 37.0°F2.8°C 79% Calm Calm 1.6 mph2.6 kmh 29.95 in1014.2 mb 0.00 in0.0 mm 0.00 in0.0 mm 0.00 in0.0 mm
05:53 AM 43.2°F6.2°C 37.0°F2.8°C 79% Calm Calm 1.6 mph2.6 kmh 29.96 in1014.6 mb 0.00 in0.0 mm 0.00 in0.0 mm 0.00 in0.0 mm
05:52 AM 43.2°F6.2°C 37.0°F2.8°C 79% 0.7 mph SE1.1 kmh SE 1.6 mph2.6 kmh 29.95 in1014.2 mb 0.00 in0.0 mm 0.00 in0.0 mm 0.00 in0.0 mm
05:50 AM 43.2°F6.2°C 36.7°F2.6°C 78% Calm Calm 1.6 mph2.6 kmh 29.95 in1014.2 mb 0.00 in0.0 mm 0.00 in0.0 mm 0.00 in0.0 mm
05:49 AM 43.0°F6.1°C 36.9°F2.7°C 79% 0.7 mph W1.1 kmh W 2.2 mph3.5 kmh 29.95 in1014.2 mb 0.00 in0.0 mm 0.00 in0.0 mm 0.00 in0.0 mm
05:48 AM 43.0°F6.1°C 36.9°F2.7°C 79% 0.7 mph W1.1 kmh W 2.2 mph3.5 kmh 29.95 in1014.2 mb 0.00 in0.0 mm 0.00 in0.0 mm 0.00 in0.0 mm
05:47 AM 43.0°F6.1°C 36.9°F2.7°C 79% 0.7 mph W1.1 kmh W 2.2 mph3.5 kmh 29.95 in1014.2 mb 0.00 in0.0 mm 0.00 in0.0 mm 0.00 in0.0 mm
05:46 AM 43.0°F6.1°C 36.9°F2.7°C 79% 0.7 mph W1.1 kmh W 2.2 mph3.5 kmh 29.95 in1014.2 mb 0.00 in0.0 mm 0.00 in0.0 mm 0.00 in0.0 mm
05:45 AM 43.0°F6.1°C 36.9°F2.7°C 79% 0.7 mph NW1.1 kmh NW 2.2 mph3.5 kmh 29.95 in1014.2 mb 0.00 in0.0 mm 0.00 in0.0 mm 0.00 in0.0 mm
05:43 AM 43.0°F6.1°C 36.9°F2.7°C 79% 0.7 mph W1.1 kmh W 2.2 mph3.5 kmh 29.95 in1014.2 mb 0.00 in0.0 mm 0.00 in0.0 mm 0.00 in0.0 mm
05:42 AM 43.0°F6.1°C 36.9°F2.7°C 79% 0.7 mph W1.1 kmh W 1.6 mph2.6 kmh 29.95 in1014.2 mb 0.00 in0.0 mm 0.00 in0.0 mm 0.00 in0.0 mm
05:41 AM 43.0°F6.1°C 37.2°F2.9°C 80% 0.7 mph W1.1 kmh W 1.6 mph2.6 kmh 29.95 in1014.2 mb 0.00 in0.0 mm 0.00 in0.0 mm 0.00 in0.0 mm
05:40 AM 43.0°F6.1°C 37.2°F2.9°C 80% 0.7 mph W1.1 kmh W 1.6 mph2.6 kmh 29.95 in1014.2 mb 0.00 in0.0 mm 0.00 in0.0 mm 0.00 in0.0 mm
05:39 AM 43.0°F6.1°C 37.2°F2.9°C 80% Calm Calm 0.7 mph1.1 kmh 29.95 in1014.2 mb 0.00 in0.0 mm 0.00 in0.0 mm 0.00 in0.0 mm
05:37 AM 43.0°F6.1°C 37.2°F2.9°C 80% 1.6 mph W2.6 kmh W 2.2 mph3.5 kmh 29.95 in1014.2 mb 0.00 in0.0 mm 0.00 in0.0 mm 0.00 in0.0 mm
05:36 AM 43.0°F6.1°C 37.2°F2.9°C 80% 0.7 mph W1.1 kmh W 2.2 mph3.5 kmh 29.95 in1014.2 mb 0.00 in0.0 mm 0.00 in0.0 mm 0.00 in0.0 mm
05:35 AM 43.0°F6.1°C 37.2°F2.9°C 80% Calm Calm 0.7 mph1.1 kmh 29.95 in1014.2 mb 0.00 in0.0 mm 0.00 in0.0 mm 0.00 in0.0 mm
05:34 AM 43.0°F6.1°C 37.2°F2.9°C 80% Calm Calm 0.7 mph1.1 kmh 29.95 in1014.2 mb 0.00 in0.0 mm 0.00 in0.0 mm 0.00 in0.0 mm
05:33 AM 43.0°F6.1°C 37.2°F2.9°C 80% Calm Calm 1.6 mph2.6 kmh 29.95 in1014.2 mb 0.00 in0.0 mm 0.00 in0.0 mm 0.00 in0.0 mm
05:32 AM 43.0°F6.1°C 37.2°F2.9°C 80% 0.7 mph W1.1 kmh W 2.2 mph3.5 kmh 29.95 in1014.2 mb 0.00 in0.0 mm 0.00 in0.0 mm 0.00 in0.0 mm
05:30 AM 43.0°F6.1°C 37.2°F2.9°C 80% 1.6 mph W2.6 kmh W 2.2 mph3.5 kmh 29.96 in1014.6 mb 0.00 in0.0 mm 0.00 in0.0 mm 0.00 in0.0 mm
05:29 AM 43.0°F6.1°C 37.2°F2.9°C 80% 1.6 mph W2.6 kmh W 2.2 mph3.5 kmh 29.96 in1014.6 mb 0.00 in0.0 mm 0.00 in0.0 mm 0.00 in0.0 mm
05:28 AM 43.0°F6.1°C 37.2°F2.9°C 80% 0.7 mph W1.1 kmh W 2.2 mph3.5 kmh 29.96 in1014.6 mb 0.00 in0.0 mm 0.00 in0.0 mm 0.00 in0.0 mm
05:27 AM 43.0°F6.1°C 37.2°F2.9°C 80% 0.7 mph SW1.1 kmh SW 2.2 mph3.5 kmh 29.96 in1014.6 mb 0.00 in0.0 mm 0.00 in0.0 mm 0.00 in0.0 mm
05:26 AM 43.0°F6.1°C 37.2°F2.9°C 80% Calm Calm 2.2 mph3.5 kmh 29.96 in1014.6 mb 0.00 in0.0 mm 0.00 in0.0 mm 0.00 in0.0 mm
05:25 AM 43.0°F6.1°C 37.2°F2.9°C 80% Calm Calm 0.7 mph1.1 kmh 29.96 in1014.6 mb 0.00 in0.0 mm 0.00 in0.0 mm 0.00 in0.0 mm
05:23 AM 43.0°F6.1°C 37.2°F2.9°C 80% Calm Calm 0.7 mph1.1 kmh 29.96 in1014.6 mb 0.00 in0.0 mm 0.00 in0.0 mm 0.00 in0.0 mm
05:22 AM 43.0°F6.1°C 37.2°F2.9°C 80% 0.7 mph W1.1 kmh W 1.6 mph2.6 kmh 29.96 in1014.6 mb 0.00 in0.0 mm 0.00 in0.0 mm 0.00 in0.0 mm
05:21 AM 42.8°F6.0°C 37.0°F2.8°C 80% 0.7 mph W1.1 kmh W 2.2 mph3.5 kmh 29.96 in1014.6 mb 0.00 in0.0 mm 0.00 in0.0 mm 0.00 in0.0 mm
05:20 AM 42.8°F6.0°C 37.0°F2.8°C 80% 0.7 mph W1.1 kmh W 3.1 mph5.0 kmh 29.96 in1014.6 mb 0.00 in0.0 mm 0.00 in0.0 mm 0.00 in0.0 mm
05:19 AM 42.8°F6.0°C 37.0°F2.8°C 80% 0.7 mph W1.1 kmh W 3.1 mph5.0 kmh 29.96 in1014.6 mb 0.00 in0.0 mm 0.00 in0.0 mm 0.00 in0.0 mm
05:18 AM 42.8°F6.0°C 37.0°F2.8°C 80% 1.6 mph W2.6 kmh W 3.1 mph5.0 kmh 29.96 in1014.6 mb 0.00 in0.0 mm 0.00 in0.0 mm 0.00 in0.0 mm
05:16 AM 42.8°F6.0°C 37.0°F2.8°C 80% 2.2 mph W3.5 kmh W 3.1 mph5.0 kmh 29.96 in1014.6 mb 0.00 in0.0 mm 0.00 in0.0 mm 0.00 in0.0 mm
05:15 AM 42.8°F6.0°C 37.0°F2.8°C 80% 1.6 mph W2.6 kmh W 3.1 mph5.0 kmh 29.96 in1014.6 mb 0.00 in0.0 mm 0.00 in0.0 mm 0.00 in0.0 mm
05:14 AM 42.8°F6.0°C 37.4°F3.0°C 81% 1.6 mph W2.6 kmh W 3.1 mph5.0 kmh 29.96 in1014.6 mb 0.00 in0.0 mm 0.00 in0.0 mm 0.00 in0.0 mm
05:13 AM 42.8°F6.0°C 37.4°F3.0°C 81% 0.7 mph W1.1 kmh W 2.2 mph3.5 kmh 29.96 in1014.6 mb 0.00 in0.0 mm 0.00 in0.0 mm 0.00 in0.0 mm
05:12 AM 42.8°F6.0°C 37.4°F3.0°C 81% Calm Calm 0.7 mph1.1 kmh 29.96 in1014.6 mb 0.00 in0.0 mm 0.00 in0.0 mm 0.00 in0.0 mm
05:10 AM 42.8°F6.0°C 37.4°F3.0°C 81% Calm Calm 1.6 mph2.6 kmh 29.97 in1014.9 mb 0.00 in0.0 mm 0.00 in0.0 mm 0.00 in0.0 mm
05:09 AM 42.6°F5.9°C 37.2°F2.9°C 81% 0.7 mph W1.1 kmh W 2.2 mph3.5 kmh 29.96 in1014.6 mb 0.00 in0.0 mm 0.00 in0.0 mm 0.00 in0.0 mm
05:08 AM 42.6°F5.9°C 37.2°F2.9°C 81% 0.7 mph W1.1 kmh W 3.8 mph6.1 kmh 29.96 in1014.6 mb 0.00 in0.0 mm 0.00 in0.0 mm 0.00 in0.0 mm
05:07 AM 42.6°F5.9°C 37.2°F2.9°C 81% 2.2 mph W3.5 kmh W 3.8 mph6.1 kmh 29.96 in1014.6 mb 0.00 in0.0 mm 0.00 in0.0 mm 0.00 in0.0 mm
05:06 AM 41.5°F5.3°C 36.1°F2.3°C 81% 1.6 mph WNW2.6 kmh WNW 3.1 mph5.0 kmh 29.97 in1014.9 mb 0.00 in0.0 mm 0.00 in0.0 mm 0.00 in0.0 mm
05:05 AM 42.6°F5.9°C 37.2°F2.9°C 81% 1.6 mph W2.6 kmh W 3.1 mph5.0 kmh 29.96 in1014.6 mb 0.00 in0.0 mm 0.00 in0.0 mm 0.00 in0.0 mm
05:03 AM 42.6°F5.9°C 37.6°F3.1°C 82% 0.7 mph W1.1 kmh W 2.2 mph3.5 kmh 29.97 in1014.9 mb 0.00 in0.0 mm 0.00 in0.0 mm 0.00 in0.0 mm
05:02 AM 42.6°F5.9°C 37.2°F2.9°C 81% 0.7 mph W1.1 kmh W 1.6 mph2.6 kmh 29.97 in1014.9 mb 0.00 in0.0 mm 0.00 in0.0 mm 0.00 in0.0 mm
05:01 AM 42.6°F5.9°C 37.2°F2.9°C 81% 0.7 mph W1.1 kmh W 1.6 mph2.6 kmh 29.96 in1014.6 mb 0.00 in0.0 mm 0.00 in0.0 mm 0.00 in0.0 mm
05:00 AM 42.6°F5.9°C 37.6°F3.1°C 82% 0.7 mph W1.1 kmh W 1.6 mph2.6 kmh 29.96 in1014.6 mb 0.00 in0.0 mm 0.00 in0.0 mm 0.00 in0.0 mm
04:59 AM 42.4°F5.8°C 37.4°F3.0°C 82% 0.7 mph W1.1 kmh W 1.6 mph2.6 kmh 29.97 in1014.9 mb 0.00 in0.0 mm 0.00 in0.0 mm 0.00 in0.0 mm
04:58 AM 42.6°F5.9°C 37.6°F3.1°C 82% 0.7 mph W1.1 kmh W 2.2 mph3.5 kmh 29.96 in1014.6 mb 0.00 in0.0 mm 0.00 in0.0 mm 0.00 in0.0 mm
04:56 AM 42.4°F5.8°C 37.4°F3.0°C 82% 0.7 mph W1.1 kmh W 2.2 mph3.5 kmh 29.97 in1014.9 mb 0.00 in0.0 mm 0.00 in0.0 mm 0.00 in0.0 mm
04:55 AM 42.4°F5.8°C 37.4°F3.0°C 82% 1.6 mph W2.6 kmh W 3.1 mph5.0 kmh 29.97 in1014.9 mb 0.00 in0.0 mm 0.00 in0.0 mm 0.00 in0.0 mm
04:54 AM 42.4°F5.8°C 37.4°F3.0°C 82% 2.2 mph W3.5 kmh W 3.1 mph5.0 kmh 29.97 in1014.9 mb 0.00 in0.0 mm 0.00 in0.0 mm 0.00 in0.0 mm
04:53 AM 42.4°F5.8°C 37.4°F3.0°C 82% 1.6 mph SW2.6 kmh SW 3.1 mph5.0 kmh 29.97 in1014.9 mb 0.00 in0.0 mm 0.00 in0.0 mm 0.00 in0.0 mm
04:52 AM 42.4°F5.8°C 37.6°F3.1°C 83% 0.7 mph W1.1 kmh W 2.2 mph3.5 kmh 29.97 in1014.9 mb 0.00 in0.0 mm 0.00 in0.0 mm 0.00 in0.0 mm
04:50 AM 42.4°F5.8°C 37.6°F3.1°C 83% 0.7 mph W1.1 kmh W 2.2 mph3.5 kmh 29.97 in1014.9 mb 0.00 in0.0 mm 0.00 in0.0 mm 0.00 in0.0 mm
04:49 AM 42.4°F5.8°C 37.6°F3.1°C 83% Calm Calm 0.7 mph1.1 kmh 29.97 in1014.9 mb 0.00 in0.0 mm 0.00 in0.0 mm 0.00 in0.0 mm
04:48 AM 42.4°F5.8°C 37.6°F3.1°C 83% Calm Calm 2.2 mph3.5 kmh 29.97 in1014.9 mb 0.00 in0.0 mm 0.00 in0.0 mm 0.00 in0.0 mm
04:47 AM 42.4°F5.8°C 37.6°F3.1°C 83% 1.6 mph W2.6 kmh W 2.2 mph3.5 kmh 29.97 in1014.9 mb 0.00 in0.0 mm 0.00 in0.0 mm 0.00 in0.0 mm
04:46 AM 42.4°F5.8°C 37.6°F3.1°C 83% 0.7 mph W1.1 kmh W 2.2 mph3.5 kmh 29.97 in1014.9 mb 0.00 in0.0 mm 0.00 in0.0 mm 0.00 in0.0 mm
04:45 AM 42.4°F5.8°C 37.6°F3.1°C 83% 0.7 mph W1.1 kmh W 1.6 mph2.6 kmh 29.97 in1014.9 mb 0.00 in0.0 mm 0.00 in0.0 mm 0.00 in0.0 mm
04:43 AM 42.4°F5.8°C 37.6°F3.1°C 83% 0.7 mph W1.1 kmh W 1.6 mph2.6 kmh 29.97 in1014.9 mb 0.00 in0.0 mm 0.00 in0.0 mm 0.00 in0.0 mm
04:42 AM 42.4°F5.8°C 37.6°F3.1°C 83% 1.6 mph W2.6 kmh W 3.1 mph5.0 kmh 29.97 in1014.9 mb 0.00 in0.0 mm 0.00 in0.0 mm 0.00 in0.0 mm
04:41 AM 42.4°F5.8°C 37.6°F3.1°C 83% 0.7 mph W1.1 kmh W 3.1 mph5.0 kmh 29.97 in1014.9 mb 0.00 in0.0 mm 0.00 in0.0 mm 0.00 in0.0 mm
04:40 AM 42.4°F5.8°C 37.6°F3.1°C 83% 0.7 mph W1.1 kmh W 2.2 mph3.5 kmh 29.97 in1014.9 mb 0.00 in0.0 mm 0.00 in0.0 mm 0.00 in0.0 mm
04:39 AM 42.4°F5.8°C 37.6°F3.1°C 83% 0.7 mph W1.1 kmh W 1.6 mph2.6 kmh 29.97 in1014.9 mb 0.00 in0.0 mm 0.00 in0.0 mm 0.00 in0.0 mm
04:38 AM 42.4°F5.8°C 37.6°F3.1°C 83% 1.6 mph W2.6 kmh W 3.1 mph5.0 kmh 29.98 in1015.2 mb 0.00 in0.0 mm 0.00 in0.0 mm 0.00 in0.0 mm
04:36 AM 42.4°F5.8°C 37.9°F3.3°C 84% 0.7 mph W1.1 kmh W 2.2 mph3.5 kmh 29.98 in1015.2 mb 0.00 in0.0 mm 0.00 in0.0 mm 0.00 in0.0 mm
04:35 AM 42.4°F5.8°C 37.9°F3.3°C 84% 0.7 mph WNW1.1 kmh WNW 2.2 mph3.5 kmh 29.98 in1015.2 mb 0.00 in0.0 mm 0.00 in0.0 mm 0.00 in0.0 mm
04:34 AM 42.4°F5.8°C 37.9°F3.3°C 84% 1.6 mph WNW2.6 kmh WNW 2.2 mph3.5 kmh 29.98 in1015.2 mb 0.00 in0.0 mm 0.00 in0.0 mm 0.00 in0.0 mm
04:33 AM 42.6°F5.9°C 38.1°F3.4°C 84% 0.7 mph W1.1 kmh W 2.2 mph3.5 kmh 29.98 in1015.2 mb 0.00 in0.0 mm 0.00 in0.0 mm 0.00 in0.0 mm
04:32 AM 42.4°F5.8°C 37.9°F3.3°C 84% 0.7 mph W1.1 kmh W 2.2 mph3.5 kmh 29.98 in1015.2 mb 0.00 in0.0 mm 0.00 in0.0 mm 0.00 in0.0 mm
04:31 AM 42.4°F5.8°C 37.9°F3.3°C 84% Calm Calm 0.7 mph1.1 kmh 29.98 in1015.2 mb 0.00 in0.0 mm 0.00 in0.0 mm 0.00 in0.0 mm
04:29 AM 42.6°F5.9°C 38.1°F3.4°C 84% 0.7 mph W1.1 kmh W 2.2 mph3.5 kmh 29.98 in1015.2 mb 0.00 in0.0 mm 0.00 in0.0 mm 0.00 in0.0 mm
04:28 AM 42.6°F5.9°C 38.1°F3.4°C 84% Calm Calm 2.2 mph3.5 kmh 29.98 in1015.2 mb 0.00 in0.0 mm 0.00 in0.0 mm 0.00 in0.0 mm
04:27 AM 42.6°F5.9°C 38.1°F3.4°C 84% Calm Calm 0.7 mph1.1 kmh 29.98 in1015.2 mb 0.00 in0.0 mm 0.00 in0.0 mm 0.00 in0.0 mm
04:26 AM 42.6°F5.9°C 38.1°F3.4°C 84% Calm Calm 0.7 mph1.1 kmh 29.98 in1015.2 mb 0.00 in0.0 mm 0.00 in0.0 mm 0.00 in0.0 mm
04:25 AM 42.6°F5.9°C 38.1°F3.4°C 84% Calm Calm 0.7 mph1.1 kmh 29.98 in1015.2 mb 0.00 in0.0 mm 0.00 in0.0 mm 0.00 in0.0 mm
04:23 AM 42.6°F5.9°C 38.1°F3.4°C 84% Calm Calm 0.7 mph1.1 kmh 29.98 in1015.2 mb 0.00 in0.0 mm 0.00 in0.0 mm 0.00 in0.0 mm
04:22 AM 42.6°F5.9°C 38.1°F3.4°C 84% Calm Calm 1.6 mph2.6 kmh 29.98 in1015.2 mb 0.00 in0.0 mm 0.00 in0.0 mm 0.00 in0.0 mm
04:21 AM 42.6°F5.9°C 38.1°F3.4°C 84% Calm Calm 1.6 mph2.6 kmh 29.98 in1015.2 mb 0.00 in0.0 mm 0.00 in0.0 mm 0.00 in0.0 mm
04:20 AM 42.6°F5.9°C 38.1°F3.4°C 84% 0.7 mph W1.1 kmh W 1.6 mph2.6 kmh 29.98 in1015.2 mb 0.00 in0.0 mm 0.00 in0.0 mm 0.00 in0.0 mm
04:19 AM 42.6°F5.9°C 38.1°F3.4°C 84% 0.7 mph W1.1 kmh W 1.6 mph2.6 kmh 29.98 in1015.2 mb 0.00 in0.0 mm 0.00 in0.0 mm 0.00 in0.0 mm
04:18 AM 42.6°F5.9°C 38.1°F3.4°C 84% Calm Calm 1.6 mph2.6 kmh 29.99 in1015.6 mb 0.00 in0.0 mm 0.00 in0.0 mm 0.00 in0.0 mm
04:16 AM 42.6°F5.9°C 38.1°F3.4°C 84% 0.7 mph W1.1 kmh W 2.2 mph3.5 kmh 29.98 in1015.2 mb 0.00 in0.0 mm 0.00 in0.0 mm 0.00 in0.0 mm
04:15 AM 42.6°F5.9°C 38.1°F3.4°C 84% 0.7 mph W1.1 kmh W 2.2 mph3.5 kmh 29.98 in1015.2 mb 0.00 in0.0 mm 0.00 in0.0 mm 0.00 in0.0 mm
04:14 AM 42.6°F5.9°C 38.1°F3.4°C 84% 0.7 mph W1.1 kmh W 2.2 mph3.5 kmh 29.99 in1015.6 mb 0.00 in0.0 mm 0.00 in0.0 mm 0.00 in0.0 mm
04:13 AM 42.6°F5.9°C 38.1°F3.4°C 84% Calm Calm 1.6 mph2.6 kmh 29.98 in1015.2 mb 0.00 in0.0 mm 0.00 in0.0 mm 0.00 in0.0 mm
04:12 AM 42.4°F5.8°C 37.9°F3.3°C 84% Calm Calm 1.6 mph2.6 kmh 29.99 in1015.6 mb 0.00 in0.0 mm 0.00 in0.0 mm 0.00 in0.0 mm
04:11 AM 42.4°F5.8°C 37.9°F3.3°C 84% Calm Calm 1.6 mph2.6 kmh 29.98 in1015.2 mb 0.00 in0.0 mm 0.00 in0.0 mm 0.00 in0.0 mm
04:09 AM 42.6°F5.9°C 38.1°F3.4°C 84% Calm Calm 0.7 mph1.1 kmh 29.99 in1015.6 mb 0.00 in0.0 mm 0.00 in0.0 mm 0.00 in0.0 mm
04:08 AM 42.6°F5.9°C 38.5°F3.6°C 85% Calm Calm 0.7 mph1.1 kmh 29.99 in1015.6 mb 0.00 in0.0 mm 0.00 in0.0 mm 0.00 in0.0 mm
04:07 AM 42.4°F5.8°C 38.3°F3.5°C 85% Calm Calm 1.6 mph2.6 kmh 29.99 in1015.6 mb 0.00 in0.0 mm 0.00 in0.0 mm 0.00 in0.0 mm
04:06 AM 42.4°F5.8°C 38.3°F3.5°C 85% 0.7 mph W1.1 kmh W 2.2 mph3.5 kmh 29.99 in1015.6 mb 0.00 in0.0 mm 0.00 in0.0 mm 0.00 in0.0 mm
04:05 AM 42.6°F5.9°C 38.5°F3.6°C 85% 0.7 mph W1.1 kmh W 1.6 mph2.6 kmh 29.99 in1015.6 mb 0.00 in0.0 mm 0.00 in0.0 mm 0.00 in0.0 mm
04:04 AM 42.6°F5.9°C 38.5°F3.6°C 85% Calm Calm 1.6 mph2.6 kmh 29.99 in1015.6 mb 0.00 in0.0 mm 0.00 in0.0 mm 0.00 in0.0 mm
04:02 AM 42.6°F5.9°C 38.5°F3.6°C 85% Calm Calm 0.7 mph1.1 kmh 29.99 in1015.6 mb 0.00 in0.0 mm 0.00 in0.0 mm 0.00 in0.0 mm
04:01 AM 42.6°F5.9°C 38.5°F3.6°C 85% Calm Calm 0.7 mph1.1 kmh 30.00 in1015.9 mb 0.00 in0.0 mm 0.00 in0.0 mm 0.00 in0.0 mm
04:00 AM 42.6°F5.9°C 38.5°F3.6°C 85% Calm Calm 0.7 mph1.1 kmh 29.99 in1015.6 mb 0.00 in0.0 mm 0.00 in0.0 mm 0.00 in0.0 mm
03:59 AM 42.6°F5.9°C 38.5°F3.6°C 85% Calm Calm -- 30.00 in1015.9 mb 0.00 in0.0 mm 0.00 in0.0 mm 0.00 in0.0 mm
03:58 AM 42.6°F5.9°C 38.5°F3.6°C 85% Calm Calm 0.7 mph1.1 kmh 30.00 in1015.9 mb 0.00 in0.0 mm 0.00 in0.0 mm 0.00 in0.0 mm
03:56 AM 42.6°F5.9°C 38.5°F3.6°C 85% Calm Calm 0.7 mph1.1 kmh 30.00 in1015.9 mb 0.00 in0.0 mm 0.00 in0.0 mm 0.00 in0.0 mm
03:55 AM 42.6°F5.9°C 38.5°F3.6°C 85% Calm Calm 0.7 mph1.1 kmh 29.99 in1015.6 mb 0.00 in0.0 mm 0.00 in0.0 mm 0.00 in0.0 mm
03:54 AM 42.6°F5.9°C 38.5°F3.6°C 85% Calm Calm 1.6 mph2.6 kmh 30.00 in1015.9 mb 0.00 in0.0 mm 0.00 in0.0 mm 0.00 in0.0 mm
03:53 AM 42.6°F5.9°C 38.5°F3.6°C 85% Calm Calm 1.6 mph2.6 kmh 29.99 in1015.6 mb 0.00 in0.0 mm 0.00 in0.0 mm 0.00 in0.0 mm
03:52 AM 42.6°F5.9°C 38.5°F3.6°C 85% 0.7 mph NW1.1 kmh NW 1.6 mph2.6 kmh 30.00 in1015.9 mb 0.00 in0.0 mm 0.00 in0.0 mm 0.00 in0.0 mm
03:51 AM 42.6°F5.9°C 38.1°F3.4°C 84% 0.7 mph NW1.1 kmh NW 1.6 mph2.6 kmh 30.00 in1015.9 mb 0.00 in0.0 mm 0.00 in0.0 mm 0.00 in0.0 mm
03:49 AM 42.6°F5.9°C 38.1°F3.4°C 84% Calm Calm 0.7 mph1.1 kmh 30.00 in1015.9 mb 0.00 in0.0 mm 0.00 in0.0 mm 0.00 in0.0 mm
03:48 AM 42.6°F5.9°C 38.1°F3.4°C 84% Calm Calm 0.7 mph1.1 kmh 30.00 in1015.9 mb 0.00 in0.0 mm 0.00 in0.0 mm 0.00 in0.0 mm
03:47 AM 42.6°F5.9°C 38.1°F3.4°C 84% Calm Calm 0.7 mph1.1 kmh 30.00 in1015.9 mb 0.00 in0.0 mm 0.00 in0.0 mm 0.00 in0.0 mm
03:46 AM 42.8°F6.0°C 38.3°F3.5°C 84% Calm Calm -- 30.01 in1016.3 mb 0.00 in0.0 mm 0.00 in0.0 mm 0.00 in0.0 mm
03:45 AM 42.8°F6.0°C 38.3°F3.5°C 84% Calm Calm 1.6 mph2.6 kmh 30.00 in1015.9 mb 0.00 in0.0 mm 0.00 in0.0 mm 0.00 in0.0 mm
03:44 AM 42.8°F6.0°C 38.3°F3.5°C 84% Calm Calm 1.6 mph2.6 kmh 30.00 in1015.9 mb 0.00 in0.0 mm 0.00 in0.0 mm 0.00 in0.0 mm
03:42 AM 42.8°F6.0°C 38.3°F3.5°C 84% Calm Calm 0.7 mph1.1 kmh 30.01 in1016.3 mb 0.00 in0.0 mm 0.00 in0.0 mm 0.00 in0.0 mm
03:41 AM 42.8°F6.0°C 38.3°F3.5°C 84% Calm Calm 0.7 mph1.1 kmh 30.00 in1015.9 mb 0.00 in0.0 mm 0.00 in0.0 mm 0.00 in0.0 mm
03:40 AM 42.8°F6.0°C 38.3°F3.5°C 84% Calm Calm 0.7 mph1.1 kmh 30.01 in1016.3 mb 0.00 in0.0 mm 0.00 in0.0 mm 0.00 in0.0 mm
03:39 AM 42.8°F6.0°C 38.3°F3.5°C 84% Calm Calm 0.7 mph1.1 kmh 30.00 in1015.9 mb 0.00 in0.0 mm 0.00 in0.0 mm 0.00 in0.0 mm
03:38 AM 43.0°F6.1°C 38.5°F3.6°C 84% Calm Calm 0.7 mph1.1 kmh 30.00 in1015.9 mb 0.00 in0.0 mm 0.00 in0.0 mm 0.00 in0.0 mm
03:36 AM 43.0°F6.1°C 38.5°F3.6°C 84% Calm Calm -- 30.00 in1015.9 mb 0.00 in0.0 mm 0.00 in0.0 mm 0.00 in0.0 mm
03:35 AM 43.0°F6.1°C 38.5°F3.6°C 84% Calm Calm 0.7 mph1.1 kmh 30.01 in1016.3 mb 0.00 in0.0 mm 0.00 in0.0 mm 0.00 in0.0 mm
03:34 AM 43.0°F6.1°C 38.5°F3.6°C 84% Calm Calm 0.7 mph1.1 kmh 30.00 in1015.9 mb 0.00 in0.0 mm 0.00 in0.0 mm 0.00 in0.0 mm
03:33 AM 43.0°F6.1°C 38.5°F3.6°C 84% Calm Calm 1.6 mph2.6 kmh 30.00 in1015.9 mb 0.00 in0.0 mm 0.00 in0.0 mm 0.00 in0.0 mm
03:32 AM 43.0°F6.1°C 38.5°F3.6°C 84% 0.7 mph NW1.1 kmh NW 1.6 mph2.6 kmh 30.00 in1015.9 mb 0.00 in0.0 mm 0.00 in0.0 mm 0.00 in0.0 mm
03:31 AM 43.2°F6.2°C 38.7°F3.7°C 84% Calm Calm 0.7 mph1.1 kmh 30.01 in1016.3 mb 0.00 in0.0 mm 0.00 in0.0 mm 0.00 in0.0 mm
03:29 AM 43.0°F6.1°C 38.5°F3.6°C 84% Calm Calm 1.6 mph2.6 kmh 30.01 in1016.3 mb 0.00 in0.0 mm 0.00 in0.0 mm 0.00 in0.0 mm
03:28 AM 43.2°F6.2°C 38.7°F3.7°C 84% Calm Calm 1.6 mph2.6 kmh 30.01 in1016.3 mb 0.00 in0.0 mm 0.00 in0.0 mm 0.00 in0.0 mm
03:27 AM 43.2°F6.2°C 38.7°F3.7°C 84% Calm Calm 1.6 mph2.6 kmh 30.01 in1016.3 mb 0.00 in0.0 mm 0.00 in0.0 mm 0.00 in0.0 mm
03:26 AM 43.2°F6.2°C 38.3°F3.5°C 83% Calm Calm 0.7 mph1.1 kmh 30.01 in1016.3 mb 0.00 in0.0 mm 0.00 in0.0 mm 0.00 in0.0 mm
03:25 AM 43.2°F6.2°C 38.3°F3.5°C 83% Calm Calm 0.7 mph1.1 kmh 30.01 in1016.3 mb 0.00 in0.0 mm 0.00 in0.0 mm 0.00 in0.0 mm
03:24 AM 43.2°F6.2°C 38.3°F3.5°C 83% Calm Calm 0.7 mph1.1 kmh 30.01 in1016.3 mb 0.00 in0.0 mm 0.00 in0.0 mm 0.00 in0.0 mm
03:22 AM 43.2°F6.2°C 38.3°F3.5°C 83% Calm Calm 0.7 mph1.1 kmh 30.01 in1016.3 mb 0.00 in0.0 mm 0.00 in0.0 mm 0.00 in0.0 mm
03:21 AM 43.2°F6.2°C 38.3°F3.5°C 83% Calm Calm 0.7 mph1.1 kmh 30.01 in1016.3 mb 0.00 in0.0 mm 0.00 in0.0 mm 0.00 in0.0 mm
03:20 AM 43.3°F6.3°C 38.5°F3.6°C 83% Calm Calm 1.6 mph2.6 kmh 30.01 in1016.3 mb 0.00 in0.0 mm 0.00 in0.0 mm 0.00 in0.0 mm
03:19 AM 43.3°F6.3°C 38.5°F3.6°C 83% Calm Calm -- 30.01 in1016.3 mb 0.00 in0.0 mm 0.00 in0.0 mm 0.00 in0.0 mm
03:16 AM 43.3°F6.3°C 38.5°F3.6°C 83% Calm Calm -- 30.01 in1016.3 mb 0.00 in0.0 mm 0.00 in0.0 mm 0.00 in0.0 mm
03:14 AM 43.3°F6.3°C 38.5°F3.6°C 83% Calm Calm -- 30.01 in1016.3 mb 0.00 in0.0 mm 0.00 in0.0 mm 0.00 in0.0 mm
03:13 AM 43.3°F6.3°C 38.5°F3.6°C 83% Calm Calm 0.7 mph1.1 kmh 30.01 in1016.3 mb 0.00 in0.0 mm 0.00 in0.0 mm 0.00 in0.0 mm
03:11 AM 43.5°F6.4°C 38.7°F3.7°C 83% Calm Calm 1.6 mph2.6 kmh 30.01 in1016.3 mb 0.00 in0.0 mm 0.00 in0.0 mm 0.00 in0.0 mm
03:10 AM 45.0°F7.2°C 40.1°F4.5°C 83% Calm Calm 0.7 mph1.1 kmh 30.01 in1016.3 mb 0.00 in0.0 mm 0.00 in0.0 mm 0.00 in0.0 mm
03:08 AM 43.5°F6.4°C 38.7°F3.7°C 83% Calm Calm 0.7 mph1.1 kmh 30.01 in1016.3 mb 0.00 in0.0 mm 0.00 in0.0 mm 0.00 in0.0 mm
03:07 AM 43.5°F6.4°C 38.7°F3.7°C 83% Calm Calm 0.7 mph1.1 kmh 30.01 in1016.3 mb 0.00 in0.0 mm 0.00 in0.0 mm 0.00 in0.0 mm
03:06 AM 43.5°F6.4°C 38.7°F3.7°C 83% Calm Calm 1.6 mph2.6 kmh 30.01 in1016.3 mb 0.00 in0.0 mm 0.00 in0.0 mm 0.00 in0.0 mm
03:05 AM 43.5°F6.4°C 38.7°F3.7°C 83% Calm Calm 1.6 mph2.6 kmh 30.01 in1016.3 mb 0.00 in0.0 mm 0.00 in0.0 mm 0.00 in0.0 mm
03:04 AM 43.7°F6.5°C 38.8°F3.8°C 83% Calm Calm -- 30.01 in1016.3 mb 0.00 in0.0 mm 0.00 in0.0 mm 0.00 in0.0 mm
03:03 AM 43.7°F6.5°C 38.8°F3.8°C 83% Calm Calm -- 30.01 in1016.3 mb 0.00 in0.0 mm 0.00 in0.0 mm 0.00 in0.0 mm
03:01 AM 43.7°F6.5°C 38.8°F3.8°C 83% Calm Calm 0.7 mph1.1 kmh 30.01 in1016.3 mb 0.00 in0.0 mm 0.00 in0.0 mm 0.00 in0.0 mm
03:00 AM 43.7°F6.5°C 38.8°F3.8°C 83% Calm Calm 0.7 mph1.1 kmh 30.01 in1016.3 mb 0.00 in0.0 mm 0.00 in0.0 mm 0.00 in0.0 mm
02:59 AM 43.7°F6.5°C 38.8°F3.8°C 83% Calm Calm 1.6 mph2.6 kmh 30.01 in1016.3 mb 0.00 in0.0 mm 0.00 in0.0 mm 0.00 in0.0 mm
02:58 AM 43.7°F6.5°C 38.5°F3.6°C 82% 0.7 mph NW1.1 kmh NW 1.6 mph2.6 kmh 30.01 in1016.3 mb 0.00 in0.0 mm 0.00 in0.0 mm 0.00 in0.0 mm
02:57 AM 43.7°F6.5°C 38.5°F3.6°C 82% Calm Calm 0.7 mph1.1 kmh 30.01 in1016.3 mb 0.00 in0.0 mm 0.00 in0.0 mm 0.00 in0.0 mm
02:55 AM 43.7°F6.5°C 38.5°F3.6°C 82% Calm Calm 0.7 mph1.1 kmh 30.01 in1016.3 mb 0.00 in0.0 mm 0.00 in0.0 mm 0.00 in0.0 mm
02:54 AM 43.7°F6.5°C 38.5°F3.6°C 82% Calm Calm 1.6 mph2.6 kmh 30.01 in1016.3 mb 0.00 in0.0 mm 0.00 in0.0 mm 0.00 in0.0 mm
02:53 AM 43.7°F6.5°C 38.5°F3.6°C 82% Calm Calm 0.7 mph1.1 kmh 30.01 in1016.3 mb 0.00 in0.0 mm 0.00 in0.0 mm 0.00 in0.0 mm
02:52 AM 43.7°F6.5°C 38.8°F3.8°C 83% Calm Calm 0.7 mph1.1 kmh 30.01 in1016.3 mb 0.00 in0.0 mm 0.00 in0.0 mm 0.00 in0.0 mm
02:51 AM 43.9°F6.6°C 39.0°F3.9°C 83% Calm Calm -- 30.01 in1016.3 mb 0.00 in0.0 mm 0.00 in0.0 mm 0.00 in0.0 mm
02:50 AM 43.9°F6.6°C 39.0°F3.9°C 83% Calm Calm 0.7 mph1.1 kmh 30.01 in1016.3 mb 0.00 in0.0 mm 0.00 in0.0 mm 0.00 in0.0 mm
02:48 AM 43.9°F6.6°C 39.0°F3.9°C 83% Calm Calm 0.7 mph1.1 kmh 30.01 in1016.3 mb 0.00 in0.0 mm 0.00 in0.0 mm 0.00 in0.0 mm
02:47 AM 43.9°F6.6°C 39.0°F3.9°C 83% Calm Calm 0.7 mph1.1 kmh 30.01 in1016.3 mb 0.00 in0.0 mm 0.00 in0.0 mm 0.00 in0.0 mm
02:46 AM 43.9°F6.6°C 39.0°F3.9°C 83% Calm Calm 0.7 mph1.1 kmh 30.01 in1016.3 mb 0.00 in0.0 mm 0.00 in0.0 mm 0.00 in0.0 mm
02:45 AM 44.1°F6.7°C 39.2°F4.0°C 83% Calm Calm 1.6 mph2.6 kmh 30.01 in1016.3 mb 0.00 in0.0 mm 0.00 in0.0 mm 0.00 in0.0 mm
02:44 AM 44.1°F6.7°C 38.8°F3.8°C 82% Calm Calm 0.7 mph1.1 kmh 30.01 in1016.3 mb 0.00 in0.0 mm 0.00 in0.0 mm 0.00 in0.0 mm
02:41 AM 44.1°F6.7°C 38.8°F3.8°C 82% Calm Calm 1.6 mph2.6 kmh 30.01 in1016.3 mb 0.00 in0.0 mm 0.00 in0.0 mm 0.00 in0.0 mm
02:40 AM 44.1°F6.7°C 38.8°F3.8°C 82% 0.7 mph W1.1 kmh W 1.6 mph2.6 kmh 30.01 in1016.3 mb 0.00 in0.0 mm 0.00 in0.0 mm 0.00 in0.0 mm
02:38 AM 44.2°F6.8°C 39.0°F3.9°C 82% Calm Calm 0.7 mph1.1 kmh 30.01 in1016.3 mb 0.00 in0.0 mm 0.00 in0.0 mm 0.00 in0.0 mm
02:37 AM 43.9°F6.6°C 38.7°F3.7°C 82% Calm Calm 0.7 mph1.1 kmh 30.01 in1016.3 mb 0.00 in0.0 mm 0.00 in0.0 mm 0.00 in0.0 mm
02:36 AM 44.2°F6.8°C 39.0°F3.9°C 82% Calm Calm -- 30.02 in1016.6 mb 0.00 in0.0 mm 0.00 in0.0 mm 0.00 in0.0 mm
02:34 AM 44.2°F6.8°C 39.0°F3.9°C 82% Calm Calm 1.6 mph2.6 kmh 30.01 in1016.3 mb 0.00 in0.0 mm 0.00 in0.0 mm 0.00 in0.0 mm
02:33 AM 44.2°F6.8°C 39.0°F3.9°C 82% 0.7 mph W1.1 kmh W 1.6 mph2.6 kmh 30.01 in1016.3 mb 0.00 in0.0 mm 0.00 in0.0 mm 0.00 in0.0 mm
02:32 AM 44.2°F6.8°C 39.0°F3.9°C 82% Calm Calm 0.7 mph1.1 kmh 30.01 in1016.3 mb 0.00 in0.0 mm 0.00 in0.0 mm 0.00 in0.0 mm
02:31 AM 44.2°F6.8°C 39.0°F3.9°C 82% Calm Calm 0.7 mph1.1 kmh 30.01 in1016.3 mb 0.00 in0.0 mm 0.00 in0.0 mm 0.00 in0.0 mm
02:30 AM 44.2°F6.8°C 38.8°F3.8°C 81% Calm Calm 0.7 mph1.1 kmh 30.01 in1016.3 mb 0.00 in0.0 mm 0.00 in0.0 mm 0.00 in0.0 mm
02:27 AM 44.2°F6.8°C 38.8°F3.8°C 81% Calm Calm 0.7 mph1.1 kmh 30.01 in1016.3 mb 0.00 in0.0 mm 0.00 in0.0 mm 0.00 in0.0 mm
02:26 AM 44.2°F6.8°C 38.8°F3.8°C 81% Calm Calm -- 30.01 in1016.3 mb 0.00 in0.0 mm 0.00 in0.0 mm 0.00 in0.0 mm
02:25 AM 44.2°F6.8°C 38.8°F3.8°C 81% Calm Calm 0.7 mph1.1 kmh 30.01 in1016.3 mb 0.00 in0.0 mm 0.00 in0.0 mm 0.00 in0.0 mm
02:24 AM 44.2°F6.8°C 38.8°F3.8°C 81% 0.7 mph SE1.1 kmh SE 1.6 mph2.6 kmh 30.02 in1016.6 mb 0.00 in0.0 mm 0.00 in0.0 mm 0.00 in0.0 mm
02:23 AM 44.2°F6.8°C 38.5°F3.6°C 80% Calm Calm 1.6 mph2.6 kmh 30.01 in1016.3 mb 0.00 in0.0 mm 0.00 in0.0 mm 0.00 in0.0 mm
02:21 AM 44.2°F6.8°C 38.5°F3.6°C 80% Calm Calm 1.6 mph2.6 kmh 30.02 in1016.6 mb 0.00 in0.0 mm 0.00 in0.0 mm 0.00 in0.0 mm
02:20 AM 44.2°F6.8°C 38.8°F3.8°C 81% Calm Calm 0.7 mph1.1 kmh 30.02 in1016.6 mb 0.00 in0.0 mm 0.00 in0.0 mm 0.00 in0.0 mm
02:19 AM 44.2°F6.8°C 38.8°F3.8°C 81% Calm Calm 2.2 mph3.5 kmh 30.01 in1016.3 mb 0.00 in0.0 mm 0.00 in0.0 mm 0.00 in0.0 mm
02:18 AM 44.2°F6.8°C 38.8°F3.8°C 81% 1.6 mph W2.6 kmh W 2.2 mph3.5 kmh 30.01 in1016.3 mb 0.00 in0.0 mm 0.00 in0.0 mm 0.00 in0.0 mm
02:17 AM 44.2°F6.8°C 38.8°F3.8°C 81% 1.6 mph W2.6 kmh W 2.2 mph3.5 kmh 30.01 in1016.3 mb 0.00 in0.0 mm 0.00 in0.0 mm 0.00 in0.0 mm
02:16 AM 44.2°F6.8°C 38.8°F3.8°C 81% 1.6 mph W2.6 kmh W 2.2 mph3.5 kmh 30.01 in1016.3 mb 0.00 in0.0 mm 0.00 in0.0 mm 0.00 in0.0 mm
02:14 AM 44.2°F6.8°C 38.8°F3.8°C 81% 0.7 mph W1.1 kmh W 2.2 mph3.5 kmh 30.01 in1016.3 mb 0.00 in0.0 mm 0.00 in0.0 mm 0.00 in0.0 mm
02:13 AM 44.2°F6.8°C 38.8°F3.8°C 81% 1.6 mph W2.6 kmh W 3.1 mph5.0 kmh 30.01 in1016.3 mb 0.00 in0.0 mm 0.00 in0.0 mm 0.00 in0.0 mm
02:12 AM 44.2°F6.8°C 38.8°F3.8°C 81% 1.6 mph W2.6 kmh W 3.1 mph5.0 kmh 30.01 in1016.3 mb 0.00 in0.0 mm 0.00 in0.0 mm 0.00 in0.0 mm
02:11 AM 44.2°F6.8°C 38.8°F3.8°C 81% 0.7 mph W1.1 kmh W 2.2 mph3.5 kmh 30.01 in1016.3 mb 0.00 in0.0 mm 0.00 in0.0 mm 0.00 in0.0 mm
02:10 AM 44.2°F6.8°C 39.0°F3.9°C 82% 0.7 mph W1.1 kmh W 1.6 mph2.6 kmh 30.01 in1016.3 mb 0.00 in0.0 mm 0.00 in0.0 mm 0.00 in0.0 mm
02:08 AM 44.2°F6.8°C 39.0°F3.9°C 82% 0.7 mph W1.1 kmh W 1.6 mph2.6 kmh 30.01 in1016.3 mb 0.00 in0.0 mm 0.00 in0.0 mm 0.00 in0.0 mm
02:07 AM 44.2°F6.8°C 39.0°F3.9°C 82% 0.7 mph W1.1 kmh W 1.6 mph2.6 kmh 30.02 in1016.6 mb 0.00 in0.0 mm 0.00 in0.0 mm 0.00 in0.0 mm
02:06 AM 44.2°F6.8°C 38.8°F3.8°C 81% Calm Calm 1.6 mph2.6 kmh 30.02 in1016.6 mb 0.00 in0.0 mm 0.00 in0.0 mm 0.00 in0.0 mm
02:05 AM 44.4°F6.9°C 39.0°F3.9°C 81% Calm Calm 1.6 mph2.6 kmh 30.01 in1016.3 mb 0.00 in0.0 mm 0.00 in0.0 mm 0.00 in0.0 mm
02:04 AM 44.4°F6.9°C 39.2°F4.0°C 82% Calm Calm 0.7 mph1.1 kmh 30.02 in1016.6 mb 0.00 in0.0 mm 0.00 in0.0 mm 0.00 in0.0 mm
02:03 AM 44.4°F6.9°C 39.0°F3.9°C 81% Calm Calm 1.6 mph2.6 kmh 30.01 in1016.3 mb 0.00 in0.0 mm 0.00 in0.0 mm 0.00 in0.0 mm
02:01 AM 44.4°F6.9°C 39.0°F3.9°C 81% Calm Calm 1.6 mph2.6 kmh 30.01 in1016.3 mb 0.00 in0.0 mm 0.00 in0.0 mm 0.00 in0.0 mm
02:00 AM 44.4°F6.9°C 39.0°F3.9°C 81% 0.7 mph W1.1 kmh W 1.6 mph2.6 kmh 30.02 in1016.6 mb 0.00 in0.0 mm 0.00 in0.0 mm 0.00 in0.0 mm
01:59 AM 44.4°F6.9°C 39.0°F3.9°C 81% 0.7 mph W1.1 kmh W 1.6 mph2.6 kmh 30.02 in1016.6 mb 0.00 in0.0 mm 0.00 in0.0 mm 0.00 in0.0 mm
01:58 AM 44.4°F6.9°C 39.0°F3.9°C 81% 0.7 mph W1.1 kmh W 1.6 mph2.6 kmh 30.01 in1016.3 mb 0.00 in0.0 mm 0.00 in0.0 mm 0.00 in0.0 mm
01:57 AM 44.4°F6.9°C 39.0°F3.9°C 81% 0.7 mph W1.1 kmh W 1.6 mph2.6 kmh 30.01 in1016.3 mb 0.00 in0.0 mm 0.00 in0.0 mm 0.00 in0.0 mm
01:56 AM 44.6°F7.0°C 39.4°F4.1°C 82% 0.7 mph W1.1 kmh W 1.6 mph2.6 kmh 30.01 in1016.3 mb 0.00 in0.0 mm 0.00 in0.0 mm 0.00 in0.0 mm
01:54 AM 44.6°F7.0°C 39.2°F4.0°C 81% Calm Calm 1.6 mph2.6 kmh 30.01 in1016.3 mb 0.00 in0.0 mm 0.00 in0.0 mm 0.00 in0.0 mm
01:53 AM 44.6°F7.0°C 39.2°F4.0°C 81% Calm Calm 0.7 mph1.1 kmh 30.01 in1016.3 mb 0.00 in0.0 mm 0.00 in0.0 mm 0.00 in0.0 mm
01:52 AM 44.6°F7.0°C 39.2°F4.0°C 81% Calm Calm 1.6 mph2.6 kmh 30.02 in1016.6 mb 0.00 in0.0 mm 0.00 in0.0 mm 0.00 in0.0 mm
01:51 AM 44.6°F7.0°C 39.2°F4.0°C 81% Calm Calm 0.7 mph1.1 kmh 30.02 in1016.6 mb 0.00 in0.0 mm 0.00 in0.0 mm 0.00 in0.0 mm
01:50 AM 44.6°F7.0°C 39.2°F4.0°C 81% Calm Calm 1.6 mph2.6 kmh 30.02 in1016.6 mb 0.00 in0.0 mm 0.00 in0.0 mm 0.00 in0.0 mm
01:49 AM 44.6°F7.0°C 39.2°F4.0°C 81% Calm Calm 0.7 mph1.1 kmh 30.02 in1016.6 mb 0.00 in0.0 mm 0.00 in0.0 mm 0.00 in0.0 mm
01:47 AM 44.8°F7.1°C 39.4°F4.1°C 81% Calm Calm 0.7 mph1.1 kmh 30.02 in1016.6 mb 0.00 in0.0 mm 0.00 in0.0 mm 0.00 in0.0 mm
01:46 AM 44.6°F7.0°C 39.4°F4.1°C 82% Calm Calm 1.6 mph2.6 kmh 30.02 in1016.6 mb 0.00 in0.0 mm 0.00 in0.0 mm 0.00 in0.0 mm
01:45 AM 44.8°F7.1°C 39.6°F4.2°C 82% Calm Calm 1.6 mph2.6 kmh 30.02 in1016.6 mb 0.00 in0.0 mm 0.00 in0.0 mm 0.00 in0.0 mm
01:44 AM 44.8°F7.1°C 39.6°F4.2°C 82% Calm Calm 0.7 mph1.1 kmh 30.02 in1016.6 mb 0.00 in0.0 mm 0.00 in0.0 mm 0.00 in0.0 mm
01:43 AM 44.8°F7.1°C 39.6°F4.2°C 82% Calm Calm 0.7 mph1.1 kmh 30.02 in1016.6 mb 0.00 in0.0 mm 0.00 in0.0 mm 0.00 in0.0 mm
01:41 AM 44.8°F7.1°C 39.6°F4.2°C 82% Calm Calm 1.6 mph2.6 kmh 30.02 in1016.6 mb 0.00 in0.0 mm 0.00 in0.0 mm 0.00 in0.0 mm
01:40 AM 44.8°F7.1°C 39.6°F4.2°C 82% 0.7 mph NW1.1 kmh NW 1.6 mph2.6 kmh 30.02 in1016.6 mb 0.00 in0.0 mm 0.00 in0.0 mm 0.00 in0.0 mm
01:39 AM 44.8°F7.1°C 39.6°F4.2°C 82% 0.7 mph NW1.1 kmh NW 1.6 mph2.6 kmh 30.02 in1016.6 mb 0.00 in0.0 mm 0.00 in0.0 mm 0.00 in0.0 mm
01:38 AM 44.8°F7.1°C 39.6°F4.2°C 82% Calm Calm 1.6 mph2.6 kmh 30.02 in1016.6 mb 0.00 in0.0 mm 0.00 in0.0 mm 0.00 in0.0 mm
01:37 AM 45.0°F7.2°C 39.7°F4.3°C 82% 0.7 mph W1.1 kmh W 1.6 mph2.6 kmh 30.02 in1016.6 mb 0.00 in0.0 mm 0.00 in0.0 mm 0.00 in0.0 mm
01:36 AM 44.8°F7.1°C 39.6°F4.2°C 82% Calm Calm 1.6 mph2.6 kmh 30.02 in1016.6 mb 0.00 in0.0 mm 0.00 in0.0 mm 0.00 in0.0 mm
01:34 AM 45.0°F7.2°C 39.7°F4.3°C 82% Calm Calm -- 30.02 in1016.6 mb 0.00 in0.0 mm 0.00 in0.0 mm 0.00 in0.0 mm
01:33 AM 45.0°F7.2°C 39.7°F4.3°C 82% Calm Calm 0.7 mph1.1 kmh 30.02 in1016.6 mb 0.00 in0.0 mm 0.00 in0.0 mm 0.00 in0.0 mm
01:32 AM 45.0°F7.2°C 39.7°F4.3°C 82% Calm Calm 0.7 mph1.1 kmh 30.02 in1016.6 mb 0.00 in0.0 mm 0.00 in0.0 mm 0.00 in0.0 mm
01:31 AM 45.0°F7.2°C 39.7°F4.3°C 82% Calm Calm 0.7 mph1.1 kmh 30.02 in1016.6 mb 0.00 in0.0 mm 0.00 in0.0 mm 0.00 in0.0 mm
01:30 AM 45.0°F7.2°C 39.7°F4.3°C 82% Calm Calm 1.6 mph2.6 kmh 30.02 in1016.6 mb 0.00 in0.0 mm 0.00 in0.0 mm 0.00 in0.0 mm
01:29 AM 45.0°F7.2°C 39.7°F4.3°C 82% 0.7 mph W1.1 kmh W 1.6 mph2.6 kmh 30.02 in1016.6 mb 0.00 in0.0 mm 0.00 in0.0 mm 0.00 in0.0 mm
01:27 AM 45.0°F7.2°C 39.7°F4.3°C 82% 0.7 mph W1.1 kmh W 1.6 mph2.6 kmh 30.02 in1016.6 mb 0.00 in0.0 mm 0.00 in0.0 mm 0.00 in0.0 mm
01:26 AM 45.0°F7.2°C 39.7°F4.3°C 82% Calm Calm 1.6 mph2.6 kmh 30.02 in1016.6 mb 0.00 in0.0 mm 0.00 in0.0 mm 0.00 in0.0 mm
01:25 AM 45.0°F7.2°C 39.7°F4.3°C 82% Calm Calm 1.6 mph2.6 kmh 30.02 in1016.6 mb 0.00 in0.0 mm 0.00 in0.0 mm 0.00 in0.0 mm
01:24 AM 45.0°F7.2°C 39.7°F4.3°C 82% Calm Calm 1.6 mph2.6 kmh 30.01 in1016.3 mb 0.00 in0.0 mm 0.00 in0.0 mm 0.00 in0.0 mm
01:23 AM 45.0°F7.2°C 40.1°F4.5°C 83% Calm Calm 1.6 mph2.6 kmh 30.02 in1016.6 mb 0.00 in0.0 mm 0.00 in0.0 mm 0.00 in0.0 mm
01:21 AM 45.1°F7.3°C 40.3°F4.6°C 83% 0.7 mph W1.1 kmh W 1.6 mph2.6 kmh 30.01 in1016.3 mb 0.00 in0.0 mm 0.00 in0.0 mm 0.00 in0.0 mm
01:20 AM 45.1°F7.3°C 40.3°F4.6°C 83% 0.7 mph W1.1 kmh W 1.6 mph2.6 kmh 30.02 in1016.6 mb 0.00 in0.0 mm 0.00 in0.0 mm 0.00 in0.0 mm
01:19 AM 45.1°F7.3°C 40.3°F4.6°C 83% Calm Calm 1.6 mph2.6 kmh 30.02 in1016.6 mb 0.00 in0.0 mm 0.00 in0.0 mm 0.00 in0.0 mm
01:18 AM 45.1°F7.3°C 40.3°F4.6°C 83% Calm Calm 1.6 mph2.6 kmh 30.01 in1016.3 mb 0.00 in0.0 mm 0.00 in0.0 mm 0.00 in0.0 mm
01:17 AM 45.1°F7.3°C 40.3°F4.6°C 83% 0.7 mph W1.1 kmh W 1.6 mph2.6 kmh 30.02 in1016.6 mb 0.00 in0.0 mm 0.00 in0.0 mm 0.00 in0.0 mm
01:16 AM 45.1°F7.3°C 40.3°F4.6°C 83% Calm Calm 0.7 mph1.1 kmh 30.01 in1016.3 mb 0.00 in0.0 mm 0.00 in0.0 mm 0.00 in0.0 mm
01:14 AM 45.3°F7.4°C 40.5°F4.7°C 83% Calm Calm 1.6 mph2.6 kmh 30.02 in1016.6 mb 0.00 in0.0 mm 0.00 in0.0 mm 0.00 in0.0 mm
01:13 AM 45.3°F7.4°C 40.5°F4.7°C 83% Calm Calm 1.6 mph2.6 kmh 30.02 in1016.6 mb 0.00 in0.0 mm 0.00 in0.0 mm 0.00 in0.0 mm
01:12 AM 45.3°F7.4°C 40.5°F4.7°C 83% 0.7 mph W1.1 kmh W 1.6 mph2.6 kmh 30.01 in1016.3 mb 0.00 in0.0 mm 0.00 in0.0 mm 0.00 in0.0 mm
01:11 AM 45.3°F7.4°C 40.5°F4.7°C 83% Calm Calm 1.6 mph2.6 kmh 30.01 in1016.3 mb 0.00 in0.0 mm 0.00 in0.0 mm 0.00 in0.0 mm
01:10 AM 45.3°F7.4°C 40.5°F4.7°C 83% Calm Calm 0.7 mph1.1 kmh 30.01 in1016.3 mb 0.00 in0.0 mm 0.00 in0.0 mm 0.00 in0.0 mm
01:09 AM 45.3°F7.4°C 40.8°F4.9°C 84% Calm Calm 1.6 mph2.6 kmh 30.02 in1016.6 mb 0.00 in0.0 mm 0.00 in0.0 mm 0.00 in0.0 mm
01:07 AM 45.5°F7.5°C 41.0°F5.0°C 84% Calm Calm 1.6 mph2.6 kmh 30.01 in1016.3 mb 0.00 in0.0 mm 0.00 in0.0 mm 0.00 in0.0 mm
01:06 AM 45.5°F7.5°C 41.0°F5.0°C 84% 0.7 mph W1.1 kmh W 1.6 mph2.6 kmh 30.02 in1016.6 mb 0.00 in0.0 mm 0.00 in0.0 mm 0.00 in0.0 mm
01:05 AM 45.5°F7.5°C 41.0°F5.0°C 84% 0.7 mph W1.1 kmh W 1.6 mph2.6 kmh 30.02 in1016.6 mb 0.00 in0.0 mm 0.00 in0.0 mm 0.00 in0.0 mm
01:04 AM 45.5°F7.5°C 41.0°F5.0°C 84% Calm Calm 1.6 mph2.6 kmh 30.02 in1016.6 mb 0.00 in0.0 mm 0.00 in0.0 mm 0.00 in0.0 mm
01:03 AM 45.7°F7.6°C 41.2°F5.1°C 84% Calm Calm 1.6 mph2.6 kmh 30.02 in1016.6 mb 0.00 in0.0 mm 0.00 in0.0 mm 0.00 in0.0 mm
01:02 AM 45.5°F7.5°C 41.0°F5.0°C 84% Calm Calm 1.6 mph2.6 kmh 30.02 in1016.6 mb 0.00 in0.0 mm 0.00 in0.0 mm 0.00 in0.0 mm
01:00 AM 45.7°F7.6°C 41.2°F5.1°C 84% Calm Calm 0.7 mph1.1 kmh 30.02 in1016.6 mb 0.00 in0.0 mm 0.00 in0.0 mm 0.00 in0.0 mm
12:59 AM 45.7°F7.6°C 41.2°F5.1°C 84% Calm Calm -- 30.02 in1016.6 mb 0.00 in0.0 mm 0.00 in0.0 mm 0.00 in0.0 mm
12:58 AM 45.7°F7.6°C 41.2°F5.1°C 84% Calm Calm 0.7 mph1.1 kmh 30.02 in1016.6 mb 0.00 in0.0 mm 0.00 in0.0 mm 0.00 in0.0 mm
12:57 AM 45.7°F7.6°C 41.2°F5.1°C 84% Calm Calm 0.7 mph1.1 kmh 30.02 in1016.6 mb 0.00 in0.0 mm 0.00 in0.0 mm 0.00 in0.0 mm
12:56 AM 45.7°F7.6°C 41.2°F5.1°C 84% Calm Calm 0.7 mph1.1 kmh 30.02 in1016.6 mb 0.00 in0.0 mm 0.00 in0.0 mm 0.00 in0.0 mm
12:54 AM 45.7°F7.6°C 41.2°F5.1°C 84% Calm Calm 0.7 mph1.1 kmh 30.02 in1016.6 mb 0.00 in0.0 mm 0.00 in0.0 mm 0.00 in0.0 mm
12:53 AM 45.7°F7.6°C 41.2°F5.1°C 84% Calm Calm 0.7 mph1.1 kmh 30.02 in1016.6 mb 0.00 in0.0 mm 0.00 in0.0 mm 0.00 in0.0 mm
12:52 AM 45.9°F7.7°C 41.4°F5.2°C 84% Calm Calm 0.7 mph1.1 kmh 30.02 in1016.6 mb 0.00 in0.0 mm 0.00 in0.0 mm 0.00 in0.0 mm
12:51 AM 45.9°F7.7°C 41.4°F5.2°C 84% Calm Calm 0.7 mph1.1 kmh 30.02 in1016.6 mb 0.00 in0.0 mm 0.00 in0.0 mm 0.00 in0.0 mm
12:50 AM 45.9°F7.7°C 41.4°F5.2°C 84% Calm Calm 0.7 mph1.1 kmh 30.02 in1016.6 mb 0.00 in0.0 mm 0.00 in0.0 mm 0.00 in0.0 mm
12:49 AM 45.9°F7.7°C 41.4°F5.2°C 84% Calm Calm 0.7 mph1.1 kmh 30.02 in1016.6 mb 0.00 in0.0 mm 0.00 in0.0 mm 0.00 in0.0 mm
12:47 AM 45.9°F7.7°C 41.4°F5.2°C 84% Calm Calm 0.7 mph1.1 kmh 30.02 in1016.6 mb 0.00 in0.0 mm 0.00 in0.0 mm 0.00 in0.0 mm
12:46 AM 45.9°F7.7°C 41.5°F5.3°C 85% Calm Calm 0.7 mph1.1 kmh 30.02 in1016.6 mb 0.00 in0.0 mm 0.00 in0.0 mm 0.00 in0.0 mm
12:45 AM 45.9°F7.7°C 41.5°F5.3°C 85% Calm Calm 0.7 mph1.1 kmh 30.02 in1016.6 mb 0.00 in0.0 mm 0.00 in0.0 mm 0.00 in0.0 mm
12:44 AM 45.9°F7.7°C 41.5°F5.3°C 85% Calm Calm 1.6 mph2.6 kmh 30.02 in1016.6 mb 0.00 in0.0 mm 0.00 in0.0 mm 0.00 in0.0 mm
12:43 AM 45.9°F7.7°C 41.5°F5.3°C 85% 0.7 mph NE1.1 kmh NE 1.6 mph2.6 kmh 30.02 in1016.6 mb 0.00 in0.0 mm 0.00 in0.0 mm 0.00 in0.0 mm
12:42 AM 45.9°F7.7°C 41.5°F5.3°C 85% Calm Calm 0.7 mph1.1 kmh 30.02 in1016.6 mb 0.00 in0.0 mm 0.00 in0.0 mm 0.00 in0.0 mm
12:40 AM 45.9°F7.7°C 41.5°F5.3°C 85% Calm Calm 0.7 mph1.1 kmh 30.02 in1016.6 mb 0.00 in0.0 mm 0.00 in0.0 mm 0.00 in0.0 mm
12:39 AM 45.9°F7.7°C 41.5°F5.3°C 85% Calm Calm 0.7 mph1.1 kmh 30.02 in1016.6 mb 0.00 in0.0 mm 0.00 in0.0 mm 0.00 in0.0 mm
12:38 AM 45.9°F7.7°C 41.5°F5.3°C 85% Calm Calm 1.6 mph2.6 kmh 30.02 in1016.6 mb 0.00 in0.0 mm 0.00 in0.0 mm 0.00 in0.0 mm
12:37 AM 45.9°F7.7°C 41.5°F5.3°C 85% 0.7 mph NW1.1 kmh NW 2.2 mph3.5 kmh 30.02 in1016.6 mb 0.00 in0.0 mm 0.00 in0.0 mm 0.00 in0.0 mm
12:36 AM 45.9°F7.7°C 41.5°F5.3°C 85% 0.7 mph W1.1 kmh W 2.2 mph3.5 kmh 30.02 in1016.6 mb 0.00 in0.0 mm 0.00 in0.0 mm 0.00 in0.0 mm
12:34 AM 45.9°F7.7°C 41.5°F5.3°C 85% 0.7 mph NW1.1 kmh NW 3.1 mph5.0 kmh 30.02 in1016.6 mb 0.00 in0.0 mm 0.00 in0.0 mm 0.00 in0.0 mm
12:33 AM 45.9°F7.7°C 41.9°F5.5°C 86% 1.6 mph NW2.6 kmh NW 3.1 mph5.0 kmh 30.02 in1016.6 mb 0.00 in0.0 mm 0.00 in0.0 mm 0.00 in0.0 mm
12:32 AM 45.9°F7.7°C 41.9°F5.5°C 86% 1.6 mph NW2.6 kmh NW 2.2 mph3.5 kmh 30.02 in1016.6 mb 0.00 in0.0 mm 0.00 in0.0 mm 0.00 in0.0 mm
12:31 AM 46.0°F7.8°C 42.1°F5.6°C 86% 0.7 mph NW1.1 kmh NW 1.6 mph2.6 kmh 30.02 in1016.6 mb 0.00 in0.0 mm 0.00 in0.0 mm 0.00 in0.0 mm
12:30 AM 46.0°F7.8°C 42.1°F5.6°C 86% 0.7 mph W1.1 kmh W 1.6 mph2.6 kmh 30.02 in1016.6 mb 0.00 in0.0 mm 0.00 in0.0 mm 0.00 in0.0 mm
12:29 AM 46.0°F7.8°C 42.1°F5.6°C 86% 0.7 mph W1.1 kmh W 1.6 mph2.6 kmh 30.02 in1016.6 mb 0.00 in0.0 mm 0.00 in0.0 mm 0.00 in0.0 mm
12:27 AM 45.9°F7.7°C 42.3°F5.7°C 87% 0.7 mph W1.1 kmh W 1.6 mph2.6 kmh 30.02 in1016.6 mb 0.00 in0.0 mm 0.00 in0.0 mm 0.00 in0.0 mm
12:26 AM 46.0°F7.8°C 42.4°F5.8°C 87% 0.7 mph W1.1 kmh W 1.6 mph2.6 kmh 30.02 in1016.6 mb 0.00 in0.0 mm 0.00 in0.0 mm 0.00 in0.0 mm
12:25 AM 45.9°F7.7°C 42.3°F5.7°C 87% Calm Calm 0.7 mph1.1 kmh 30.02 in1016.6 mb 0.00 in0.0 mm 0.00 in0.0 mm 0.00 in0.0 mm
12:24 AM 45.9°F7.7°C 42.3°F5.7°C 87% Calm Calm 0.7 mph1.1 kmh 30.02 in1016.6 mb 0.00 in0.0 mm 0.00 in0.0 mm 0.00 in0.0 mm
12:23 AM 45.9°F7.7°C 42.3°F5.7°C 87% Calm Calm 0.7 mph1.1 kmh 30.02 in1016.6 mb 0.00 in0.0 mm 0.00 in0.0 mm 0.00 in0.0 mm
12:22 AM 45.9°F7.7°C 42.3°F5.7°C 87% Calm Calm 0.7 mph1.1 kmh 30.02 in1016.6 mb 0.00 in0.0 mm 0.00 in0.0 mm 0.00 in0.0 mm
12:20 AM 46.0°F7.8°C 42.4°F5.8°C 87% Calm Calm 1.6 mph2.6 kmh 30.02 in1016.6 mb 0.00 in0.0 mm 0.00 in0.0 mm 0.00 in0.0 mm
12:19 AM 46.0°F7.8°C 42.4°F5.8°C 87% 0.7 mph NW1.1 kmh NW 1.6 mph2.6 kmh 30.03 in1016.9 mb 0.00 in0.0 mm 0.00 in0.0 mm 0.00 in0.0 mm
12:18 AM 46.0°F7.8°C 42.4°F5.8°C 87% Calm Calm 1.6 mph2.6 kmh 30.03 in1016.9 mb 0.00 in0.0 mm 0.00 in0.0 mm 0.00 in0.0 mm
12:17 AM 46.0°F7.8°C 42.4°F5.8°C 87% Calm Calm 1.6 mph2.6 kmh 30.02 in1016.6 mb 0.00 in0.0 mm 0.00 in0.0 mm 0.00 in0.0 mm
12:16 AM 46.0°F7.8°C 42.4°F5.8°C 87% Calm Calm 0.7 mph1.1 kmh 30.02 in1016.6 mb 0.00 in0.0 mm 0.00 in0.0 mm 0.00 in0.0 mm
12:15 AM 46.0°F7.8°C 42.4°F5.8°C 87% Calm Calm 1.6 mph2.6 kmh 30.03 in1016.9 mb 0.00 in0.0 mm 0.00 in0.0 mm 0.00 in0.0 mm
12:13 AM 46.0°F7.8°C 42.4°F5.8°C 87% Calm Calm 0.7 mph1.1 kmh 30.03 in1016.9 mb 0.00 in0.0 mm 0.00 in0.0 mm 0.00 in0.0 mm
12:12 AM 46.0°F7.8°C 42.4°F5.8°C 87% Calm Calm 0.7 mph1.1 kmh 30.03 in1016.9 mb 0.00 in0.0 mm 0.00 in0.0 mm 0.00 in0.0 mm
12:11 AM 46.0°F7.8°C 42.1°F5.6°C 86% Calm Calm -- 30.03 in1016.9 mb 0.00 in0.0 mm 0.00 in0.0 mm 0.00 in0.0 mm
12:10 AM 46.0°F7.8°C 42.1°F5.6°C 86% Calm Calm 0.7 mph1.1 kmh 30.03 in1016.9 mb 0.00 in0.0 mm 0.00 in0.0 mm 0.00 in0.0 mm
12:09 AM 46.2°F7.9°C 42.3°F5.7°C 86% Calm Calm 0.7 mph1.1 kmh 30.03 in1016.9 mb 0.00 in0.0 mm 0.00 in0.0 mm 0.00 in0.0 mm
12:07 AM 46.2°F7.9°C 42.3°F5.7°C 86% Calm Calm 0.7 mph1.1 kmh 30.03 in1016.9 mb 0.00 in0.0 mm 0.00 in0.0 mm 0.00 in0.0 mm
12:06 AM 46.2°F7.9°C 42.3°F5.7°C 86% Calm Calm 1.6 mph2.6 kmh 30.03 in1016.9 mb 0.00 in0.0 mm 0.00 in0.0 mm 0.00 in0.0 mm
12:05 AM 46.2°F7.9°C 42.3°F5.7°C 86% Calm Calm 1.6 mph2.6 kmh 30.03 in1016.9 mb 0.00 in0.0 mm 0.00 in0.0 mm 0.00 in0.0 mm
12:04 AM 46.4°F8.0°C 42.4°F5.8°C 86% Calm Calm 1.6 mph2.6 kmh 30.03 in1016.9 mb 0.00 in0.0 mm 0.00 in0.0 mm 0.00 in0.0 mm
12:03 AM 46.4°F8.0°C 42.4°F5.8°C 86% Calm Calm -- 30.03 in1016.9 mb 0.00 in0.0 mm 0.00 in0.0 mm 0.00 in0.0 mm
12:02 AM 46.4°F8.0°C 42.4°F5.8°C 86% Calm Calm -- 30.03 in1016.9 mb 0.00 in0.0 mm 0.00 in0.0 mm 0.00 in0.0 mm
12:00 AM 46.4°F8.0°C 42.4°F5.8°C 86% Calm Calm -- 30.03 in1016.9 mb 0.00 in0.0 mm 0.00 in0.0 mm 0.00 in0.0 mm